<?xml version="1.0" encoding="UTF-8" standalone="no" ?>
<gpx xmlns="http://www.topografix.com/GPX/1/1" xmlns:xsi="http://www.w3.org/2001/XMLSchema-instance" xsi:schemaLocation="http://www.topografix.com/GPX/1/1 http://www.topografix.com/GPX/1/1/gpx.xsd" version="1.1" creator="VisuGPX - https://www.visugpx.com">
  <metadata>
    <name>Lac du Poursollet lac Fourchu la Morte</name>
  </metadata>
  <trk>
    <name><![CDATA[02-JUIL-17 15:29:30]]></name>
    <extensions>
      <line xmlns="http://www.topografix.com/GPX/gpx_style/0/2">
        <color>0000FF</color>
        <width>4</width>
      </line>
    </extensions>
    <trkseg>
      <trkpt lat="45.05312" lon="5.89885">
        <ele>1676.2</ele>
        <time>2017-07-02T07:36:49Z</time>
      </trkpt>
      <trkpt lat="45.05315" lon="5.89904">
        <ele>1676.68</ele>
        <time>2017-07-02T07:37:06Z</time>
      </trkpt>
      <trkpt lat="45.05317" lon="5.8991">
        <ele>1674.75</ele>
        <time>2017-07-02T07:37:17Z</time>
      </trkpt>
      <trkpt lat="45.05322" lon="5.89913">
        <ele>1675.23</ele>
        <time>2017-07-02T07:37:29Z</time>
      </trkpt>
      <trkpt lat="45.05326" lon="5.89915">
        <ele>1675.23</ele>
        <time>2017-07-02T07:37:41Z</time>
      </trkpt>
      <trkpt lat="45.05327" lon="5.89916">
        <ele>1675.72</ele>
        <time>2017-07-02T07:37:45Z</time>
      </trkpt>
      <trkpt lat="45.05325" lon="5.89917">
        <ele>1675.23</ele>
        <time>2017-07-02T07:37:58Z</time>
      </trkpt>
      <trkpt lat="45.05321" lon="5.89911">
        <ele>1675.23</ele>
        <time>2017-07-02T07:38:27Z</time>
      </trkpt>
      <trkpt lat="45.05314" lon="5.899">
        <ele>1675.72</ele>
        <time>2017-07-02T07:38:56Z</time>
      </trkpt>
      <trkpt lat="45.05327" lon="5.89896">
        <ele>1676.68</ele>
        <time>2017-07-02T07:39:20Z</time>
      </trkpt>
      <trkpt lat="45.05324" lon="5.89899">
        <ele>1676.68</ele>
        <time>2017-07-02T07:39:36Z</time>
      </trkpt>
      <trkpt lat="45.05315" lon="5.89903">
        <ele>1677.16</ele>
        <time>2017-07-02T07:39:57Z</time>
      </trkpt>
      <trkpt lat="45.0532" lon="5.89915">
        <ele>1677.16</ele>
        <time>2017-07-02T07:40:13Z</time>
      </trkpt>
      <trkpt lat="45.05316" lon="5.89926">
        <ele>1677.64</ele>
        <time>2017-07-02T07:40:27Z</time>
      </trkpt>
      <trkpt lat="45.05312" lon="5.89937">
        <ele>1680.04</ele>
        <time>2017-07-02T07:40:41Z</time>
      </trkpt>
      <trkpt lat="45.0531" lon="5.89942">
        <ele>1679.08</ele>
        <time>2017-07-02T07:40:46Z</time>
      </trkpt>
      <trkpt lat="45.05308" lon="5.89947">
        <ele>1680.04</ele>
        <time>2017-07-02T07:40:50Z</time>
      </trkpt>
      <trkpt lat="45.05302" lon="5.89959">
        <ele>1681</ele>
        <time>2017-07-02T07:41:03Z</time>
      </trkpt>
      <trkpt lat="45.05292" lon="5.89979">
        <ele>1680.04</ele>
        <time>2017-07-02T07:41:18Z</time>
      </trkpt>
      <trkpt lat="45.05283" lon="5.89989">
        <ele>1677.64</ele>
        <time>2017-07-02T07:41:32Z</time>
      </trkpt>
      <trkpt lat="45.05273" lon="5.9">
        <ele>1676.68</ele>
        <time>2017-07-02T07:41:44Z</time>
      </trkpt>
      <trkpt lat="45.05267" lon="5.90003">
        <ele>1675.72</ele>
        <time>2017-07-02T07:41:49Z</time>
      </trkpt>
      <trkpt lat="45.05258" lon="5.90016">
        <ele>1673.31</ele>
        <time>2017-07-02T07:42:00Z</time>
      </trkpt>
      <trkpt lat="45.05248" lon="5.90038">
        <ele>1673.31</ele>
        <time>2017-07-02T07:42:14Z</time>
      </trkpt>
      <trkpt lat="45.05232" lon="5.90058">
        <ele>1673.31</ele>
        <time>2017-07-02T07:42:30Z</time>
      </trkpt>
      <trkpt lat="45.05222" lon="5.90064">
        <ele>1671.87</ele>
        <time>2017-07-02T07:42:42Z</time>
      </trkpt>
      <trkpt lat="45.05212" lon="5.90071">
        <ele>1671.87</ele>
        <time>2017-07-02T07:42:55Z</time>
      </trkpt>
      <trkpt lat="45.052" lon="5.90083">
        <ele>1671.87</ele>
        <time>2017-07-02T07:43:06Z</time>
      </trkpt>
      <trkpt lat="45.052" lon="5.90083">
        <ele>1670.91</ele>
        <time>2017-07-02T07:43:07Z</time>
      </trkpt>
      <trkpt lat="45.05198" lon="5.90087">
        <ele>1671.39</ele>
        <time>2017-07-02T07:43:09Z</time>
      </trkpt>
      <trkpt lat="45.0519" lon="5.90095">
        <ele>1673.31</ele>
        <time>2017-07-02T07:43:22Z</time>
      </trkpt>
      <trkpt lat="45.05186" lon="5.90099">
        <ele>1674.75</ele>
        <time>2017-07-02T07:43:27Z</time>
      </trkpt>
      <trkpt lat="45.05185" lon="5.90108">
        <ele>1674.27</ele>
        <time>2017-07-02T07:43:37Z</time>
      </trkpt>
      <trkpt lat="45.05184" lon="5.9012">
        <ele>1676.2</ele>
        <time>2017-07-02T07:43:49Z</time>
      </trkpt>
      <trkpt lat="45.05184" lon="5.90121">
        <ele>1676.2</ele>
        <time>2017-07-02T07:43:50Z</time>
      </trkpt>
      <trkpt lat="45.05188" lon="5.90134">
        <ele>1677.64</ele>
        <time>2017-07-02T07:43:58Z</time>
      </trkpt>
      <trkpt lat="45.05188" lon="5.90135">
        <ele>1677.64</ele>
        <time>2017-07-02T07:43:59Z</time>
      </trkpt>
      <trkpt lat="45.05191" lon="5.90149">
        <ele>1678.12</ele>
        <time>2017-07-02T07:44:12Z</time>
      </trkpt>
      <trkpt lat="45.0519" lon="5.90152">
        <ele>1679.08</ele>
        <time>2017-07-02T07:44:16Z</time>
      </trkpt>
      <trkpt lat="45.05189" lon="5.90153">
        <ele>1679.08</ele>
        <time>2017-07-02T07:44:17Z</time>
      </trkpt>
      <trkpt lat="45.05184" lon="5.90159">
        <ele>1681.96</ele>
        <time>2017-07-02T07:44:28Z</time>
      </trkpt>
      <trkpt lat="45.05183" lon="5.90162">
        <ele>1681.96</ele>
        <time>2017-07-02T07:44:32Z</time>
      </trkpt>
      <trkpt lat="45.05179" lon="5.90175">
        <ele>1682.93</ele>
        <time>2017-07-02T07:44:46Z</time>
      </trkpt>
      <trkpt lat="45.05178" lon="5.90181">
        <ele>1683.89</ele>
        <time>2017-07-02T07:44:53Z</time>
      </trkpt>
      <trkpt lat="45.05177" lon="5.90182">
        <ele>1683.89</ele>
        <time>2017-07-02T07:44:54Z</time>
      </trkpt>
      <trkpt lat="45.05175" lon="5.90183">
        <ele>1683.89</ele>
        <time>2017-07-02T07:44:55Z</time>
      </trkpt>
      <trkpt lat="45.05168" lon="5.90186">
        <ele>1685.33</ele>
        <time>2017-07-02T07:45:03Z</time>
      </trkpt>
      <trkpt lat="45.05166" lon="5.90187">
        <ele>1684.85</ele>
        <time>2017-07-02T07:45:04Z</time>
      </trkpt>
      <trkpt lat="45.05162" lon="5.90189">
        <ele>1684.37</ele>
        <time>2017-07-02T07:45:08Z</time>
      </trkpt>
      <trkpt lat="45.05161" lon="5.90193">
        <ele>1684.85</ele>
        <time>2017-07-02T07:45:11Z</time>
      </trkpt>
      <trkpt lat="45.0516" lon="5.90195">
        <ele>1684.37</ele>
        <time>2017-07-02T07:45:12Z</time>
      </trkpt>
      <trkpt lat="45.0516" lon="5.90197">
        <ele>1685.33</ele>
        <time>2017-07-02T07:45:13Z</time>
      </trkpt>
      <trkpt lat="45.05159" lon="5.90199">
        <ele>1685.81</ele>
        <time>2017-07-02T07:45:14Z</time>
      </trkpt>
      <trkpt lat="45.05159" lon="5.90201">
        <ele>1684.85</ele>
        <time>2017-07-02T07:45:15Z</time>
      </trkpt>
      <trkpt lat="45.05158" lon="5.90203">
        <ele>1684.85</ele>
        <time>2017-07-02T07:45:16Z</time>
      </trkpt>
      <trkpt lat="45.05158" lon="5.90206">
        <ele>1684.85</ele>
        <time>2017-07-02T07:45:17Z</time>
      </trkpt>
      <trkpt lat="45.05158" lon="5.90208">
        <ele>1684.85</ele>
        <time>2017-07-02T07:45:18Z</time>
      </trkpt>
      <trkpt lat="45.05157" lon="5.9021">
        <ele>1684.85</ele>
        <time>2017-07-02T07:45:19Z</time>
      </trkpt>
      <trkpt lat="45.05157" lon="5.90211">
        <ele>1684.85</ele>
        <time>2017-07-02T07:45:20Z</time>
      </trkpt>
      <trkpt lat="45.05157" lon="5.90213">
        <ele>1685.33</ele>
        <time>2017-07-02T07:45:21Z</time>
      </trkpt>
      <trkpt lat="45.05154" lon="5.90232">
        <ele>1684.85</ele>
        <time>2017-07-02T07:45:34Z</time>
      </trkpt>
      <trkpt lat="45.05152" lon="5.90249">
        <ele>1686.77</ele>
        <time>2017-07-02T07:45:46Z</time>
      </trkpt>
      <trkpt lat="45.05152" lon="5.90251">
        <ele>1686.29</ele>
        <time>2017-07-02T07:46:00Z</time>
      </trkpt>
      <trkpt lat="45.05152" lon="5.90249">
        <ele>1685.81</ele>
        <time>2017-07-02T07:46:16Z</time>
      </trkpt>
      <trkpt lat="45.05153" lon="5.90252">
        <ele>1686.29</ele>
        <time>2017-07-02T07:46:32Z</time>
      </trkpt>
      <trkpt lat="45.05153" lon="5.90251">
        <ele>1686.29</ele>
        <time>2017-07-02T07:46:55Z</time>
      </trkpt>
      <trkpt lat="45.05158" lon="5.9025">
        <ele>1685.81</ele>
        <time>2017-07-02T07:47:16Z</time>
      </trkpt>
      <trkpt lat="45.05153" lon="5.90255">
        <ele>1685.81</ele>
        <time>2017-07-02T07:47:43Z</time>
      </trkpt>
      <trkpt lat="45.05154" lon="5.90255">
        <ele>1685.33</ele>
        <time>2017-07-02T07:48:05Z</time>
      </trkpt>
      <trkpt lat="45.05155" lon="5.90257">
        <ele>1685.33</ele>
        <time>2017-07-02T07:48:26Z</time>
      </trkpt>
      <trkpt lat="45.05157" lon="5.90264">
        <ele>1686.29</ele>
        <time>2017-07-02T07:48:37Z</time>
      </trkpt>
      <trkpt lat="45.05159" lon="5.90271">
        <ele>1685.81</ele>
        <time>2017-07-02T07:48:43Z</time>
      </trkpt>
      <trkpt lat="45.05159" lon="5.90273">
        <ele>1686.29</ele>
        <time>2017-07-02T07:48:44Z</time>
      </trkpt>
      <trkpt lat="45.0516" lon="5.90275">
        <ele>1686.29</ele>
        <time>2017-07-02T07:48:46Z</time>
      </trkpt>
      <trkpt lat="45.05161" lon="5.90276">
        <ele>1686.29</ele>
        <time>2017-07-02T07:48:47Z</time>
      </trkpt>
      <trkpt lat="45.05163" lon="5.90281">
        <ele>1686.29</ele>
        <time>2017-07-02T07:48:52Z</time>
      </trkpt>
      <trkpt lat="45.05163" lon="5.90283">
        <ele>1686.77</ele>
        <time>2017-07-02T07:48:53Z</time>
      </trkpt>
      <trkpt lat="45.05166" lon="5.903">
        <ele>1686.29</ele>
        <time>2017-07-02T07:49:05Z</time>
      </trkpt>
      <trkpt lat="45.05168" lon="5.90305">
        <ele>1686.29</ele>
        <time>2017-07-02T07:49:09Z</time>
      </trkpt>
      <trkpt lat="45.05172" lon="5.90325">
        <ele>1686.77</ele>
        <time>2017-07-02T07:49:24Z</time>
      </trkpt>
      <trkpt lat="45.05174" lon="5.90344">
        <ele>1686.29</ele>
        <time>2017-07-02T07:49:39Z</time>
      </trkpt>
      <trkpt lat="45.05173" lon="5.90359">
        <ele>1686.77</ele>
        <time>2017-07-02T07:49:49Z</time>
      </trkpt>
      <trkpt lat="45.0517" lon="5.90377">
        <ele>1687.25</ele>
        <time>2017-07-02T07:50:02Z</time>
      </trkpt>
      <trkpt lat="45.05164" lon="5.90396">
        <ele>1688.21</ele>
        <time>2017-07-02T07:50:17Z</time>
      </trkpt>
      <trkpt lat="45.05162" lon="5.90401">
        <ele>1688.21</ele>
        <time>2017-07-02T07:50:20Z</time>
      </trkpt>
      <trkpt lat="45.05158" lon="5.9042">
        <ele>1689.65</ele>
        <time>2017-07-02T07:50:34Z</time>
      </trkpt>
      <trkpt lat="45.05155" lon="5.90436">
        <ele>1690.62</ele>
        <time>2017-07-02T07:50:47Z</time>
      </trkpt>
      <trkpt lat="45.05151" lon="5.90453">
        <ele>1691.1</ele>
        <time>2017-07-02T07:51:00Z</time>
      </trkpt>
      <trkpt lat="45.05151" lon="5.90455">
        <ele>1691.1</ele>
        <time>2017-07-02T07:51:01Z</time>
      </trkpt>
      <trkpt lat="45.05148" lon="5.90474">
        <ele>1692.06</ele>
        <time>2017-07-02T07:51:15Z</time>
      </trkpt>
      <trkpt lat="45.05147" lon="5.90483">
        <ele>1693.02</ele>
        <time>2017-07-02T07:51:23Z</time>
      </trkpt>
      <trkpt lat="45.05146" lon="5.90499">
        <ele>1694.46</ele>
        <time>2017-07-02T07:51:36Z</time>
      </trkpt>
      <trkpt lat="45.05143" lon="5.90521">
        <ele>1695.9</ele>
        <time>2017-07-02T07:51:51Z</time>
      </trkpt>
      <trkpt lat="45.05138" lon="5.90541">
        <ele>1697.34</ele>
        <time>2017-07-02T07:52:06Z</time>
      </trkpt>
      <trkpt lat="45.05136" lon="5.90554">
        <ele>1698.79</ele>
        <time>2017-07-02T07:52:15Z</time>
      </trkpt>
      <trkpt lat="45.05135" lon="5.90556">
        <ele>1699.27</ele>
        <time>2017-07-02T07:52:16Z</time>
      </trkpt>
      <trkpt lat="45.05134" lon="5.90557">
        <ele>1698.79</ele>
        <time>2017-07-02T07:52:17Z</time>
      </trkpt>
      <trkpt lat="45.05132" lon="5.90576">
        <ele>1700.23</ele>
        <time>2017-07-02T07:52:27Z</time>
      </trkpt>
      <trkpt lat="45.05126" lon="5.90598">
        <ele>1703.11</ele>
        <time>2017-07-02T07:52:41Z</time>
      </trkpt>
      <trkpt lat="45.05124" lon="5.90611">
        <ele>1703.59</ele>
        <time>2017-07-02T07:52:50Z</time>
      </trkpt>
      <trkpt lat="45.05124" lon="5.90614">
        <ele>1703.59</ele>
        <time>2017-07-02T07:52:52Z</time>
      </trkpt>
      <trkpt lat="45.05124" lon="5.90616">
        <ele>1703.59</ele>
        <time>2017-07-02T07:52:53Z</time>
      </trkpt>
      <trkpt lat="45.05123" lon="5.90625">
        <ele>1703.59</ele>
        <time>2017-07-02T07:52:59Z</time>
      </trkpt>
      <trkpt lat="45.05124" lon="5.90631">
        <ele>1705.04</ele>
        <time>2017-07-02T07:53:03Z</time>
      </trkpt>
      <trkpt lat="45.05124" lon="5.90632">
        <ele>1705.04</ele>
        <time>2017-07-02T07:53:04Z</time>
      </trkpt>
      <trkpt lat="45.05123" lon="5.90634">
        <ele>1705.52</ele>
        <time>2017-07-02T07:53:05Z</time>
      </trkpt>
      <trkpt lat="45.05125" lon="5.90639">
        <ele>1705.52</ele>
        <time>2017-07-02T07:53:09Z</time>
      </trkpt>
      <trkpt lat="45.05125" lon="5.90653">
        <ele>1706</ele>
        <time>2017-07-02T07:53:18Z</time>
      </trkpt>
      <trkpt lat="45.05126" lon="5.90663">
        <ele>1707.44</ele>
        <time>2017-07-02T07:53:25Z</time>
      </trkpt>
      <trkpt lat="45.0513" lon="5.90674">
        <ele>1707.44</ele>
        <time>2017-07-02T07:53:32Z</time>
      </trkpt>
      <trkpt lat="45.0513" lon="5.90676">
        <ele>1707.44</ele>
        <time>2017-07-02T07:53:33Z</time>
      </trkpt>
      <trkpt lat="45.05132" lon="5.907">
        <ele>1709.84</ele>
        <time>2017-07-02T07:53:51Z</time>
      </trkpt>
      <trkpt lat="45.05131" lon="5.90707">
        <ele>1709.84</ele>
        <time>2017-07-02T07:53:56Z</time>
      </trkpt>
      <trkpt lat="45.05126" lon="5.90726">
        <ele>1712.73</ele>
        <time>2017-07-02T07:54:10Z</time>
      </trkpt>
      <trkpt lat="45.05121" lon="5.90743">
        <ele>1713.69</ele>
        <time>2017-07-02T07:54:24Z</time>
      </trkpt>
      <trkpt lat="45.05116" lon="5.90762">
        <ele>1715.13</ele>
        <time>2017-07-02T07:54:40Z</time>
      </trkpt>
      <trkpt lat="45.05116" lon="5.90767">
        <ele>1715.61</ele>
        <time>2017-07-02T07:54:44Z</time>
      </trkpt>
      <trkpt lat="45.05115" lon="5.90785">
        <ele>1717.53</ele>
        <time>2017-07-02T07:55:00Z</time>
      </trkpt>
      <trkpt lat="45.0511" lon="5.90801">
        <ele>1718.01</ele>
        <time>2017-07-02T07:55:16Z</time>
      </trkpt>
      <trkpt lat="45.05102" lon="5.9081">
        <ele>1720.42</ele>
        <time>2017-07-02T07:55:30Z</time>
      </trkpt>
      <trkpt lat="45.05097" lon="5.90822">
        <ele>1722.34</ele>
        <time>2017-07-02T07:55:46Z</time>
      </trkpt>
      <trkpt lat="45.05101" lon="5.90841">
        <ele>1724.26</ele>
        <time>2017-07-02T07:56:03Z</time>
      </trkpt>
      <trkpt lat="45.05094" lon="5.90858">
        <ele>1726.18</ele>
        <time>2017-07-02T07:56:19Z</time>
      </trkpt>
      <trkpt lat="45.05092" lon="5.90872">
        <ele>1727.15</ele>
        <time>2017-07-02T07:56:32Z</time>
      </trkpt>
      <trkpt lat="45.05092" lon="5.90875">
        <ele>1728.11</ele>
        <time>2017-07-02T07:56:34Z</time>
      </trkpt>
      <trkpt lat="45.05091" lon="5.9089">
        <ele>1729.07</ele>
        <time>2017-07-02T07:56:49Z</time>
      </trkpt>
      <trkpt lat="45.05091" lon="5.90904">
        <ele>1730.51</ele>
        <time>2017-07-02T07:57:02Z</time>
      </trkpt>
      <trkpt lat="45.05091" lon="5.90917">
        <ele>1731.95</ele>
        <time>2017-07-02T07:57:14Z</time>
      </trkpt>
      <trkpt lat="45.05085" lon="5.90925">
        <ele>1733.39</ele>
        <time>2017-07-02T07:57:28Z</time>
      </trkpt>
      <trkpt lat="45.05082" lon="5.90933">
        <ele>1735.32</ele>
        <time>2017-07-02T07:57:40Z</time>
      </trkpt>
      <trkpt lat="45.05079" lon="5.90937">
        <ele>1735.32</ele>
        <time>2017-07-02T07:57:44Z</time>
      </trkpt>
      <trkpt lat="45.05077" lon="5.90946">
        <ele>1736.28</ele>
        <time>2017-07-02T07:57:55Z</time>
      </trkpt>
      <trkpt lat="45.05075" lon="5.90964">
        <ele>1738.2</ele>
        <time>2017-07-02T07:58:13Z</time>
      </trkpt>
      <trkpt lat="45.05071" lon="5.90973">
        <ele>1740.12</ele>
        <time>2017-07-02T07:58:25Z</time>
      </trkpt>
      <trkpt lat="45.05071" lon="5.90981">
        <ele>1740.6</ele>
        <time>2017-07-02T07:58:31Z</time>
      </trkpt>
      <trkpt lat="45.05068" lon="5.90993">
        <ele>1741.08</ele>
        <time>2017-07-02T07:58:42Z</time>
      </trkpt>
      <trkpt lat="45.05064" lon="5.91009">
        <ele>1741.57</ele>
        <time>2017-07-02T07:58:55Z</time>
      </trkpt>
      <trkpt lat="45.05063" lon="5.91018">
        <ele>1741.57</ele>
        <time>2017-07-02T07:59:05Z</time>
      </trkpt>
      <trkpt lat="45.05061" lon="5.91036">
        <ele>1742.05</ele>
        <time>2017-07-02T07:59:21Z</time>
      </trkpt>
      <trkpt lat="45.05058" lon="5.91049">
        <ele>1743.49</ele>
        <time>2017-07-02T07:59:35Z</time>
      </trkpt>
      <trkpt lat="45.05058" lon="5.91049">
        <ele>1742.53</ele>
        <time>2017-07-02T07:59:36Z</time>
      </trkpt>
      <trkpt lat="45.05059" lon="5.91054">
        <ele>1742.05</ele>
        <time>2017-07-02T07:59:42Z</time>
      </trkpt>
      <trkpt lat="45.05061" lon="5.91058">
        <ele>1741.57</ele>
        <time>2017-07-02T07:59:50Z</time>
      </trkpt>
      <trkpt lat="45.05057" lon="5.9107">
        <ele>1742.05</ele>
        <time>2017-07-02T08:00:02Z</time>
      </trkpt>
      <trkpt lat="45.05053" lon="5.91085">
        <ele>1743.01</ele>
        <time>2017-07-02T08:00:16Z</time>
      </trkpt>
      <trkpt lat="45.05051" lon="5.91095">
        <ele>1744.45</ele>
        <time>2017-07-02T08:00:27Z</time>
      </trkpt>
      <trkpt lat="45.05044" lon="5.91101">
        <ele>1746.85</ele>
        <time>2017-07-02T08:00:39Z</time>
      </trkpt>
      <trkpt lat="45.05043" lon="5.91103">
        <ele>1746.85</ele>
        <time>2017-07-02T08:00:41Z</time>
      </trkpt>
      <trkpt lat="45.0504" lon="5.91104">
        <ele>1747.81</ele>
        <time>2017-07-02T08:00:45Z</time>
      </trkpt>
      <trkpt lat="45.05039" lon="5.91111">
        <ele>1749.26</ele>
        <time>2017-07-02T08:00:56Z</time>
      </trkpt>
      <trkpt lat="45.05038" lon="5.91122">
        <ele>1750.7</ele>
        <time>2017-07-02T08:01:08Z</time>
      </trkpt>
      <trkpt lat="45.05034" lon="5.91131">
        <ele>1753.1</ele>
        <time>2017-07-02T08:01:22Z</time>
      </trkpt>
      <trkpt lat="45.0504" lon="5.91137">
        <ele>1752.14</ele>
        <time>2017-07-02T08:01:34Z</time>
      </trkpt>
      <trkpt lat="45.05043" lon="5.91151">
        <ele>1751.66</ele>
        <time>2017-07-02T08:01:48Z</time>
      </trkpt>
      <trkpt lat="45.05041" lon="5.91162">
        <ele>1753.1</ele>
        <time>2017-07-02T08:02:00Z</time>
      </trkpt>
      <trkpt lat="45.05044" lon="5.91165">
        <ele>1752.62</ele>
        <time>2017-07-02T08:02:07Z</time>
      </trkpt>
      <trkpt lat="45.05048" lon="5.9117">
        <ele>1754.06</ele>
        <time>2017-07-02T08:02:17Z</time>
      </trkpt>
      <trkpt lat="45.05052" lon="5.91179">
        <ele>1756.47</ele>
        <time>2017-07-02T08:02:29Z</time>
      </trkpt>
      <trkpt lat="45.05055" lon="5.91185">
        <ele>1758.39</ele>
        <time>2017-07-02T08:02:39Z</time>
      </trkpt>
      <trkpt lat="45.05056" lon="5.91192">
        <ele>1760.31</ele>
        <time>2017-07-02T08:02:50Z</time>
      </trkpt>
      <trkpt lat="45.05056" lon="5.91193">
        <ele>1760.79</ele>
        <time>2017-07-02T08:02:51Z</time>
      </trkpt>
      <trkpt lat="45.05057" lon="5.912">
        <ele>1761.75</ele>
        <time>2017-07-02T08:03:02Z</time>
      </trkpt>
      <trkpt lat="45.05057" lon="5.91207">
        <ele>1763.2</ele>
        <time>2017-07-02T08:03:10Z</time>
      </trkpt>
      <trkpt lat="45.05058" lon="5.91214">
        <ele>1764.64</ele>
        <time>2017-07-02T08:03:21Z</time>
      </trkpt>
      <trkpt lat="45.05059" lon="5.91219">
        <ele>1765.6</ele>
        <time>2017-07-02T08:03:32Z</time>
      </trkpt>
      <trkpt lat="45.05059" lon="5.91227">
        <ele>1767.04</ele>
        <time>2017-07-02T08:03:44Z</time>
      </trkpt>
      <trkpt lat="45.0506" lon="5.91231">
        <ele>1768.96</ele>
        <time>2017-07-02T08:03:55Z</time>
      </trkpt>
      <trkpt lat="45.05063" lon="5.91239">
        <ele>1769.92</ele>
        <time>2017-07-02T08:04:07Z</time>
      </trkpt>
      <trkpt lat="45.05063" lon="5.91249">
        <ele>1771.37</ele>
        <time>2017-07-02T08:04:18Z</time>
      </trkpt>
      <trkpt lat="45.05064" lon="5.91253">
        <ele>1772.33</ele>
        <time>2017-07-02T08:04:31Z</time>
      </trkpt>
      <trkpt lat="45.05064" lon="5.9126">
        <ele>1773.77</ele>
        <time>2017-07-02T08:04:46Z</time>
      </trkpt>
      <trkpt lat="45.05064" lon="5.91266">
        <ele>1775.21</ele>
        <time>2017-07-02T08:04:55Z</time>
      </trkpt>
      <trkpt lat="45.05064" lon="5.91271">
        <ele>1777.13</ele>
        <time>2017-07-02T08:05:09Z</time>
      </trkpt>
      <trkpt lat="45.05066" lon="5.91273">
        <ele>1778.1</ele>
        <time>2017-07-02T08:05:20Z</time>
      </trkpt>
      <trkpt lat="45.05069" lon="5.91282">
        <ele>1779.54</ele>
        <time>2017-07-02T08:05:31Z</time>
      </trkpt>
      <trkpt lat="45.05068" lon="5.91288">
        <ele>1780.98</ele>
        <time>2017-07-02T08:05:45Z</time>
      </trkpt>
      <trkpt lat="45.0507" lon="5.91297">
        <ele>1782.42</ele>
        <time>2017-07-02T08:05:57Z</time>
      </trkpt>
      <trkpt lat="45.0507" lon="5.91299">
        <ele>1783.38</ele>
        <time>2017-07-02T08:05:58Z</time>
      </trkpt>
      <trkpt lat="45.05073" lon="5.91305">
        <ele>1783.86</ele>
        <time>2017-07-02T08:06:09Z</time>
      </trkpt>
      <trkpt lat="45.05074" lon="5.91309">
        <ele>1785.31</ele>
        <time>2017-07-02T08:06:16Z</time>
      </trkpt>
      <trkpt lat="45.05076" lon="5.91316">
        <ele>1786.75</ele>
        <time>2017-07-02T08:06:27Z</time>
      </trkpt>
      <trkpt lat="45.05075" lon="5.91322">
        <ele>1788.19</ele>
        <time>2017-07-02T08:06:38Z</time>
      </trkpt>
      <trkpt lat="45.05078" lon="5.91326">
        <ele>1789.15</ele>
        <time>2017-07-02T08:06:50Z</time>
      </trkpt>
      <trkpt lat="45.05082" lon="5.91329">
        <ele>1791.07</ele>
        <time>2017-07-02T08:07:01Z</time>
      </trkpt>
      <trkpt lat="45.05082" lon="5.91337">
        <ele>1793</ele>
        <time>2017-07-02T08:07:13Z</time>
      </trkpt>
      <trkpt lat="45.05084" lon="5.9134">
        <ele>1793.96</ele>
        <time>2017-07-02T08:07:18Z</time>
      </trkpt>
      <trkpt lat="45.05091" lon="5.91348">
        <ele>1793.96</ele>
        <time>2017-07-02T08:07:31Z</time>
      </trkpt>
      <trkpt lat="45.05094" lon="5.91347">
        <ele>1793</ele>
        <time>2017-07-02T08:07:42Z</time>
      </trkpt>
      <trkpt lat="45.05095" lon="5.91346">
        <ele>1792.52</ele>
        <time>2017-07-02T08:07:43Z</time>
      </trkpt>
      <trkpt lat="45.051" lon="5.91348">
        <ele>1791.07</ele>
        <time>2017-07-02T08:07:56Z</time>
      </trkpt>
      <trkpt lat="45.05103" lon="5.91352">
        <ele>1791.07</ele>
        <time>2017-07-02T08:08:06Z</time>
      </trkpt>
      <trkpt lat="45.05109" lon="5.91357">
        <ele>1791.55</ele>
        <time>2017-07-02T08:08:19Z</time>
      </trkpt>
      <trkpt lat="45.05116" lon="5.91362">
        <ele>1793</ele>
        <time>2017-07-02T08:08:32Z</time>
      </trkpt>
      <trkpt lat="45.05119" lon="5.91369">
        <ele>1794.44</ele>
        <time>2017-07-02T08:08:43Z</time>
      </trkpt>
      <trkpt lat="45.05125" lon="5.91372">
        <ele>1794.92</ele>
        <time>2017-07-02T08:08:55Z</time>
      </trkpt>
      <trkpt lat="45.05131" lon="5.9138">
        <ele>1796.84</ele>
        <time>2017-07-02T08:09:08Z</time>
      </trkpt>
      <trkpt lat="45.05136" lon="5.91389">
        <ele>1797.8</ele>
        <time>2017-07-02T08:09:20Z</time>
      </trkpt>
      <trkpt lat="45.05139" lon="5.91399">
        <ele>1799.73</ele>
        <time>2017-07-02T08:09:32Z</time>
      </trkpt>
      <trkpt lat="45.05141" lon="5.91399">
        <ele>1799.73</ele>
        <time>2017-07-02T08:09:34Z</time>
      </trkpt>
      <trkpt lat="45.05144" lon="5.914">
        <ele>1801.17</ele>
        <time>2017-07-02T08:09:39Z</time>
      </trkpt>
      <trkpt lat="45.05149" lon="5.91409">
        <ele>1802.13</ele>
        <time>2017-07-02T08:09:52Z</time>
      </trkpt>
      <trkpt lat="45.05152" lon="5.91416">
        <ele>1804.05</ele>
        <time>2017-07-02T08:10:04Z</time>
      </trkpt>
      <trkpt lat="45.05155" lon="5.91418">
        <ele>1804.53</ele>
        <time>2017-07-02T08:10:07Z</time>
      </trkpt>
      <trkpt lat="45.0516" lon="5.9143">
        <ele>1803.09</ele>
        <time>2017-07-02T08:10:18Z</time>
      </trkpt>
      <trkpt lat="45.05157" lon="5.91442">
        <ele>1802.61</ele>
        <time>2017-07-02T08:10:30Z</time>
      </trkpt>
      <trkpt lat="45.05157" lon="5.91456">
        <ele>1803.57</ele>
        <time>2017-07-02T08:10:43Z</time>
      </trkpt>
      <trkpt lat="45.05158" lon="5.91466">
        <ele>1805.01</ele>
        <time>2017-07-02T08:10:53Z</time>
      </trkpt>
      <trkpt lat="45.05158" lon="5.91475">
        <ele>1806.94</ele>
        <time>2017-07-02T08:11:06Z</time>
      </trkpt>
      <trkpt lat="45.05158" lon="5.91487">
        <ele>1808.38</ele>
        <time>2017-07-02T08:11:20Z</time>
      </trkpt>
      <trkpt lat="45.05159" lon="5.91493">
        <ele>1809.82</ele>
        <time>2017-07-02T08:11:31Z</time>
      </trkpt>
      <trkpt lat="45.05161" lon="5.915">
        <ele>1810.78</ele>
        <time>2017-07-02T08:11:37Z</time>
      </trkpt>
      <trkpt lat="45.05164" lon="5.91505">
        <ele>1810.3</ele>
        <time>2017-07-02T08:11:42Z</time>
      </trkpt>
      <trkpt lat="45.05169" lon="5.91514">
        <ele>1811.74</ele>
        <time>2017-07-02T08:11:54Z</time>
      </trkpt>
      <trkpt lat="45.05168" lon="5.91515">
        <ele>1812.7</ele>
        <time>2017-07-02T08:11:56Z</time>
      </trkpt>
      <trkpt lat="45.0517" lon="5.91524">
        <ele>1813.66</ele>
        <time>2017-07-02T08:12:10Z</time>
      </trkpt>
      <trkpt lat="45.05171" lon="5.91532">
        <ele>1816.07</ele>
        <time>2017-07-02T08:12:22Z</time>
      </trkpt>
      <trkpt lat="45.05173" lon="5.9154">
        <ele>1818.47</ele>
        <time>2017-07-02T08:12:33Z</time>
      </trkpt>
      <trkpt lat="45.05176" lon="5.91546">
        <ele>1819.91</ele>
        <time>2017-07-02T08:12:46Z</time>
      </trkpt>
      <trkpt lat="45.05176" lon="5.91553">
        <ele>1822.8</ele>
        <time>2017-07-02T08:12:56Z</time>
      </trkpt>
      <trkpt lat="45.05179" lon="5.91558">
        <ele>1823.76</ele>
        <time>2017-07-02T08:13:06Z</time>
      </trkpt>
      <trkpt lat="45.05181" lon="5.91566">
        <ele>1825.68</ele>
        <time>2017-07-02T08:13:17Z</time>
      </trkpt>
      <trkpt lat="45.05179" lon="5.9157">
        <ele>1826.64</ele>
        <time>2017-07-02T08:13:23Z</time>
      </trkpt>
      <trkpt lat="45.05181" lon="5.91576">
        <ele>1827.6</ele>
        <time>2017-07-02T08:13:32Z</time>
      </trkpt>
      <trkpt lat="45.0518" lon="5.91584">
        <ele>1830.01</ele>
        <time>2017-07-02T08:13:45Z</time>
      </trkpt>
      <trkpt lat="45.05181" lon="5.91592">
        <ele>1831.93</ele>
        <time>2017-07-02T08:13:58Z</time>
      </trkpt>
      <trkpt lat="45.05184" lon="5.91602">
        <ele>1833.85</ele>
        <time>2017-07-02T08:14:12Z</time>
      </trkpt>
      <trkpt lat="45.05184" lon="5.91605">
        <ele>1834.81</ele>
        <time>2017-07-02T08:14:16Z</time>
      </trkpt>
      <trkpt lat="45.05182" lon="5.91616">
        <ele>1835.77</ele>
        <time>2017-07-02T08:14:28Z</time>
      </trkpt>
      <trkpt lat="45.0518" lon="5.91622">
        <ele>1837.22</ele>
        <time>2017-07-02T08:14:40Z</time>
      </trkpt>
      <trkpt lat="45.05183" lon="5.91626">
        <ele>1838.66</ele>
        <time>2017-07-02T08:14:50Z</time>
      </trkpt>
      <trkpt lat="45.05183" lon="5.91632">
        <ele>1840.58</ele>
        <time>2017-07-02T08:15:01Z</time>
      </trkpt>
      <trkpt lat="45.05185" lon="5.91642">
        <ele>1842.02</ele>
        <time>2017-07-02T08:15:13Z</time>
      </trkpt>
      <trkpt lat="45.05186" lon="5.91653">
        <ele>1843.95</ele>
        <time>2017-07-02T08:15:26Z</time>
      </trkpt>
      <trkpt lat="45.05186" lon="5.91662">
        <ele>1845.39</ele>
        <time>2017-07-02T08:15:37Z</time>
      </trkpt>
      <trkpt lat="45.05183" lon="5.9167">
        <ele>1847.31</ele>
        <time>2017-07-02T08:15:49Z</time>
      </trkpt>
      <trkpt lat="45.05182" lon="5.91677">
        <ele>1848.27</ele>
        <time>2017-07-02T08:15:59Z</time>
      </trkpt>
      <trkpt lat="45.05181" lon="5.91685">
        <ele>1849.71</ele>
        <time>2017-07-02T08:16:10Z</time>
      </trkpt>
      <trkpt lat="45.05182" lon="5.91692">
        <ele>1852.12</ele>
        <time>2017-07-02T08:16:23Z</time>
      </trkpt>
      <trkpt lat="45.05179" lon="5.91698">
        <ele>1853.56</ele>
        <time>2017-07-02T08:16:34Z</time>
      </trkpt>
      <trkpt lat="45.05178" lon="5.91705">
        <ele>1855.48</ele>
        <time>2017-07-02T08:16:44Z</time>
      </trkpt>
      <trkpt lat="45.0518" lon="5.91713">
        <ele>1855.96</ele>
        <time>2017-07-02T08:16:56Z</time>
      </trkpt>
      <trkpt lat="45.05184" lon="5.9172">
        <ele>1858.37</ele>
        <time>2017-07-02T08:17:10Z</time>
      </trkpt>
      <trkpt lat="45.0519" lon="5.91721">
        <ele>1860.29</ele>
        <time>2017-07-02T08:17:21Z</time>
      </trkpt>
      <trkpt lat="45.05196" lon="5.91725">
        <ele>1861.73</ele>
        <time>2017-07-02T08:17:34Z</time>
      </trkpt>
      <trkpt lat="45.05199" lon="5.91729">
        <ele>1863.65</ele>
        <time>2017-07-02T08:17:47Z</time>
      </trkpt>
      <trkpt lat="45.052" lon="5.91737">
        <ele>1865.09</ele>
        <time>2017-07-02T08:18:01Z</time>
      </trkpt>
      <trkpt lat="45.05201" lon="5.9174">
        <ele>1865.58</ele>
        <time>2017-07-02T08:18:05Z</time>
      </trkpt>
      <trkpt lat="45.05201" lon="5.91747">
        <ele>1866.54</ele>
        <time>2017-07-02T08:18:16Z</time>
      </trkpt>
      <trkpt lat="45.05196" lon="5.91748">
        <ele>1869.9</ele>
        <time>2017-07-02T08:18:30Z</time>
      </trkpt>
      <trkpt lat="45.05191" lon="5.91753">
        <ele>1870.38</ele>
        <time>2017-07-02T08:18:42Z</time>
      </trkpt>
      <trkpt lat="45.05192" lon="5.91756">
        <ele>1872.3</ele>
        <time>2017-07-02T08:18:51Z</time>
      </trkpt>
      <trkpt lat="45.05193" lon="5.91758">
        <ele>1874.23</ele>
        <time>2017-07-02T08:19:02Z</time>
      </trkpt>
      <trkpt lat="45.05196" lon="5.91764">
        <ele>1876.63</ele>
        <time>2017-07-02T08:19:12Z</time>
      </trkpt>
      <trkpt lat="45.052" lon="5.9177">
        <ele>1878.07</ele>
        <time>2017-07-02T08:19:25Z</time>
      </trkpt>
      <trkpt lat="45.05198" lon="5.91778">
        <ele>1880</ele>
        <time>2017-07-02T08:19:38Z</time>
      </trkpt>
      <trkpt lat="45.05196" lon="5.91783">
        <ele>1881.44</ele>
        <time>2017-07-02T08:19:50Z</time>
      </trkpt>
      <trkpt lat="45.05196" lon="5.91788">
        <ele>1882.88</ele>
        <time>2017-07-02T08:20:04Z</time>
      </trkpt>
      <trkpt lat="45.05198" lon="5.91794">
        <ele>1884.8</ele>
        <time>2017-07-02T08:20:14Z</time>
      </trkpt>
      <trkpt lat="45.05198" lon="5.91799">
        <ele>1885.76</ele>
        <time>2017-07-02T08:20:25Z</time>
      </trkpt>
      <trkpt lat="45.05196" lon="5.91802">
        <ele>1887.69</ele>
        <time>2017-07-02T08:20:37Z</time>
      </trkpt>
      <trkpt lat="45.05196" lon="5.91808">
        <ele>1888.17</ele>
        <time>2017-07-02T08:20:47Z</time>
      </trkpt>
      <trkpt lat="45.05194" lon="5.91814">
        <ele>1890.09</ele>
        <time>2017-07-02T08:20:59Z</time>
      </trkpt>
      <trkpt lat="45.05194" lon="5.9182">
        <ele>1891.53</ele>
        <time>2017-07-02T08:21:11Z</time>
      </trkpt>
      <trkpt lat="45.05197" lon="5.91828">
        <ele>1893.93</ele>
        <time>2017-07-02T08:21:26Z</time>
      </trkpt>
      <trkpt lat="45.05196" lon="5.91834">
        <ele>1895.38</ele>
        <time>2017-07-02T08:21:39Z</time>
      </trkpt>
      <trkpt lat="45.05194" lon="5.91841">
        <ele>1896.82</ele>
        <time>2017-07-02T08:21:50Z</time>
      </trkpt>
      <trkpt lat="45.05194" lon="5.91844">
        <ele>1897.3</ele>
        <time>2017-07-02T08:21:59Z</time>
      </trkpt>
      <trkpt lat="45.05194" lon="5.91851">
        <ele>1899.22</ele>
        <time>2017-07-02T08:22:12Z</time>
      </trkpt>
      <trkpt lat="45.05197" lon="5.91858">
        <ele>1899.7</ele>
        <time>2017-07-02T08:22:23Z</time>
      </trkpt>
      <trkpt lat="45.052" lon="5.91864">
        <ele>1902.11</ele>
        <time>2017-07-02T08:22:35Z</time>
      </trkpt>
      <trkpt lat="45.05203" lon="5.91872">
        <ele>1903.07</ele>
        <time>2017-07-02T08:22:48Z</time>
      </trkpt>
      <trkpt lat="45.05202" lon="5.91875">
        <ele>1903.07</ele>
        <time>2017-07-02T08:22:56Z</time>
      </trkpt>
      <trkpt lat="45.05202" lon="5.91875">
        <ele>1902.11</ele>
        <time>2017-07-02T08:23:07Z</time>
      </trkpt>
      <trkpt lat="45.05204" lon="5.91874">
        <ele>1902.11</ele>
        <time>2017-07-02T08:23:34Z</time>
      </trkpt>
      <trkpt lat="45.05206" lon="5.91873">
        <ele>1901.63</ele>
        <time>2017-07-02T08:24:05Z</time>
      </trkpt>
      <trkpt lat="45.05206" lon="5.91872">
        <ele>1902.11</ele>
        <time>2017-07-02T08:24:40Z</time>
      </trkpt>
      <trkpt lat="45.05204" lon="5.91873">
        <ele>1901.63</ele>
        <time>2017-07-02T08:25:03Z</time>
      </trkpt>
      <trkpt lat="45.05203" lon="5.91875">
        <ele>1902.59</ele>
        <time>2017-07-02T08:25:30Z</time>
      </trkpt>
      <trkpt lat="45.052" lon="5.91875">
        <ele>1903.07</ele>
        <time>2017-07-02T08:26:01Z</time>
      </trkpt>
      <trkpt lat="45.05202" lon="5.91877">
        <ele>1902.59</ele>
        <time>2017-07-02T08:26:21Z</time>
      </trkpt>
      <trkpt lat="45.05201" lon="5.91877">
        <ele>1902.11</ele>
        <time>2017-07-02T08:26:47Z</time>
      </trkpt>
      <trkpt lat="45.052" lon="5.91879">
        <ele>1902.11</ele>
        <time>2017-07-02T08:27:13Z</time>
      </trkpt>
      <trkpt lat="45.05199" lon="5.9188">
        <ele>1902.11</ele>
        <time>2017-07-02T08:27:42Z</time>
      </trkpt>
      <trkpt lat="45.05202" lon="5.91885">
        <ele>1902.59</ele>
        <time>2017-07-02T08:28:13Z</time>
      </trkpt>
      <trkpt lat="45.05202" lon="5.91879">
        <ele>1903.07</ele>
        <time>2017-07-02T08:28:35Z</time>
      </trkpt>
      <trkpt lat="45.05201" lon="5.91882">
        <ele>1903.55</ele>
        <time>2017-07-02T08:28:47Z</time>
      </trkpt>
      <trkpt lat="45.05202" lon="5.91883">
        <ele>1904.51</ele>
        <time>2017-07-02T08:29:06Z</time>
      </trkpt>
      <trkpt lat="45.05202" lon="5.91889">
        <ele>1905.95</ele>
        <time>2017-07-02T08:29:20Z</time>
      </trkpt>
      <trkpt lat="45.05202" lon="5.9189">
        <ele>1906.91</ele>
        <time>2017-07-02T08:29:22Z</time>
      </trkpt>
      <trkpt lat="45.052" lon="5.91897">
        <ele>1907.87</ele>
        <time>2017-07-02T08:29:33Z</time>
      </trkpt>
      <trkpt lat="45.052" lon="5.919">
        <ele>1907.87</ele>
        <time>2017-07-02T08:29:38Z</time>
      </trkpt>
      <trkpt lat="45.05203" lon="5.91907">
        <ele>1908.83</ele>
        <time>2017-07-02T08:29:52Z</time>
      </trkpt>
      <trkpt lat="45.05205" lon="5.91907">
        <ele>1909.32</ele>
        <time>2017-07-02T08:29:57Z</time>
      </trkpt>
      <trkpt lat="45.05203" lon="5.91909">
        <ele>1910.28</ele>
        <time>2017-07-02T08:30:08Z</time>
      </trkpt>
      <trkpt lat="45.05208" lon="5.9191">
        <ele>1912.68</ele>
        <time>2017-07-02T08:30:18Z</time>
      </trkpt>
      <trkpt lat="45.05206" lon="5.91915">
        <ele>1914.12</ele>
        <time>2017-07-02T08:30:29Z</time>
      </trkpt>
      <trkpt lat="45.05206" lon="5.91918">
        <ele>1915.08</ele>
        <time>2017-07-02T08:30:34Z</time>
      </trkpt>
      <trkpt lat="45.05212" lon="5.91923">
        <ele>1916.53</ele>
        <time>2017-07-02T08:30:47Z</time>
      </trkpt>
      <trkpt lat="45.05214" lon="5.91925">
        <ele>1918.45</ele>
        <time>2017-07-02T08:30:53Z</time>
      </trkpt>
      <trkpt lat="45.05217" lon="5.91927">
        <ele>1920.37</ele>
        <time>2017-07-02T08:31:06Z</time>
      </trkpt>
      <trkpt lat="45.05215" lon="5.91934">
        <ele>1920.85</ele>
        <time>2017-07-02T08:31:21Z</time>
      </trkpt>
      <trkpt lat="45.05218" lon="5.91935">
        <ele>1922.77</ele>
        <time>2017-07-02T08:31:33Z</time>
      </trkpt>
      <trkpt lat="45.05221" lon="5.91938">
        <ele>1923.25</ele>
        <time>2017-07-02T08:31:52Z</time>
      </trkpt>
      <trkpt lat="45.05221" lon="5.9194">
        <ele>1923.74</ele>
        <time>2017-07-02T08:31:57Z</time>
      </trkpt>
      <trkpt lat="45.05223" lon="5.91942">
        <ele>1925.18</ele>
        <time>2017-07-02T08:32:10Z</time>
      </trkpt>
      <trkpt lat="45.05223" lon="5.91946">
        <ele>1926.14</ele>
        <time>2017-07-02T08:32:21Z</time>
      </trkpt>
      <trkpt lat="45.05225" lon="5.91951">
        <ele>1928.54</ele>
        <time>2017-07-02T08:32:32Z</time>
      </trkpt>
      <trkpt lat="45.05229" lon="5.91953">
        <ele>1929.98</ele>
        <time>2017-07-02T08:32:44Z</time>
      </trkpt>
      <trkpt lat="45.05231" lon="5.91958">
        <ele>1931.91</ele>
        <time>2017-07-02T08:32:58Z</time>
      </trkpt>
      <trkpt lat="45.05232" lon="5.91964">
        <ele>1933.83</ele>
        <time>2017-07-02T08:33:09Z</time>
      </trkpt>
      <trkpt lat="45.05236" lon="5.91964">
        <ele>1936.23</ele>
        <time>2017-07-02T08:33:21Z</time>
      </trkpt>
      <trkpt lat="45.05241" lon="5.9197">
        <ele>1937.67</ele>
        <time>2017-07-02T08:33:31Z</time>
      </trkpt>
      <trkpt lat="45.05243" lon="5.91979">
        <ele>1940.08</ele>
        <time>2017-07-02T08:33:42Z</time>
      </trkpt>
      <trkpt lat="45.05244" lon="5.91985">
        <ele>1940.56</ele>
        <time>2017-07-02T08:33:53Z</time>
      </trkpt>
      <trkpt lat="45.05244" lon="5.9199">
        <ele>1942.96</ele>
        <time>2017-07-02T08:34:05Z</time>
      </trkpt>
      <trkpt lat="45.05245" lon="5.91994">
        <ele>1945.36</ele>
        <time>2017-07-02T08:34:17Z</time>
      </trkpt>
      <trkpt lat="45.05245" lon="5.91997">
        <ele>1945.85</ele>
        <time>2017-07-02T08:34:22Z</time>
      </trkpt>
      <trkpt lat="45.05247" lon="5.92005">
        <ele>1946.81</ele>
        <time>2017-07-02T08:34:36Z</time>
      </trkpt>
      <trkpt lat="45.05248" lon="5.92011">
        <ele>1948.73</ele>
        <time>2017-07-02T08:34:51Z</time>
      </trkpt>
      <trkpt lat="45.05247" lon="5.92015">
        <ele>1950.17</ele>
        <time>2017-07-02T08:35:05Z</time>
      </trkpt>
      <trkpt lat="45.05249" lon="5.92018">
        <ele>1951.61</ele>
        <time>2017-07-02T08:35:14Z</time>
      </trkpt>
      <trkpt lat="45.0525" lon="5.92023">
        <ele>1953.06</ele>
        <time>2017-07-02T08:35:24Z</time>
      </trkpt>
      <trkpt lat="45.05252" lon="5.92026">
        <ele>1953.54</ele>
        <time>2017-07-02T08:35:34Z</time>
      </trkpt>
      <trkpt lat="45.05253" lon="5.92027">
        <ele>1954.02</ele>
        <time>2017-07-02T08:35:37Z</time>
      </trkpt>
      <trkpt lat="45.05257" lon="5.92037">
        <ele>1956.42</ele>
        <time>2017-07-02T08:35:49Z</time>
      </trkpt>
      <trkpt lat="45.05257" lon="5.92043">
        <ele>1958.34</ele>
        <time>2017-07-02T08:36:01Z</time>
      </trkpt>
      <trkpt lat="45.05265" lon="5.92045">
        <ele>1960.75</ele>
        <time>2017-07-02T08:36:14Z</time>
      </trkpt>
      <trkpt lat="45.05269" lon="5.92052">
        <ele>1962.19</ele>
        <time>2017-07-02T08:36:26Z</time>
      </trkpt>
      <trkpt lat="45.05273" lon="5.92058">
        <ele>1963.15</ele>
        <time>2017-07-02T08:36:38Z</time>
      </trkpt>
      <trkpt lat="45.05276" lon="5.92061">
        <ele>1965.55</ele>
        <time>2017-07-02T08:36:51Z</time>
      </trkpt>
      <trkpt lat="45.05277" lon="5.92064">
        <ele>1966.51</ele>
        <time>2017-07-02T08:36:54Z</time>
      </trkpt>
      <trkpt lat="45.05281" lon="5.92068">
        <ele>1968.44</ele>
        <time>2017-07-02T08:37:04Z</time>
      </trkpt>
      <trkpt lat="45.05282" lon="5.92069">
        <ele>1967.96</ele>
        <time>2017-07-02T08:37:07Z</time>
      </trkpt>
      <trkpt lat="45.05287" lon="5.92069">
        <ele>1966.99</ele>
        <time>2017-07-02T08:37:20Z</time>
      </trkpt>
      <trkpt lat="45.05292" lon="5.92067">
        <ele>1966.99</ele>
        <time>2017-07-02T08:37:23Z</time>
      </trkpt>
      <trkpt lat="45.05294" lon="5.92067">
        <ele>1966.99</ele>
        <time>2017-07-02T08:37:24Z</time>
      </trkpt>
      <trkpt lat="45.05297" lon="5.92077">
        <ele>1968.92</ele>
        <time>2017-07-02T08:37:37Z</time>
      </trkpt>
      <trkpt lat="45.05301" lon="5.92085">
        <ele>1970.84</ele>
        <time>2017-07-02T08:37:51Z</time>
      </trkpt>
      <trkpt lat="45.05304" lon="5.92089">
        <ele>1972.76</ele>
        <time>2017-07-02T08:38:04Z</time>
      </trkpt>
      <trkpt lat="45.05307" lon="5.92096">
        <ele>1974.2</ele>
        <time>2017-07-02T08:38:15Z</time>
      </trkpt>
      <trkpt lat="45.0531" lon="5.92097">
        <ele>1974.69</ele>
        <time>2017-07-02T08:38:26Z</time>
      </trkpt>
      <trkpt lat="45.05313" lon="5.92098">
        <ele>1975.17</ele>
        <time>2017-07-02T08:38:46Z</time>
      </trkpt>
      <trkpt lat="45.05313" lon="5.92098">
        <ele>1975.17</ele>
        <time>2017-07-02T08:38:47Z</time>
      </trkpt>
      <trkpt lat="45.0531" lon="5.92102">
        <ele>1976.61</ele>
        <time>2017-07-02T08:39:04Z</time>
      </trkpt>
      <trkpt lat="45.05314" lon="5.92111">
        <ele>1979.49</ele>
        <time>2017-07-02T08:39:16Z</time>
      </trkpt>
      <trkpt lat="45.05317" lon="5.92112">
        <ele>1979.97</ele>
        <time>2017-07-02T08:39:19Z</time>
      </trkpt>
      <trkpt lat="45.05323" lon="5.92122">
        <ele>1981.41</ele>
        <time>2017-07-02T08:39:33Z</time>
      </trkpt>
      <trkpt lat="45.05327" lon="5.92126">
        <ele>1984.3</ele>
        <time>2017-07-02T08:39:44Z</time>
      </trkpt>
      <trkpt lat="45.05329" lon="5.92133">
        <ele>1984.78</ele>
        <time>2017-07-02T08:39:54Z</time>
      </trkpt>
      <trkpt lat="45.05334" lon="5.92139">
        <ele>1987.18</ele>
        <time>2017-07-02T08:40:07Z</time>
      </trkpt>
      <trkpt lat="45.05341" lon="5.92144">
        <ele>1989.59</ele>
        <time>2017-07-02T08:40:19Z</time>
      </trkpt>
      <trkpt lat="45.05345" lon="5.92151">
        <ele>1991.03</ele>
        <time>2017-07-02T08:40:30Z</time>
      </trkpt>
      <trkpt lat="45.05349" lon="5.92154">
        <ele>1991.51</ele>
        <time>2017-07-02T08:40:39Z</time>
      </trkpt>
      <trkpt lat="45.05349" lon="5.92159">
        <ele>1993.43</ele>
        <time>2017-07-02T08:40:51Z</time>
      </trkpt>
      <trkpt lat="45.05354" lon="5.92165">
        <ele>1995.35</ele>
        <time>2017-07-02T08:41:07Z</time>
      </trkpt>
      <trkpt lat="45.05357" lon="5.92166">
        <ele>1996.32</ele>
        <time>2017-07-02T08:41:18Z</time>
      </trkpt>
      <trkpt lat="45.0536" lon="5.92171">
        <ele>1997.28</ele>
        <time>2017-07-02T08:41:29Z</time>
      </trkpt>
      <trkpt lat="45.05359" lon="5.92175">
        <ele>1998.24</ele>
        <time>2017-07-02T08:41:48Z</time>
      </trkpt>
      <trkpt lat="45.05355" lon="5.92178">
        <ele>1999.68</ele>
        <time>2017-07-02T08:42:01Z</time>
      </trkpt>
      <trkpt lat="45.0535" lon="5.9218">
        <ele>2002.08</ele>
        <time>2017-07-02T08:42:12Z</time>
      </trkpt>
      <trkpt lat="45.05345" lon="5.92182">
        <ele>2002.56</ele>
        <time>2017-07-02T08:42:26Z</time>
      </trkpt>
      <trkpt lat="45.05341" lon="5.92185">
        <ele>2004.49</ele>
        <time>2017-07-02T08:42:39Z</time>
      </trkpt>
      <trkpt lat="45.05335" lon="5.92188">
        <ele>2005.93</ele>
        <time>2017-07-02T08:42:53Z</time>
      </trkpt>
      <trkpt lat="45.0533" lon="5.92189">
        <ele>2007.37</ele>
        <time>2017-07-02T08:43:05Z</time>
      </trkpt>
      <trkpt lat="45.05325" lon="5.92189">
        <ele>2008.81</ele>
        <time>2017-07-02T08:43:18Z</time>
      </trkpt>
      <trkpt lat="45.05322" lon="5.92189">
        <ele>2009.29</ele>
        <time>2017-07-02T08:43:29Z</time>
      </trkpt>
      <trkpt lat="45.05316" lon="5.92191">
        <ele>2011.22</ele>
        <time>2017-07-02T08:43:42Z</time>
      </trkpt>
      <trkpt lat="45.05313" lon="5.92191">
        <ele>2013.62</ele>
        <time>2017-07-02T08:43:53Z</time>
      </trkpt>
      <trkpt lat="45.0531" lon="5.92191">
        <ele>2015.06</ele>
        <time>2017-07-02T08:44:04Z</time>
      </trkpt>
      <trkpt lat="45.05305" lon="5.9219">
        <ele>2016.02</ele>
        <time>2017-07-02T08:44:15Z</time>
      </trkpt>
      <trkpt lat="45.05301" lon="5.92192">
        <ele>2017.46</ele>
        <time>2017-07-02T08:44:28Z</time>
      </trkpt>
      <trkpt lat="45.05297" lon="5.92192">
        <ele>2018.91</ele>
        <time>2017-07-02T08:44:42Z</time>
      </trkpt>
      <trkpt lat="45.0529" lon="5.92192">
        <ele>2021.79</ele>
        <time>2017-07-02T08:44:56Z</time>
      </trkpt>
      <trkpt lat="45.0529" lon="5.92192">
        <ele>2021.79</ele>
        <time>2017-07-02T08:44:57Z</time>
      </trkpt>
      <trkpt lat="45.05286" lon="5.92192">
        <ele>2022.27</ele>
        <time>2017-07-02T08:45:09Z</time>
      </trkpt>
      <trkpt lat="45.05281" lon="5.92192">
        <ele>2024.19</ele>
        <time>2017-07-02T08:45:20Z</time>
      </trkpt>
      <trkpt lat="45.05275" lon="5.92194">
        <ele>2024.67</ele>
        <time>2017-07-02T08:45:32Z</time>
      </trkpt>
      <trkpt lat="45.05273" lon="5.92195">
        <ele>2026.12</ele>
        <time>2017-07-02T08:45:40Z</time>
      </trkpt>
      <trkpt lat="45.05266" lon="5.92197">
        <ele>2027.56</ele>
        <time>2017-07-02T08:45:54Z</time>
      </trkpt>
      <trkpt lat="45.05265" lon="5.92199">
        <ele>2028.52</ele>
        <time>2017-07-02T08:45:56Z</time>
      </trkpt>
      <trkpt lat="45.05258" lon="5.92202">
        <ele>2030.44</ele>
        <time>2017-07-02T08:46:09Z</time>
      </trkpt>
      <trkpt lat="45.05253" lon="5.92202">
        <ele>2030.92</ele>
        <time>2017-07-02T08:46:21Z</time>
      </trkpt>
      <trkpt lat="45.05248" lon="5.92204">
        <ele>2032.84</ele>
        <time>2017-07-02T08:46:34Z</time>
      </trkpt>
      <trkpt lat="45.05241" lon="5.92204">
        <ele>2033.81</ele>
        <time>2017-07-02T08:46:45Z</time>
      </trkpt>
      <trkpt lat="45.05235" lon="5.92207">
        <ele>2037.17</ele>
        <time>2017-07-02T08:46:57Z</time>
      </trkpt>
      <trkpt lat="45.05231" lon="5.92208">
        <ele>2037.17</ele>
        <time>2017-07-02T08:47:04Z</time>
      </trkpt>
      <trkpt lat="45.05227" lon="5.9221">
        <ele>2038.61</ele>
        <time>2017-07-02T08:47:16Z</time>
      </trkpt>
      <trkpt lat="45.0523" lon="5.92209">
        <ele>2039.57</ele>
        <time>2017-07-02T08:47:21Z</time>
      </trkpt>
      <trkpt lat="45.05234" lon="5.92214">
        <ele>2040.05</ele>
        <time>2017-07-02T08:47:33Z</time>
      </trkpt>
      <trkpt lat="45.05233" lon="5.92218">
        <ele>2043.42</ele>
        <time>2017-07-02T08:47:45Z</time>
      </trkpt>
      <trkpt lat="45.05236" lon="5.92224">
        <ele>2046.3</ele>
        <time>2017-07-02T08:48:00Z</time>
      </trkpt>
      <trkpt lat="45.05238" lon="5.92232">
        <ele>2047.75</ele>
        <time>2017-07-02T08:48:12Z</time>
      </trkpt>
      <trkpt lat="45.05243" lon="5.92238">
        <ele>2049.67</ele>
        <time>2017-07-02T08:48:24Z</time>
      </trkpt>
      <trkpt lat="45.05244" lon="5.92245">
        <ele>2052.07</ele>
        <time>2017-07-02T08:48:36Z</time>
      </trkpt>
      <trkpt lat="45.05246" lon="5.92249">
        <ele>2053.51</ele>
        <time>2017-07-02T08:48:47Z</time>
      </trkpt>
      <trkpt lat="45.05253" lon="5.92255">
        <ele>2054.47</ele>
        <time>2017-07-02T08:48:57Z</time>
      </trkpt>
      <trkpt lat="45.05251" lon="5.92267">
        <ele>2055.92</ele>
        <time>2017-07-02T08:49:09Z</time>
      </trkpt>
      <trkpt lat="45.05252" lon="5.92282">
        <ele>2055.92</ele>
        <time>2017-07-02T08:49:22Z</time>
      </trkpt>
      <trkpt lat="45.05258" lon="5.92289">
        <ele>2058.8</ele>
        <time>2017-07-02T08:49:35Z</time>
      </trkpt>
      <trkpt lat="45.05258" lon="5.92296">
        <ele>2058.8</ele>
        <time>2017-07-02T08:49:46Z</time>
      </trkpt>
      <trkpt lat="45.0526" lon="5.92308">
        <ele>2059.76</ele>
        <time>2017-07-02T08:50:01Z</time>
      </trkpt>
      <trkpt lat="45.05255" lon="5.92316">
        <ele>2061.2</ele>
        <time>2017-07-02T08:50:08Z</time>
      </trkpt>
      <trkpt lat="45.05254" lon="5.92321">
        <ele>2060.72</ele>
        <time>2017-07-02T08:50:13Z</time>
      </trkpt>
      <trkpt lat="45.05253" lon="5.92323">
        <ele>2061.68</ele>
        <time>2017-07-02T08:50:15Z</time>
      </trkpt>
      <trkpt lat="45.05244" lon="5.92334">
        <ele>2061.2</ele>
        <time>2017-07-02T08:50:27Z</time>
      </trkpt>
      <trkpt lat="45.05242" lon="5.92335">
        <ele>2062.17</ele>
        <time>2017-07-02T08:50:30Z</time>
      </trkpt>
      <trkpt lat="45.05235" lon="5.92343">
        <ele>2063.13</ele>
        <time>2017-07-02T08:50:42Z</time>
      </trkpt>
      <trkpt lat="45.05232" lon="5.9235">
        <ele>2063.61</ele>
        <time>2017-07-02T08:50:53Z</time>
      </trkpt>
      <trkpt lat="45.05228" lon="5.92366">
        <ele>2063.13</ele>
        <time>2017-07-02T08:51:07Z</time>
      </trkpt>
      <trkpt lat="45.05228" lon="5.92369">
        <ele>2065.05</ele>
        <time>2017-07-02T08:51:10Z</time>
      </trkpt>
      <trkpt lat="45.05227" lon="5.92377">
        <ele>2061.68</ele>
        <time>2017-07-02T08:51:16Z</time>
      </trkpt>
      <trkpt lat="45.05227" lon="5.92381">
        <ele>2063.13</ele>
        <time>2017-07-02T08:51:19Z</time>
      </trkpt>
      <trkpt lat="45.05225" lon="5.92396">
        <ele>2061.68</ele>
        <time>2017-07-02T08:51:32Z</time>
      </trkpt>
      <trkpt lat="45.05224" lon="5.92407">
        <ele>2063.13</ele>
        <time>2017-07-02T08:51:45Z</time>
      </trkpt>
      <trkpt lat="45.05224" lon="5.92413">
        <ele>2062.65</ele>
        <time>2017-07-02T08:52:03Z</time>
      </trkpt>
      <trkpt lat="45.05224" lon="5.92413">
        <ele>2062.65</ele>
        <time>2017-07-02T08:52:25Z</time>
      </trkpt>
      <trkpt lat="45.05225" lon="5.92414">
        <ele>2062.65</ele>
        <time>2017-07-02T08:52:44Z</time>
      </trkpt>
      <trkpt lat="45.05222" lon="5.92409">
        <ele>2064.09</ele>
        <time>2017-07-02T08:52:55Z</time>
      </trkpt>
      <trkpt lat="45.05223" lon="5.92409">
        <ele>2063.13</ele>
        <time>2017-07-02T08:52:57Z</time>
      </trkpt>
      <trkpt lat="45.05226" lon="5.92409">
        <ele>2062.65</ele>
        <time>2017-07-02T08:53:16Z</time>
      </trkpt>
      <trkpt lat="45.05224" lon="5.9241">
        <ele>2062.17</ele>
        <time>2017-07-02T08:53:34Z</time>
      </trkpt>
      <trkpt lat="45.05222" lon="5.92408">
        <ele>2062.17</ele>
        <time>2017-07-02T08:53:53Z</time>
      </trkpt>
      <trkpt lat="45.05223" lon="5.92409">
        <ele>2062.65</ele>
        <time>2017-07-02T08:54:23Z</time>
      </trkpt>
      <trkpt lat="45.05226" lon="5.92407">
        <ele>2062.65</ele>
        <time>2017-07-02T08:54:41Z</time>
      </trkpt>
      <trkpt lat="45.05222" lon="5.9241">
        <ele>2062.65</ele>
        <time>2017-07-02T08:54:56Z</time>
      </trkpt>
      <trkpt lat="45.05225" lon="5.9241">
        <ele>2061.2</ele>
        <time>2017-07-02T08:55:09Z</time>
      </trkpt>
      <trkpt lat="45.05225" lon="5.92412">
        <ele>2061.68</ele>
        <time>2017-07-02T08:55:27Z</time>
      </trkpt>
      <trkpt lat="45.05225" lon="5.92416">
        <ele>2062.17</ele>
        <time>2017-07-02T08:55:39Z</time>
      </trkpt>
      <trkpt lat="45.05224" lon="5.92411">
        <ele>2062.65</ele>
        <time>2017-07-02T08:56:06Z</time>
      </trkpt>
      <trkpt lat="45.05221" lon="5.92405">
        <ele>2062.17</ele>
        <time>2017-07-02T08:56:29Z</time>
      </trkpt>
      <trkpt lat="45.05221" lon="5.92406">
        <ele>2063.13</ele>
        <time>2017-07-02T08:56:44Z</time>
      </trkpt>
      <trkpt lat="45.05222" lon="5.92408">
        <ele>2062.17</ele>
        <time>2017-07-02T08:57:18Z</time>
      </trkpt>
      <trkpt lat="45.05221" lon="5.92404">
        <ele>2062.65</ele>
        <time>2017-07-02T08:57:46Z</time>
      </trkpt>
      <trkpt lat="45.05223" lon="5.92407">
        <ele>2062.65</ele>
        <time>2017-07-02T08:58:03Z</time>
      </trkpt>
      <trkpt lat="45.05222" lon="5.92407">
        <ele>2062.17</ele>
        <time>2017-07-02T08:58:22Z</time>
      </trkpt>
      <trkpt lat="45.05224" lon="5.92406">
        <ele>2062.65</ele>
        <time>2017-07-02T08:58:42Z</time>
      </trkpt>
      <trkpt lat="45.05223" lon="5.92405">
        <ele>2063.13</ele>
        <time>2017-07-02T08:59:01Z</time>
      </trkpt>
      <trkpt lat="45.05223" lon="5.92405">
        <ele>2063.13</ele>
        <time>2017-07-02T08:59:19Z</time>
      </trkpt>
      <trkpt lat="45.05222" lon="5.92404">
        <ele>2062.65</ele>
        <time>2017-07-02T08:59:31Z</time>
      </trkpt>
      <trkpt lat="45.05221" lon="5.924">
        <ele>2063.13</ele>
        <time>2017-07-02T08:59:46Z</time>
      </trkpt>
      <trkpt lat="45.05221" lon="5.92402">
        <ele>2062.17</ele>
        <time>2017-07-02T09:00:02Z</time>
      </trkpt>
      <trkpt lat="45.05222" lon="5.924">
        <ele>2062.17</ele>
        <time>2017-07-02T09:00:25Z</time>
      </trkpt>
      <trkpt lat="45.05223" lon="5.92401">
        <ele>2061.68</ele>
        <time>2017-07-02T09:01:01Z</time>
      </trkpt>
      <trkpt lat="45.05222" lon="5.92399">
        <ele>2062.17</ele>
        <time>2017-07-02T09:01:30Z</time>
      </trkpt>
      <trkpt lat="45.05222" lon="5.92399">
        <ele>2062.17</ele>
        <time>2017-07-02T09:02:00Z</time>
      </trkpt>
      <trkpt lat="45.05222" lon="5.92398">
        <ele>2062.65</ele>
        <time>2017-07-02T09:02:30Z</time>
      </trkpt>
      <trkpt lat="45.05221" lon="5.92399">
        <ele>2063.61</ele>
        <time>2017-07-02T09:02:39Z</time>
      </trkpt>
      <trkpt lat="45.05219" lon="5.92401">
        <ele>2062.65</ele>
        <time>2017-07-02T09:02:52Z</time>
      </trkpt>
      <trkpt lat="45.05221" lon="5.92401">
        <ele>2064.09</ele>
        <time>2017-07-02T09:02:58Z</time>
      </trkpt>
      <trkpt lat="45.0522" lon="5.92399">
        <ele>2064.09</ele>
        <time>2017-07-02T09:03:11Z</time>
      </trkpt>
      <trkpt lat="45.05223" lon="5.92401">
        <ele>2063.61</ele>
        <time>2017-07-02T09:03:36Z</time>
      </trkpt>
      <trkpt lat="45.0522" lon="5.92397">
        <ele>2063.13</ele>
        <time>2017-07-02T09:03:59Z</time>
      </trkpt>
      <trkpt lat="45.05221" lon="5.924">
        <ele>2063.61</ele>
        <time>2017-07-02T09:04:12Z</time>
      </trkpt>
      <trkpt lat="45.05218" lon="5.92399">
        <ele>2063.61</ele>
        <time>2017-07-02T09:04:29Z</time>
      </trkpt>
      <trkpt lat="45.0522" lon="5.92399">
        <ele>2064.09</ele>
        <time>2017-07-02T09:04:49Z</time>
      </trkpt>
      <trkpt lat="45.05224" lon="5.92401">
        <ele>2063.61</ele>
        <time>2017-07-02T09:05:12Z</time>
      </trkpt>
      <trkpt lat="45.05225" lon="5.92407">
        <ele>2063.13</ele>
        <time>2017-07-02T09:05:24Z</time>
      </trkpt>
      <trkpt lat="45.05225" lon="5.92408">
        <ele>2063.13</ele>
        <time>2017-07-02T09:05:27Z</time>
      </trkpt>
      <trkpt lat="45.05223" lon="5.92419">
        <ele>2063.13</ele>
        <time>2017-07-02T09:05:40Z</time>
      </trkpt>
      <trkpt lat="45.05222" lon="5.92419">
        <ele>2063.13</ele>
        <time>2017-07-02T09:05:41Z</time>
      </trkpt>
      <trkpt lat="45.0522" lon="5.92427">
        <ele>2064.09</ele>
        <time>2017-07-02T09:05:54Z</time>
      </trkpt>
      <trkpt lat="45.05216" lon="5.92424">
        <ele>2065.53</ele>
        <time>2017-07-02T09:06:06Z</time>
      </trkpt>
      <trkpt lat="45.05213" lon="5.92422">
        <ele>2065.53</ele>
        <time>2017-07-02T09:06:17Z</time>
      </trkpt>
      <trkpt lat="45.05212" lon="5.92412">
        <ele>2066.49</ele>
        <time>2017-07-02T09:06:31Z</time>
      </trkpt>
      <trkpt lat="45.05216" lon="5.92408">
        <ele>2065.05</ele>
        <time>2017-07-02T09:06:43Z</time>
      </trkpt>
      <trkpt lat="45.05219" lon="5.92408">
        <ele>2065.05</ele>
        <time>2017-07-02T09:06:59Z</time>
      </trkpt>
      <trkpt lat="45.05219" lon="5.92404">
        <ele>2063.61</ele>
        <time>2017-07-02T09:07:13Z</time>
      </trkpt>
      <trkpt lat="45.0522" lon="5.92401">
        <ele>2065.05</ele>
        <time>2017-07-02T09:07:28Z</time>
      </trkpt>
      <trkpt lat="45.05221" lon="5.924">
        <ele>2063.61</ele>
        <time>2017-07-02T09:07:46Z</time>
      </trkpt>
      <trkpt lat="45.05222" lon="5.92401">
        <ele>2064.09</ele>
        <time>2017-07-02T09:08:01Z</time>
      </trkpt>
      <trkpt lat="45.0522" lon="5.92401">
        <ele>2064.57</ele>
        <time>2017-07-02T09:08:24Z</time>
      </trkpt>
      <trkpt lat="45.05221" lon="5.924">
        <ele>2064.09</ele>
        <time>2017-07-02T09:08:46Z</time>
      </trkpt>
      <trkpt lat="45.05222" lon="5.92402">
        <ele>2064.09</ele>
        <time>2017-07-02T09:09:04Z</time>
      </trkpt>
      <trkpt lat="45.05221" lon="5.92401">
        <ele>2064.09</ele>
        <time>2017-07-02T09:09:24Z</time>
      </trkpt>
      <trkpt lat="45.05223" lon="5.92402">
        <ele>2064.09</ele>
        <time>2017-07-02T09:09:45Z</time>
      </trkpt>
      <trkpt lat="45.05221" lon="5.924">
        <ele>2064.09</ele>
        <time>2017-07-02T09:10:11Z</time>
      </trkpt>
      <trkpt lat="45.05221" lon="5.924">
        <ele>2063.61</ele>
        <time>2017-07-02T09:10:32Z</time>
      </trkpt>
      <trkpt lat="45.05223" lon="5.924">
        <ele>2063.13</ele>
        <time>2017-07-02T09:10:57Z</time>
      </trkpt>
      <trkpt lat="45.05222" lon="5.92398">
        <ele>2063.61</ele>
        <time>2017-07-02T09:11:26Z</time>
      </trkpt>
      <trkpt lat="45.05224" lon="5.92399">
        <ele>2063.61</ele>
        <time>2017-07-02T09:11:37Z</time>
      </trkpt>
      <trkpt lat="45.05222" lon="5.92401">
        <ele>2062.65</ele>
        <time>2017-07-02T09:11:56Z</time>
      </trkpt>
      <trkpt lat="45.05222" lon="5.92401">
        <ele>2062.65</ele>
        <time>2017-07-02T09:12:15Z</time>
      </trkpt>
      <trkpt lat="45.05223" lon="5.92401">
        <ele>2062.65</ele>
        <time>2017-07-02T09:12:20Z</time>
      </trkpt>
      <trkpt lat="45.05223" lon="5.92399">
        <ele>2063.13</ele>
        <time>2017-07-02T09:12:38Z</time>
      </trkpt>
      <trkpt lat="45.05223" lon="5.92398">
        <ele>2063.13</ele>
        <time>2017-07-02T09:13:00Z</time>
      </trkpt>
      <trkpt lat="45.05222" lon="5.92398">
        <ele>2063.61</ele>
        <time>2017-07-02T09:13:24Z</time>
      </trkpt>
      <trkpt lat="45.05224" lon="5.92398">
        <ele>2062.65</ele>
        <time>2017-07-02T09:13:39Z</time>
      </trkpt>
      <trkpt lat="45.05222" lon="5.92403">
        <ele>2063.61</ele>
        <time>2017-07-02T09:13:51Z</time>
      </trkpt>
      <trkpt lat="45.05224" lon="5.92401">
        <ele>2064.09</ele>
        <time>2017-07-02T09:14:13Z</time>
      </trkpt>
      <trkpt lat="45.05226" lon="5.92402">
        <ele>2063.13</ele>
        <time>2017-07-02T09:14:37Z</time>
      </trkpt>
      <trkpt lat="45.05231" lon="5.92404">
        <ele>2062.17</ele>
        <time>2017-07-02T09:14:46Z</time>
      </trkpt>
      <trkpt lat="45.05229" lon="5.92402">
        <ele>2061.2</ele>
        <time>2017-07-02T09:14:59Z</time>
      </trkpt>
      <trkpt lat="45.05228" lon="5.92405">
        <ele>2061.68</ele>
        <time>2017-07-02T09:15:19Z</time>
      </trkpt>
      <trkpt lat="45.05229" lon="5.92407">
        <ele>2061.2</ele>
        <time>2017-07-02T09:15:52Z</time>
      </trkpt>
      <trkpt lat="45.05226" lon="5.92406">
        <ele>2062.17</ele>
        <time>2017-07-02T09:16:06Z</time>
      </trkpt>
      <trkpt lat="45.05227" lon="5.92405">
        <ele>2062.65</ele>
        <time>2017-07-02T09:16:33Z</time>
      </trkpt>
      <trkpt lat="45.05225" lon="5.92406">
        <ele>2063.13</ele>
        <time>2017-07-02T09:16:57Z</time>
      </trkpt>
      <trkpt lat="45.05221" lon="5.92401">
        <ele>2064.09</ele>
        <time>2017-07-02T09:17:17Z</time>
      </trkpt>
      <trkpt lat="45.05222" lon="5.92401">
        <ele>2063.61</ele>
        <time>2017-07-02T09:17:27Z</time>
      </trkpt>
      <trkpt lat="45.05222" lon="5.92402">
        <ele>2063.13</ele>
        <time>2017-07-02T09:17:55Z</time>
      </trkpt>
      <trkpt lat="45.05225" lon="5.92403">
        <ele>2063.13</ele>
        <time>2017-07-02T09:18:19Z</time>
      </trkpt>
      <trkpt lat="45.05223" lon="5.92398">
        <ele>2062.65</ele>
        <time>2017-07-02T09:18:42Z</time>
      </trkpt>
      <trkpt lat="45.05221" lon="5.92398">
        <ele>2062.65</ele>
        <time>2017-07-02T09:18:59Z</time>
      </trkpt>
      <trkpt lat="45.05223" lon="5.924">
        <ele>2062.65</ele>
        <time>2017-07-02T09:19:18Z</time>
      </trkpt>
      <trkpt lat="45.05222" lon="5.92402">
        <ele>2063.13</ele>
        <time>2017-07-02T09:19:41Z</time>
      </trkpt>
      <trkpt lat="45.05221" lon="5.92401">
        <ele>2062.17</ele>
        <time>2017-07-02T09:19:58Z</time>
      </trkpt>
      <trkpt lat="45.05223" lon="5.92402">
        <ele>2062.65</ele>
        <time>2017-07-02T09:20:19Z</time>
      </trkpt>
      <trkpt lat="45.05224" lon="5.924">
        <ele>2062.65</ele>
        <time>2017-07-02T09:20:33Z</time>
      </trkpt>
      <trkpt lat="45.05224" lon="5.92395">
        <ele>2062.17</ele>
        <time>2017-07-02T09:20:50Z</time>
      </trkpt>
      <trkpt lat="45.05222" lon="5.92393">
        <ele>2061.68</ele>
        <time>2017-07-02T09:21:03Z</time>
      </trkpt>
      <trkpt lat="45.05222" lon="5.9239">
        <ele>2060.72</ele>
        <time>2017-07-02T09:21:27Z</time>
      </trkpt>
      <trkpt lat="45.05222" lon="5.92391">
        <ele>2060.24</ele>
        <time>2017-07-02T09:22:00Z</time>
      </trkpt>
      <trkpt lat="45.05223" lon="5.92392">
        <ele>2060.72</ele>
        <time>2017-07-02T09:22:35Z</time>
      </trkpt>
      <trkpt lat="45.05223" lon="5.92392">
        <ele>2061.2</ele>
        <time>2017-07-02T09:23:09Z</time>
      </trkpt>
      <trkpt lat="45.05222" lon="5.92392">
        <ele>2061.68</ele>
        <time>2017-07-02T09:23:39Z</time>
      </trkpt>
      <trkpt lat="45.05221" lon="5.92396">
        <ele>2062.65</ele>
        <time>2017-07-02T09:23:52Z</time>
      </trkpt>
      <trkpt lat="45.05222" lon="5.92393">
        <ele>2063.61</ele>
        <time>2017-07-02T09:24:08Z</time>
      </trkpt>
      <trkpt lat="45.05224" lon="5.92393">
        <ele>2062.17</ele>
        <time>2017-07-02T09:24:25Z</time>
      </trkpt>
      <trkpt lat="45.05222" lon="5.92395">
        <ele>2062.17</ele>
        <time>2017-07-02T09:24:41Z</time>
      </trkpt>
      <trkpt lat="45.05225" lon="5.92396">
        <ele>2062.65</ele>
        <time>2017-07-02T09:25:03Z</time>
      </trkpt>
      <trkpt lat="45.05225" lon="5.92396">
        <ele>2062.65</ele>
        <time>2017-07-02T09:25:18Z</time>
      </trkpt>
      <trkpt lat="45.05225" lon="5.924">
        <ele>2062.65</ele>
        <time>2017-07-02T09:25:31Z</time>
      </trkpt>
      <trkpt lat="45.0522" lon="5.92403">
        <ele>2062.17</ele>
        <time>2017-07-02T09:25:47Z</time>
      </trkpt>
      <trkpt lat="45.0522" lon="5.92404">
        <ele>2064.09</ele>
        <time>2017-07-02T09:25:58Z</time>
      </trkpt>
      <trkpt lat="45.05219" lon="5.92402">
        <ele>2064.09</ele>
        <time>2017-07-02T09:26:12Z</time>
      </trkpt>
      <trkpt lat="45.05219" lon="5.92401">
        <ele>2064.57</ele>
        <time>2017-07-02T09:26:33Z</time>
      </trkpt>
      <trkpt lat="45.0522" lon="5.924">
        <ele>2063.61</ele>
        <time>2017-07-02T09:27:03Z</time>
      </trkpt>
      <trkpt lat="45.0522" lon="5.92401">
        <ele>2064.57</ele>
        <time>2017-07-02T09:27:16Z</time>
      </trkpt>
      <trkpt lat="45.05219" lon="5.92401">
        <ele>2064.09</ele>
        <time>2017-07-02T09:27:35Z</time>
      </trkpt>
      <trkpt lat="45.05218" lon="5.92401">
        <ele>2064.57</ele>
        <time>2017-07-02T09:27:59Z</time>
      </trkpt>
      <trkpt lat="45.05221" lon="5.92405">
        <ele>2064.09</ele>
        <time>2017-07-02T09:28:21Z</time>
      </trkpt>
      <trkpt lat="45.0522" lon="5.92402">
        <ele>2064.57</ele>
        <time>2017-07-02T09:28:45Z</time>
      </trkpt>
      <trkpt lat="45.0522" lon="5.92401">
        <ele>2064.57</ele>
        <time>2017-07-02T09:29:02Z</time>
      </trkpt>
      <trkpt lat="45.05219" lon="5.92401">
        <ele>2064.09</ele>
        <time>2017-07-02T09:29:23Z</time>
      </trkpt>
      <trkpt lat="45.05221" lon="5.924">
        <ele>2064.09</ele>
        <time>2017-07-02T09:29:37Z</time>
      </trkpt>
      <trkpt lat="45.05221" lon="5.92399">
        <ele>2063.13</ele>
        <time>2017-07-02T09:30:01Z</time>
      </trkpt>
      <trkpt lat="45.05222" lon="5.92399">
        <ele>2064.09</ele>
        <time>2017-07-02T09:30:21Z</time>
      </trkpt>
      <trkpt lat="45.05222" lon="5.92399">
        <ele>2063.61</ele>
        <time>2017-07-02T09:30:47Z</time>
      </trkpt>
      <trkpt lat="45.05221" lon="5.92399">
        <ele>2063.61</ele>
        <time>2017-07-02T09:31:08Z</time>
      </trkpt>
      <trkpt lat="45.05222" lon="5.92401">
        <ele>2064.09</ele>
        <time>2017-07-02T09:31:31Z</time>
      </trkpt>
      <trkpt lat="45.05223" lon="5.92399">
        <ele>2063.61</ele>
        <time>2017-07-02T09:32:00Z</time>
      </trkpt>
      <trkpt lat="45.05224" lon="5.92403">
        <ele>2064.09</ele>
        <time>2017-07-02T09:32:17Z</time>
      </trkpt>
      <trkpt lat="45.05222" lon="5.92401">
        <ele>2064.09</ele>
        <time>2017-07-02T09:32:42Z</time>
      </trkpt>
      <trkpt lat="45.05221" lon="5.92401">
        <ele>2063.61</ele>
        <time>2017-07-02T09:33:06Z</time>
      </trkpt>
      <trkpt lat="45.05224" lon="5.92404">
        <ele>2063.13</ele>
        <time>2017-07-02T09:33:28Z</time>
      </trkpt>
      <trkpt lat="45.05225" lon="5.92403">
        <ele>2063.13</ele>
        <time>2017-07-02T09:33:54Z</time>
      </trkpt>
      <trkpt lat="45.05225" lon="5.92403">
        <ele>2063.61</ele>
        <time>2017-07-02T09:34:17Z</time>
      </trkpt>
      <trkpt lat="45.05223" lon="5.92402">
        <ele>2063.13</ele>
        <time>2017-07-02T09:34:40Z</time>
      </trkpt>
      <trkpt lat="45.05223" lon="5.92402">
        <ele>2062.17</ele>
        <time>2017-07-02T09:35:05Z</time>
      </trkpt>
      <trkpt lat="45.05221" lon="5.92402">
        <ele>2063.61</ele>
        <time>2017-07-02T09:35:32Z</time>
      </trkpt>
      <trkpt lat="45.0522" lon="5.92399">
        <ele>2062.65</ele>
        <time>2017-07-02T09:35:53Z</time>
      </trkpt>
      <trkpt lat="45.05222" lon="5.92402">
        <ele>2063.13</ele>
        <time>2017-07-02T09:36:12Z</time>
      </trkpt>
      <trkpt lat="45.05221" lon="5.92402">
        <ele>2062.65</ele>
        <time>2017-07-02T09:36:31Z</time>
      </trkpt>
      <trkpt lat="45.0522" lon="5.92401">
        <ele>2062.65</ele>
        <time>2017-07-02T09:36:47Z</time>
      </trkpt>
      <trkpt lat="45.05221" lon="5.92402">
        <ele>2062.65</ele>
        <time>2017-07-02T09:37:03Z</time>
      </trkpt>
      <trkpt lat="45.05221" lon="5.92401">
        <ele>2062.65</ele>
        <time>2017-07-02T09:37:18Z</time>
      </trkpt>
      <trkpt lat="45.05222" lon="5.924">
        <ele>2062.65</ele>
        <time>2017-07-02T09:37:33Z</time>
      </trkpt>
      <trkpt lat="45.05223" lon="5.92399">
        <ele>2062.65</ele>
        <time>2017-07-02T09:38:03Z</time>
      </trkpt>
      <trkpt lat="45.05222" lon="5.92399">
        <ele>2063.13</ele>
        <time>2017-07-02T09:38:37Z</time>
      </trkpt>
      <trkpt lat="45.05222" lon="5.92402">
        <ele>2064.09</ele>
        <time>2017-07-02T09:39:08Z</time>
      </trkpt>
      <trkpt lat="45.05222" lon="5.92402">
        <ele>2062.65</ele>
        <time>2017-07-02T09:39:25Z</time>
      </trkpt>
      <trkpt lat="45.05223" lon="5.92401">
        <ele>2062.65</ele>
        <time>2017-07-02T09:39:47Z</time>
      </trkpt>
      <trkpt lat="45.05225" lon="5.924">
        <ele>2063.61</ele>
        <time>2017-07-02T09:40:13Z</time>
      </trkpt>
      <trkpt lat="45.05222" lon="5.92403">
        <ele>2062.65</ele>
        <time>2017-07-02T09:40:41Z</time>
      </trkpt>
      <trkpt lat="45.05222" lon="5.92401">
        <ele>2062.65</ele>
        <time>2017-07-02T09:41:06Z</time>
      </trkpt>
      <trkpt lat="45.05223" lon="5.92403">
        <ele>2063.13</ele>
        <time>2017-07-02T09:41:16Z</time>
      </trkpt>
      <trkpt lat="45.05225" lon="5.9241">
        <ele>2061.68</ele>
        <time>2017-07-02T09:41:22Z</time>
      </trkpt>
      <trkpt lat="45.05226" lon="5.92422">
        <ele>2061.2</ele>
        <time>2017-07-02T09:41:37Z</time>
      </trkpt>
      <trkpt lat="45.05227" lon="5.92424">
        <ele>2061.2</ele>
        <time>2017-07-02T09:41:53Z</time>
      </trkpt>
      <trkpt lat="45.05228" lon="5.92426">
        <ele>2061.2</ele>
        <time>2017-07-02T09:42:06Z</time>
      </trkpt>
      <trkpt lat="45.05228" lon="5.92432">
        <ele>2061.2</ele>
        <time>2017-07-02T09:42:23Z</time>
      </trkpt>
      <trkpt lat="45.05228" lon="5.92442">
        <ele>2062.65</ele>
        <time>2017-07-02T09:42:36Z</time>
      </trkpt>
      <trkpt lat="45.05229" lon="5.92449">
        <ele>2062.17</ele>
        <time>2017-07-02T09:42:48Z</time>
      </trkpt>
      <trkpt lat="45.05228" lon="5.9245">
        <ele>2062.17</ele>
        <time>2017-07-02T09:42:49Z</time>
      </trkpt>
      <trkpt lat="45.05221" lon="5.92462">
        <ele>2060.24</ele>
        <time>2017-07-02T09:43:02Z</time>
      </trkpt>
      <trkpt lat="45.05219" lon="5.92466">
        <ele>2059.76</ele>
        <time>2017-07-02T09:43:06Z</time>
      </trkpt>
      <trkpt lat="45.05213" lon="5.92476">
        <ele>2061.2</ele>
        <time>2017-07-02T09:43:21Z</time>
      </trkpt>
      <trkpt lat="45.0521" lon="5.92488">
        <ele>2061.2</ele>
        <time>2017-07-02T09:43:33Z</time>
      </trkpt>
      <trkpt lat="45.05209" lon="5.92493">
        <ele>2062.17</ele>
        <time>2017-07-02T09:43:47Z</time>
      </trkpt>
      <trkpt lat="45.05211" lon="5.92502">
        <ele>2063.13</ele>
        <time>2017-07-02T09:43:59Z</time>
      </trkpt>
      <trkpt lat="45.05208" lon="5.92503">
        <ele>2063.61</ele>
        <time>2017-07-02T09:44:21Z</time>
      </trkpt>
      <trkpt lat="45.05214" lon="5.9251">
        <ele>2064.57</ele>
        <time>2017-07-02T09:44:35Z</time>
      </trkpt>
      <trkpt lat="45.05215" lon="5.92515">
        <ele>2064.09</ele>
        <time>2017-07-02T09:44:47Z</time>
      </trkpt>
      <trkpt lat="45.05217" lon="5.92522">
        <ele>2065.05</ele>
        <time>2017-07-02T09:45:02Z</time>
      </trkpt>
      <trkpt lat="45.05219" lon="5.92531">
        <ele>2066.49</ele>
        <time>2017-07-02T09:45:18Z</time>
      </trkpt>
      <trkpt lat="45.05221" lon="5.92537">
        <ele>2066.49</ele>
        <time>2017-07-02T09:45:29Z</time>
      </trkpt>
      <trkpt lat="45.05219" lon="5.92538">
        <ele>2067.45</ele>
        <time>2017-07-02T09:45:41Z</time>
      </trkpt>
      <trkpt lat="45.0522" lon="5.9254">
        <ele>2067.93</ele>
        <time>2017-07-02T09:45:53Z</time>
      </trkpt>
      <trkpt lat="45.05222" lon="5.92546">
        <ele>2067.45</ele>
        <time>2017-07-02T09:46:07Z</time>
      </trkpt>
      <trkpt lat="45.05223" lon="5.92552">
        <ele>2068.89</ele>
        <time>2017-07-02T09:46:20Z</time>
      </trkpt>
      <trkpt lat="45.05224" lon="5.92551">
        <ele>2066.01</ele>
        <time>2017-07-02T09:46:32Z</time>
      </trkpt>
      <trkpt lat="45.05228" lon="5.92549">
        <ele>2064.57</ele>
        <time>2017-07-02T09:46:43Z</time>
      </trkpt>
      <trkpt lat="45.05233" lon="5.92552">
        <ele>2063.61</ele>
        <time>2017-07-02T09:46:58Z</time>
      </trkpt>
      <trkpt lat="45.0524" lon="5.92549">
        <ele>2062.17</ele>
        <time>2017-07-02T09:47:11Z</time>
      </trkpt>
      <trkpt lat="45.05247" lon="5.92545">
        <ele>2061.68</ele>
        <time>2017-07-02T09:47:23Z</time>
      </trkpt>
      <trkpt lat="45.05249" lon="5.92544">
        <ele>2061.68</ele>
        <time>2017-07-02T09:47:26Z</time>
      </trkpt>
      <trkpt lat="45.05254" lon="5.92544">
        <ele>2061.68</ele>
        <time>2017-07-02T09:47:30Z</time>
      </trkpt>
      <trkpt lat="45.05259" lon="5.92549">
        <ele>2061.68</ele>
        <time>2017-07-02T09:47:36Z</time>
      </trkpt>
      <trkpt lat="45.05264" lon="5.92557">
        <ele>2060.72</ele>
        <time>2017-07-02T09:47:44Z</time>
      </trkpt>
      <trkpt lat="45.05267" lon="5.92566">
        <ele>2060.72</ele>
        <time>2017-07-02T09:47:55Z</time>
      </trkpt>
      <trkpt lat="45.05272" lon="5.92555">
        <ele>2059.76</ele>
        <time>2017-07-02T09:48:08Z</time>
      </trkpt>
      <trkpt lat="45.05282" lon="5.92551">
        <ele>2060.72</ele>
        <time>2017-07-02T09:48:21Z</time>
      </trkpt>
      <trkpt lat="45.05285" lon="5.92552">
        <ele>2060.24</ele>
        <time>2017-07-02T09:48:25Z</time>
      </trkpt>
      <trkpt lat="45.05289" lon="5.92569">
        <ele>2059.28</ele>
        <time>2017-07-02T09:48:38Z</time>
      </trkpt>
      <trkpt lat="45.05289" lon="5.92572">
        <ele>2060.24</ele>
        <time>2017-07-02T09:48:42Z</time>
      </trkpt>
      <trkpt lat="45.05288" lon="5.9258">
        <ele>2060.72</ele>
        <time>2017-07-02T09:48:53Z</time>
      </trkpt>
      <trkpt lat="45.05284" lon="5.92592">
        <ele>2060.24</ele>
        <time>2017-07-02T09:49:06Z</time>
      </trkpt>
      <trkpt lat="45.05278" lon="5.92593">
        <ele>2060.72</ele>
        <time>2017-07-02T09:49:16Z</time>
      </trkpt>
      <trkpt lat="45.05279" lon="5.92595">
        <ele>2060.24</ele>
        <time>2017-07-02T09:49:20Z</time>
      </trkpt>
      <trkpt lat="45.05279" lon="5.92606">
        <ele>2060.24</ele>
        <time>2017-07-02T09:49:31Z</time>
      </trkpt>
      <trkpt lat="45.0528" lon="5.92607">
        <ele>2059.28</ele>
        <time>2017-07-02T09:49:33Z</time>
      </trkpt>
      <trkpt lat="45.05281" lon="5.92616">
        <ele>2058.32</ele>
        <time>2017-07-02T09:49:40Z</time>
      </trkpt>
      <trkpt lat="45.05284" lon="5.92625">
        <ele>2058.32</ele>
        <time>2017-07-02T09:49:53Z</time>
      </trkpt>
      <trkpt lat="45.05286" lon="5.92632">
        <ele>2057.84</ele>
        <time>2017-07-02T09:50:05Z</time>
      </trkpt>
      <trkpt lat="45.05288" lon="5.92637">
        <ele>2057.84</ele>
        <time>2017-07-02T09:50:20Z</time>
      </trkpt>
      <trkpt lat="45.05292" lon="5.92642">
        <ele>2057.84</ele>
        <time>2017-07-02T09:50:35Z</time>
      </trkpt>
      <trkpt lat="45.05295" lon="5.92643">
        <ele>2058.8</ele>
        <time>2017-07-02T09:50:49Z</time>
      </trkpt>
      <trkpt lat="45.05299" lon="5.92646">
        <ele>2058.32</ele>
        <time>2017-07-02T09:51:02Z</time>
      </trkpt>
      <trkpt lat="45.05304" lon="5.9265">
        <ele>2058.8</ele>
        <time>2017-07-02T09:51:20Z</time>
      </trkpt>
      <trkpt lat="45.05306" lon="5.92651">
        <ele>2058.8</ele>
        <time>2017-07-02T09:51:24Z</time>
      </trkpt>
      <trkpt lat="45.05307" lon="5.92654">
        <ele>2058.32</ele>
        <time>2017-07-02T09:51:26Z</time>
      </trkpt>
      <trkpt lat="45.05309" lon="5.92665">
        <ele>2057.84</ele>
        <time>2017-07-02T09:51:35Z</time>
      </trkpt>
      <trkpt lat="45.05316" lon="5.92673">
        <ele>2056.88</ele>
        <time>2017-07-02T09:51:49Z</time>
      </trkpt>
      <trkpt lat="45.05325" lon="5.9267">
        <ele>2055.44</ele>
        <time>2017-07-02T09:52:02Z</time>
      </trkpt>
      <trkpt lat="45.05332" lon="5.9267">
        <ele>2054.96</ele>
        <time>2017-07-02T09:52:14Z</time>
      </trkpt>
      <trkpt lat="45.05339" lon="5.9267">
        <ele>2053.51</ele>
        <time>2017-07-02T09:52:25Z</time>
      </trkpt>
      <trkpt lat="45.05348" lon="5.92668">
        <ele>2053.99</ele>
        <time>2017-07-02T09:52:39Z</time>
      </trkpt>
      <trkpt lat="45.0535" lon="5.9267">
        <ele>2054.47</ele>
        <time>2017-07-02T09:52:54Z</time>
      </trkpt>
      <trkpt lat="45.05351" lon="5.92669">
        <ele>2053.99</ele>
        <time>2017-07-02T09:53:11Z</time>
      </trkpt>
      <trkpt lat="45.05357" lon="5.92666">
        <ele>2055.44</ele>
        <time>2017-07-02T09:53:22Z</time>
      </trkpt>
      <trkpt lat="45.05359" lon="5.92667">
        <ele>2055.44</ele>
        <time>2017-07-02T09:53:36Z</time>
      </trkpt>
      <trkpt lat="45.0536" lon="5.92664">
        <ele>2054.47</ele>
        <time>2017-07-02T09:53:50Z</time>
      </trkpt>
      <trkpt lat="45.05358" lon="5.92658">
        <ele>2055.44</ele>
        <time>2017-07-02T09:54:06Z</time>
      </trkpt>
      <trkpt lat="45.05362" lon="5.92658">
        <ele>2054.47</ele>
        <time>2017-07-02T09:54:12Z</time>
      </trkpt>
      <trkpt lat="45.05366" lon="5.92659">
        <ele>2054.96</ele>
        <time>2017-07-02T09:54:16Z</time>
      </trkpt>
      <trkpt lat="45.05367" lon="5.92657">
        <ele>2054.96</ele>
        <time>2017-07-02T09:54:30Z</time>
      </trkpt>
      <trkpt lat="45.05367" lon="5.92655">
        <ele>2053.99</ele>
        <time>2017-07-02T09:54:43Z</time>
      </trkpt>
      <trkpt lat="45.05371" lon="5.9265">
        <ele>2053.03</ele>
        <time>2017-07-02T09:54:54Z</time>
      </trkpt>
      <trkpt lat="45.05375" lon="5.92653">
        <ele>2053.51</ele>
        <time>2017-07-02T09:55:06Z</time>
      </trkpt>
      <trkpt lat="45.05378" lon="5.92656">
        <ele>2053.51</ele>
        <time>2017-07-02T09:55:16Z</time>
      </trkpt>
      <trkpt lat="45.05377" lon="5.92653">
        <ele>2062.17</ele>
        <time>2017-07-02T09:55:55Z</time>
      </trkpt>
      <trkpt lat="45.05388" lon="5.92677">
        <ele>2062.17</ele>
        <time>2017-07-02T09:56:12Z</time>
      </trkpt>
      <trkpt lat="45.05389" lon="5.92678">
        <ele>2062.17</ele>
        <time>2017-07-02T09:56:14Z</time>
      </trkpt>
      <trkpt lat="45.05398" lon="5.92697">
        <ele>2062.17</ele>
        <time>2017-07-02T09:56:28Z</time>
      </trkpt>
      <trkpt lat="45.05407" lon="5.92708">
        <ele>2062.65</ele>
        <time>2017-07-02T09:56:42Z</time>
      </trkpt>
      <trkpt lat="45.05408" lon="5.92708">
        <ele>2062.65</ele>
        <time>2017-07-02T09:56:44Z</time>
      </trkpt>
      <trkpt lat="45.05418" lon="5.92719">
        <ele>2062.65</ele>
        <time>2017-07-02T09:56:58Z</time>
      </trkpt>
      <trkpt lat="45.05428" lon="5.92726">
        <ele>2064.09</ele>
        <time>2017-07-02T09:57:13Z</time>
      </trkpt>
      <trkpt lat="45.05438" lon="5.92735">
        <ele>2063.13</ele>
        <time>2017-07-02T09:57:27Z</time>
      </trkpt>
      <trkpt lat="45.0545" lon="5.92737">
        <ele>2063.13</ele>
        <time>2017-07-02T09:57:43Z</time>
      </trkpt>
      <trkpt lat="45.05451" lon="5.92738">
        <ele>2062.65</ele>
        <time>2017-07-02T09:57:44Z</time>
      </trkpt>
      <trkpt lat="45.05452" lon="5.92744">
        <ele>2061.68</ele>
        <time>2017-07-02T09:57:49Z</time>
      </trkpt>
      <trkpt lat="45.05456" lon="5.92744">
        <ele>2061.68</ele>
        <time>2017-07-02T09:57:53Z</time>
      </trkpt>
      <trkpt lat="45.05458" lon="5.92746">
        <ele>2061.2</ele>
        <time>2017-07-02T09:57:56Z</time>
      </trkpt>
      <trkpt lat="45.05466" lon="5.92757">
        <ele>2061.68</ele>
        <time>2017-07-02T09:58:10Z</time>
      </trkpt>
      <trkpt lat="45.05477" lon="5.92764">
        <ele>2062.65</ele>
        <time>2017-07-02T09:58:23Z</time>
      </trkpt>
      <trkpt lat="45.05495" lon="5.92762">
        <ele>2061.68</ele>
        <time>2017-07-02T09:58:40Z</time>
      </trkpt>
      <trkpt lat="45.0551" lon="5.92761">
        <ele>2061.2</ele>
        <time>2017-07-02T09:58:56Z</time>
      </trkpt>
      <trkpt lat="45.05521" lon="5.92764">
        <ele>2062.17</ele>
        <time>2017-07-02T09:59:07Z</time>
      </trkpt>
      <trkpt lat="45.05528" lon="5.92762">
        <ele>2061.2</ele>
        <time>2017-07-02T09:59:19Z</time>
      </trkpt>
      <trkpt lat="45.0553" lon="5.92761">
        <ele>2061.2</ele>
        <time>2017-07-02T09:59:32Z</time>
      </trkpt>
      <trkpt lat="45.05532" lon="5.92759">
        <ele>2060.72</ele>
        <time>2017-07-02T09:59:46Z</time>
      </trkpt>
      <trkpt lat="45.05533" lon="5.92761">
        <ele>2060.24</ele>
        <time>2017-07-02T10:00:01Z</time>
      </trkpt>
      <trkpt lat="45.05534" lon="5.92759">
        <ele>2059.76</ele>
        <time>2017-07-02T10:00:20Z</time>
      </trkpt>
      <trkpt lat="45.05535" lon="5.92759">
        <ele>2060.24</ele>
        <time>2017-07-02T10:00:22Z</time>
      </trkpt>
      <trkpt lat="45.05537" lon="5.9276">
        <ele>2060.72</ele>
        <time>2017-07-02T10:00:26Z</time>
      </trkpt>
      <trkpt lat="45.05538" lon="5.9276">
        <ele>2059.76</ele>
        <time>2017-07-02T10:00:28Z</time>
      </trkpt>
      <trkpt lat="45.05542" lon="5.9276">
        <ele>2060.72</ele>
        <time>2017-07-02T10:00:38Z</time>
      </trkpt>
      <trkpt lat="45.05546" lon="5.92766">
        <ele>2060.24</ele>
        <time>2017-07-02T10:00:48Z</time>
      </trkpt>
      <trkpt lat="45.05546" lon="5.9277">
        <ele>2060.24</ele>
        <time>2017-07-02T10:01:00Z</time>
      </trkpt>
      <trkpt lat="45.05547" lon="5.92773">
        <ele>2060.72</ele>
        <time>2017-07-02T10:01:14Z</time>
      </trkpt>
      <trkpt lat="45.05548" lon="5.92773">
        <ele>2060.24</ele>
        <time>2017-07-02T10:01:17Z</time>
      </trkpt>
      <trkpt lat="45.05546" lon="5.92786">
        <ele>2061.2</ele>
        <time>2017-07-02T10:01:29Z</time>
      </trkpt>
      <trkpt lat="45.0555" lon="5.92795">
        <ele>2061.2</ele>
        <time>2017-07-02T10:01:40Z</time>
      </trkpt>
      <trkpt lat="45.05549" lon="5.92801">
        <ele>2061.68</ele>
        <time>2017-07-02T10:01:58Z</time>
      </trkpt>
      <trkpt lat="45.05551" lon="5.92808">
        <ele>2061.68</ele>
        <time>2017-07-02T10:02:09Z</time>
      </trkpt>
      <trkpt lat="45.05549" lon="5.92814">
        <ele>2061.2</ele>
        <time>2017-07-02T10:02:26Z</time>
      </trkpt>
      <trkpt lat="45.0555" lon="5.92815">
        <ele>2061.68</ele>
        <time>2017-07-02T10:02:40Z</time>
      </trkpt>
      <trkpt lat="45.05552" lon="5.92819">
        <ele>2061.68</ele>
        <time>2017-07-02T10:02:56Z</time>
      </trkpt>
      <trkpt lat="45.05549" lon="5.92814">
        <ele>2061.2</ele>
        <time>2017-07-02T10:03:11Z</time>
      </trkpt>
      <trkpt lat="45.05552" lon="5.92812">
        <ele>2061.2</ele>
        <time>2017-07-02T10:03:27Z</time>
      </trkpt>
      <trkpt lat="45.05552" lon="5.92813">
        <ele>2061.2</ele>
        <time>2017-07-02T10:03:47Z</time>
      </trkpt>
      <trkpt lat="45.05553" lon="5.92815">
        <ele>2061.68</ele>
        <time>2017-07-02T10:04:03Z</time>
      </trkpt>
      <trkpt lat="45.05554" lon="5.92816">
        <ele>2060.72</ele>
        <time>2017-07-02T10:04:17Z</time>
      </trkpt>
      <trkpt lat="45.05551" lon="5.92818">
        <ele>2060.72</ele>
        <time>2017-07-02T10:04:46Z</time>
      </trkpt>
      <trkpt lat="45.05551" lon="5.92816">
        <ele>2061.2</ele>
        <time>2017-07-02T10:04:57Z</time>
      </trkpt>
      <trkpt lat="45.05551" lon="5.92816">
        <ele>2061.2</ele>
        <time>2017-07-02T10:05:12Z</time>
      </trkpt>
      <trkpt lat="45.05552" lon="5.92815">
        <ele>2060.72</ele>
        <time>2017-07-02T10:05:29Z</time>
      </trkpt>
      <trkpt lat="45.05551" lon="5.92815">
        <ele>2060.72</ele>
        <time>2017-07-02T10:05:48Z</time>
      </trkpt>
      <trkpt lat="45.05551" lon="5.92817">
        <ele>2060.72</ele>
        <time>2017-07-02T10:06:11Z</time>
      </trkpt>
      <trkpt lat="45.05549" lon="5.92818">
        <ele>2060.24</ele>
        <time>2017-07-02T10:06:45Z</time>
      </trkpt>
      <trkpt lat="45.0555" lon="5.92817">
        <ele>2059.76</ele>
        <time>2017-07-02T10:07:09Z</time>
      </trkpt>
      <trkpt lat="45.05552" lon="5.92818">
        <ele>2059.76</ele>
        <time>2017-07-02T10:07:40Z</time>
      </trkpt>
      <trkpt lat="45.0555" lon="5.92816">
        <ele>2059.76</ele>
        <time>2017-07-02T10:08:02Z</time>
      </trkpt>
      <trkpt lat="45.05551" lon="5.92814">
        <ele>2058.8</ele>
        <time>2017-07-02T10:08:28Z</time>
      </trkpt>
      <trkpt lat="45.0555" lon="5.92817">
        <ele>2060.24</ele>
        <time>2017-07-02T10:08:51Z</time>
      </trkpt>
      <trkpt lat="45.05551" lon="5.92821">
        <ele>2060.24</ele>
        <time>2017-07-02T10:08:54Z</time>
      </trkpt>
      <trkpt lat="45.05558" lon="5.92827">
        <ele>2060.24</ele>
        <time>2017-07-02T10:09:02Z</time>
      </trkpt>
      <trkpt lat="45.05567" lon="5.92841">
        <ele>2060.24</ele>
        <time>2017-07-02T10:09:17Z</time>
      </trkpt>
      <trkpt lat="45.0557" lon="5.92846">
        <ele>2060.24</ele>
        <time>2017-07-02T10:09:22Z</time>
      </trkpt>
      <trkpt lat="45.05586" lon="5.92849">
        <ele>2060.24</ele>
        <time>2017-07-02T10:09:38Z</time>
      </trkpt>
      <trkpt lat="45.05599" lon="5.92854">
        <ele>2060.24</ele>
        <time>2017-07-02T10:09:51Z</time>
      </trkpt>
      <trkpt lat="45.05613" lon="5.92858">
        <ele>2059.76</ele>
        <time>2017-07-02T10:10:05Z</time>
      </trkpt>
      <trkpt lat="45.05621" lon="5.9285">
        <ele>2058.8</ele>
        <time>2017-07-02T10:10:19Z</time>
      </trkpt>
      <trkpt lat="45.05623" lon="5.92847">
        <ele>2059.28</ele>
        <time>2017-07-02T10:10:23Z</time>
      </trkpt>
      <trkpt lat="45.05629" lon="5.92856">
        <ele>2060.24</ele>
        <time>2017-07-02T10:10:35Z</time>
      </trkpt>
      <trkpt lat="45.05631" lon="5.92859">
        <ele>2060.24</ele>
        <time>2017-07-02T10:10:38Z</time>
      </trkpt>
      <trkpt lat="45.05638" lon="5.92855">
        <ele>2060.24</ele>
        <time>2017-07-02T10:10:47Z</time>
      </trkpt>
      <trkpt lat="45.05639" lon="5.92855">
        <ele>2060.72</ele>
        <time>2017-07-02T10:10:50Z</time>
      </trkpt>
      <trkpt lat="45.05643" lon="5.9286">
        <ele>2060.72</ele>
        <time>2017-07-02T10:10:56Z</time>
      </trkpt>
      <trkpt lat="45.05646" lon="5.92866">
        <ele>2062.17</ele>
        <time>2017-07-02T10:11:02Z</time>
      </trkpt>
      <trkpt lat="45.0565" lon="5.92865">
        <ele>2061.68</ele>
        <time>2017-07-02T10:11:06Z</time>
      </trkpt>
      <trkpt lat="45.05658" lon="5.92871">
        <ele>2061.2</ele>
        <time>2017-07-02T10:11:16Z</time>
      </trkpt>
      <trkpt lat="45.05661" lon="5.92872">
        <ele>2061.68</ele>
        <time>2017-07-02T10:11:19Z</time>
      </trkpt>
      <trkpt lat="45.05671" lon="5.92882">
        <ele>2061.68</ele>
        <time>2017-07-02T10:11:32Z</time>
      </trkpt>
      <trkpt lat="45.05685" lon="5.92889">
        <ele>2061.2</ele>
        <time>2017-07-02T10:11:47Z</time>
      </trkpt>
      <trkpt lat="45.057" lon="5.9289">
        <ele>2060.72</ele>
        <time>2017-07-02T10:12:02Z</time>
      </trkpt>
      <trkpt lat="45.05711" lon="5.9289">
        <ele>2062.17</ele>
        <time>2017-07-02T10:12:14Z</time>
      </trkpt>
      <trkpt lat="45.05724" lon="5.92894">
        <ele>2062.65</ele>
        <time>2017-07-02T10:12:29Z</time>
      </trkpt>
      <trkpt lat="45.05727" lon="5.92899">
        <ele>2062.65</ele>
        <time>2017-07-02T10:12:37Z</time>
      </trkpt>
      <trkpt lat="45.05727" lon="5.92902">
        <ele>2062.65</ele>
        <time>2017-07-02T10:12:39Z</time>
      </trkpt>
      <trkpt lat="45.05728" lon="5.92905">
        <ele>2061.68</ele>
        <time>2017-07-02T10:12:41Z</time>
      </trkpt>
      <trkpt lat="45.0573" lon="5.92907">
        <ele>2060.72</ele>
        <time>2017-07-02T10:12:44Z</time>
      </trkpt>
      <trkpt lat="45.05743" lon="5.92903">
        <ele>2060.72</ele>
        <time>2017-07-02T10:12:58Z</time>
      </trkpt>
      <trkpt lat="45.05744" lon="5.929">
        <ele>2060.72</ele>
        <time>2017-07-02T10:13:00Z</time>
      </trkpt>
      <trkpt lat="45.05749" lon="5.92895">
        <ele>2059.76</ele>
        <time>2017-07-02T10:13:05Z</time>
      </trkpt>
      <trkpt lat="45.05752" lon="5.92897">
        <ele>2060.72</ele>
        <time>2017-07-02T10:13:09Z</time>
      </trkpt>
      <trkpt lat="45.0576" lon="5.92894">
        <ele>2062.65</ele>
        <time>2017-07-02T10:13:21Z</time>
      </trkpt>
      <trkpt lat="45.0576" lon="5.92894">
        <ele>2061.68</ele>
        <time>2017-07-02T10:13:22Z</time>
      </trkpt>
      <trkpt lat="45.05767" lon="5.92897">
        <ele>2063.61</ele>
        <time>2017-07-02T10:13:33Z</time>
      </trkpt>
      <trkpt lat="45.05771" lon="5.92894">
        <ele>2063.61</ele>
        <time>2017-07-02T10:13:44Z</time>
      </trkpt>
      <trkpt lat="45.05776" lon="5.92893">
        <ele>2063.61</ele>
        <time>2017-07-02T10:13:59Z</time>
      </trkpt>
      <trkpt lat="45.0578" lon="5.92891">
        <ele>2064.09</ele>
        <time>2017-07-02T10:14:09Z</time>
      </trkpt>
      <trkpt lat="45.05781" lon="5.92889">
        <ele>2064.09</ele>
        <time>2017-07-02T10:14:11Z</time>
      </trkpt>
      <trkpt lat="45.05789" lon="5.92885">
        <ele>2063.61</ele>
        <time>2017-07-02T10:14:23Z</time>
      </trkpt>
      <trkpt lat="45.05795" lon="5.92887">
        <ele>2062.17</ele>
        <time>2017-07-02T10:14:35Z</time>
      </trkpt>
      <trkpt lat="45.05799" lon="5.92886">
        <ele>2062.17</ele>
        <time>2017-07-02T10:14:44Z</time>
      </trkpt>
      <trkpt lat="45.05803" lon="5.92887">
        <ele>2060.72</ele>
        <time>2017-07-02T10:14:57Z</time>
      </trkpt>
      <trkpt lat="45.05805" lon="5.92887">
        <ele>2060.24</ele>
        <time>2017-07-02T10:15:00Z</time>
      </trkpt>
      <trkpt lat="45.0581" lon="5.92887">
        <ele>2060.24</ele>
        <time>2017-07-02T10:15:05Z</time>
      </trkpt>
      <trkpt lat="45.05822" lon="5.92889">
        <ele>2059.28</ele>
        <time>2017-07-02T10:15:19Z</time>
      </trkpt>
      <trkpt lat="45.05831" lon="5.92885">
        <ele>2060.24</ele>
        <time>2017-07-02T10:15:30Z</time>
      </trkpt>
      <trkpt lat="45.05842" lon="5.92882">
        <ele>2061.2</ele>
        <time>2017-07-02T10:15:43Z</time>
      </trkpt>
      <trkpt lat="45.05848" lon="5.9288">
        <ele>2059.76</ele>
        <time>2017-07-02T10:15:57Z</time>
      </trkpt>
      <trkpt lat="45.0586" lon="5.92882">
        <ele>2060.24</ele>
        <time>2017-07-02T10:16:09Z</time>
      </trkpt>
      <trkpt lat="45.05871" lon="5.92886">
        <ele>2059.76</ele>
        <time>2017-07-02T10:16:22Z</time>
      </trkpt>
      <trkpt lat="45.05882" lon="5.92894">
        <ele>2059.28</ele>
        <time>2017-07-02T10:16:36Z</time>
      </trkpt>
      <trkpt lat="45.05889" lon="5.92899">
        <ele>2059.28</ele>
        <time>2017-07-02T10:16:47Z</time>
      </trkpt>
      <trkpt lat="45.05896" lon="5.9291">
        <ele>2059.76</ele>
        <time>2017-07-02T10:16:59Z</time>
      </trkpt>
      <trkpt lat="45.059" lon="5.92917">
        <ele>2059.28</ele>
        <time>2017-07-02T10:17:10Z</time>
      </trkpt>
      <trkpt lat="45.05901" lon="5.92917">
        <ele>2058.8</ele>
        <time>2017-07-02T10:17:24Z</time>
      </trkpt>
      <trkpt lat="45.05903" lon="5.92918">
        <ele>2059.76</ele>
        <time>2017-07-02T10:17:38Z</time>
      </trkpt>
      <trkpt lat="45.05902" lon="5.92919">
        <ele>2058.8</ele>
        <time>2017-07-02T10:18:00Z</time>
      </trkpt>
      <trkpt lat="45.05903" lon="5.92919">
        <ele>2058.8</ele>
        <time>2017-07-02T10:18:15Z</time>
      </trkpt>
      <trkpt lat="45.05903" lon="5.92918">
        <ele>2058.8</ele>
        <time>2017-07-02T10:18:40Z</time>
      </trkpt>
      <trkpt lat="45.05903" lon="5.92919">
        <ele>2057.84</ele>
        <time>2017-07-02T10:19:06Z</time>
      </trkpt>
      <trkpt lat="45.05905" lon="5.92917">
        <ele>2057.84</ele>
        <time>2017-07-02T10:19:32Z</time>
      </trkpt>
      <trkpt lat="45.05904" lon="5.92916">
        <ele>2057.84</ele>
        <time>2017-07-02T10:19:56Z</time>
      </trkpt>
      <trkpt lat="45.05904" lon="5.92919">
        <ele>2057.36</ele>
        <time>2017-07-02T10:20:05Z</time>
      </trkpt>
      <trkpt lat="45.05915" lon="5.92923">
        <ele>2058.32</ele>
        <time>2017-07-02T10:20:18Z</time>
      </trkpt>
      <trkpt lat="45.05923" lon="5.92927">
        <ele>2058.8</ele>
        <time>2017-07-02T10:20:28Z</time>
      </trkpt>
      <trkpt lat="45.05931" lon="5.92934">
        <ele>2060.72</ele>
        <time>2017-07-02T10:20:39Z</time>
      </trkpt>
      <trkpt lat="45.05933" lon="5.92938">
        <ele>2061.68</ele>
        <time>2017-07-02T10:20:42Z</time>
      </trkpt>
      <trkpt lat="45.05938" lon="5.92936">
        <ele>2060.24</ele>
        <time>2017-07-02T10:20:48Z</time>
      </trkpt>
      <trkpt lat="45.05941" lon="5.92935">
        <ele>2059.76</ele>
        <time>2017-07-02T10:20:51Z</time>
      </trkpt>
      <trkpt lat="45.0595" lon="5.9293">
        <ele>2059.28</ele>
        <time>2017-07-02T10:21:03Z</time>
      </trkpt>
      <trkpt lat="45.05964" lon="5.92928">
        <ele>2058.32</ele>
        <time>2017-07-02T10:21:18Z</time>
      </trkpt>
      <trkpt lat="45.05976" lon="5.92927">
        <ele>2058.32</ele>
        <time>2017-07-02T10:21:30Z</time>
      </trkpt>
      <trkpt lat="45.05992" lon="5.92937">
        <ele>2057.84</ele>
        <time>2017-07-02T10:21:46Z</time>
      </trkpt>
      <trkpt lat="45.06005" lon="5.9294">
        <ele>2057.36</ele>
        <time>2017-07-02T10:21:59Z</time>
      </trkpt>
      <trkpt lat="45.06018" lon="5.92945">
        <ele>2057.84</ele>
        <time>2017-07-02T10:22:14Z</time>
      </trkpt>
      <trkpt lat="45.06031" lon="5.92945">
        <ele>2056.4</ele>
        <time>2017-07-02T10:22:30Z</time>
      </trkpt>
      <trkpt lat="45.06039" lon="5.92949">
        <ele>2052.55</ele>
        <time>2017-07-02T10:22:42Z</time>
      </trkpt>
      <trkpt lat="45.06057" lon="5.92947">
        <ele>2052.55</ele>
        <time>2017-07-02T10:23:00Z</time>
      </trkpt>
      <trkpt lat="45.06072" lon="5.92946">
        <ele>2052.07</ele>
        <time>2017-07-02T10:23:14Z</time>
      </trkpt>
      <trkpt lat="45.06073" lon="5.92946">
        <ele>2052.55</ele>
        <time>2017-07-02T10:23:15Z</time>
      </trkpt>
      <trkpt lat="45.06078" lon="5.92948">
        <ele>2051.59</ele>
        <time>2017-07-02T10:23:20Z</time>
      </trkpt>
      <trkpt lat="45.06081" lon="5.92949">
        <ele>2052.07</ele>
        <time>2017-07-02T10:23:23Z</time>
      </trkpt>
      <trkpt lat="45.06093" lon="5.92952">
        <ele>2053.51</ele>
        <time>2017-07-02T10:23:40Z</time>
      </trkpt>
      <trkpt lat="45.06093" lon="5.92952">
        <ele>2052.55</ele>
        <time>2017-07-02T10:23:41Z</time>
      </trkpt>
      <trkpt lat="45.061" lon="5.92952">
        <ele>2052.55</ele>
        <time>2017-07-02T10:23:46Z</time>
      </trkpt>
      <trkpt lat="45.06116" lon="5.92957">
        <ele>2052.55</ele>
        <time>2017-07-02T10:24:03Z</time>
      </trkpt>
      <trkpt lat="45.06131" lon="5.92961">
        <ele>2052.07</ele>
        <time>2017-07-02T10:24:19Z</time>
      </trkpt>
      <trkpt lat="45.0614" lon="5.92967">
        <ele>2050.63</ele>
        <time>2017-07-02T10:24:32Z</time>
      </trkpt>
      <trkpt lat="45.06141" lon="5.92967">
        <ele>2049.67</ele>
        <time>2017-07-02T10:24:33Z</time>
      </trkpt>
      <trkpt lat="45.06158" lon="5.92969">
        <ele>2049.19</ele>
        <time>2017-07-02T10:24:52Z</time>
      </trkpt>
      <trkpt lat="45.0617" lon="5.92973">
        <ele>2048.71</ele>
        <time>2017-07-02T10:25:05Z</time>
      </trkpt>
      <trkpt lat="45.06177" lon="5.92982">
        <ele>2048.71</ele>
        <time>2017-07-02T10:25:20Z</time>
      </trkpt>
      <trkpt lat="45.06177" lon="5.92981">
        <ele>2049.19</ele>
        <time>2017-07-02T10:25:23Z</time>
      </trkpt>
      <trkpt lat="45.06176" lon="5.92978">
        <ele>2048.71</ele>
        <time>2017-07-02T10:25:26Z</time>
      </trkpt>
      <trkpt lat="45.06179" lon="5.92968">
        <ele>2047.75</ele>
        <time>2017-07-02T10:25:37Z</time>
      </trkpt>
      <trkpt lat="45.06179" lon="5.92965">
        <ele>2048.23</ele>
        <time>2017-07-02T10:25:40Z</time>
      </trkpt>
      <trkpt lat="45.0618" lon="5.92958">
        <ele>2048.23</ele>
        <time>2017-07-02T10:25:45Z</time>
      </trkpt>
      <trkpt lat="45.06183" lon="5.92957">
        <ele>2048.71</ele>
        <time>2017-07-02T10:25:48Z</time>
      </trkpt>
      <trkpt lat="45.06191" lon="5.92953">
        <ele>2048.71</ele>
        <time>2017-07-02T10:26:00Z</time>
      </trkpt>
      <trkpt lat="45.06195" lon="5.92949">
        <ele>2048.23</ele>
        <time>2017-07-02T10:26:06Z</time>
      </trkpt>
      <trkpt lat="45.06197" lon="5.92948">
        <ele>2047.75</ele>
        <time>2017-07-02T10:26:09Z</time>
      </trkpt>
      <trkpt lat="45.0621" lon="5.92943">
        <ele>2047.26</ele>
        <time>2017-07-02T10:26:24Z</time>
      </trkpt>
      <trkpt lat="45.06218" lon="5.92936">
        <ele>2047.75</ele>
        <time>2017-07-02T10:26:38Z</time>
      </trkpt>
      <trkpt lat="45.06222" lon="5.92933">
        <ele>2046.3</ele>
        <time>2017-07-02T10:26:43Z</time>
      </trkpt>
      <trkpt lat="45.06224" lon="5.92932">
        <ele>2046.3</ele>
        <time>2017-07-02T10:26:48Z</time>
      </trkpt>
      <trkpt lat="45.06231" lon="5.92934">
        <ele>2045.34</ele>
        <time>2017-07-02T10:26:55Z</time>
      </trkpt>
      <trkpt lat="45.06233" lon="5.92937">
        <ele>2045.82</ele>
        <time>2017-07-02T10:26:58Z</time>
      </trkpt>
      <trkpt lat="45.06249" lon="5.9294">
        <ele>2044.38</ele>
        <time>2017-07-02T10:27:14Z</time>
      </trkpt>
      <trkpt lat="45.06251" lon="5.92939">
        <ele>2045.34</ele>
        <time>2017-07-02T10:27:16Z</time>
      </trkpt>
      <trkpt lat="45.06257" lon="5.92934">
        <ele>2043.42</ele>
        <time>2017-07-02T10:27:24Z</time>
      </trkpt>
      <trkpt lat="45.06265" lon="5.92928">
        <ele>2041.98</ele>
        <time>2017-07-02T10:27:35Z</time>
      </trkpt>
      <trkpt lat="45.06268" lon="5.92925">
        <ele>2041.02</ele>
        <time>2017-07-02T10:27:47Z</time>
      </trkpt>
      <trkpt lat="45.06279" lon="5.92924">
        <ele>2039.57</ele>
        <time>2017-07-02T10:28:00Z</time>
      </trkpt>
      <trkpt lat="45.06282" lon="5.92923">
        <ele>2039.09</ele>
        <time>2017-07-02T10:28:03Z</time>
      </trkpt>
      <trkpt lat="45.06288" lon="5.92917">
        <ele>2039.09</ele>
        <time>2017-07-02T10:28:16Z</time>
      </trkpt>
      <trkpt lat="45.06294" lon="5.9291">
        <ele>2036.21</ele>
        <time>2017-07-02T10:28:30Z</time>
      </trkpt>
      <trkpt lat="45.063" lon="5.92902">
        <ele>2034.29</ele>
        <time>2017-07-02T10:28:43Z</time>
      </trkpt>
      <trkpt lat="45.06304" lon="5.92896">
        <ele>2034.29</ele>
        <time>2017-07-02T10:28:52Z</time>
      </trkpt>
      <trkpt lat="45.0631" lon="5.9289">
        <ele>2032.36</ele>
        <time>2017-07-02T10:29:05Z</time>
      </trkpt>
      <trkpt lat="45.06314" lon="5.92893">
        <ele>2030.92</ele>
        <time>2017-07-02T10:29:18Z</time>
      </trkpt>
      <trkpt lat="45.06316" lon="5.92895">
        <ele>2029.48</ele>
        <time>2017-07-02T10:29:25Z</time>
      </trkpt>
      <trkpt lat="45.06317" lon="5.92897">
        <ele>2030.44</ele>
        <time>2017-07-02T10:29:42Z</time>
      </trkpt>
      <trkpt lat="45.06322" lon="5.92896">
        <ele>2027.56</ele>
        <time>2017-07-02T10:29:54Z</time>
      </trkpt>
      <trkpt lat="45.06326" lon="5.92896">
        <ele>2027.08</ele>
        <time>2017-07-02T10:30:00Z</time>
      </trkpt>
      <trkpt lat="45.06333" lon="5.92895">
        <ele>2026.6</ele>
        <time>2017-07-02T10:30:09Z</time>
      </trkpt>
      <trkpt lat="45.06336" lon="5.92894">
        <ele>2025.15</ele>
        <time>2017-07-02T10:30:12Z</time>
      </trkpt>
      <trkpt lat="45.06342" lon="5.92894">
        <ele>2024.19</ele>
        <time>2017-07-02T10:30:24Z</time>
      </trkpt>
      <trkpt lat="45.06346" lon="5.92889">
        <ele>2023.23</ele>
        <time>2017-07-02T10:30:34Z</time>
      </trkpt>
      <trkpt lat="45.0635" lon="5.9289">
        <ele>2022.75</ele>
        <time>2017-07-02T10:30:44Z</time>
      </trkpt>
      <trkpt lat="45.06355" lon="5.92891">
        <ele>2021.79</ele>
        <time>2017-07-02T10:30:55Z</time>
      </trkpt>
      <trkpt lat="45.06355" lon="5.92891">
        <ele>2021.79</ele>
        <time>2017-07-02T10:30:56Z</time>
      </trkpt>
      <trkpt lat="45.06362" lon="5.9289">
        <ele>2020.83</ele>
        <time>2017-07-02T10:31:07Z</time>
      </trkpt>
      <trkpt lat="45.06364" lon="5.92888">
        <ele>2020.35</ele>
        <time>2017-07-02T10:31:13Z</time>
      </trkpt>
      <trkpt lat="45.06368" lon="5.92888">
        <ele>2018.91</ele>
        <time>2017-07-02T10:31:20Z</time>
      </trkpt>
      <trkpt lat="45.06375" lon="5.92886">
        <ele>2016.98</ele>
        <time>2017-07-02T10:31:33Z</time>
      </trkpt>
      <trkpt lat="45.0638" lon="5.9289">
        <ele>2015.54</ele>
        <time>2017-07-02T10:31:44Z</time>
      </trkpt>
      <trkpt lat="45.06382" lon="5.92889">
        <ele>2015.54</ele>
        <time>2017-07-02T10:31:47Z</time>
      </trkpt>
      <trkpt lat="45.06386" lon="5.92889">
        <ele>2014.58</ele>
        <time>2017-07-02T10:31:56Z</time>
      </trkpt>
      <trkpt lat="45.06389" lon="5.92887">
        <ele>2013.62</ele>
        <time>2017-07-02T10:32:05Z</time>
      </trkpt>
      <trkpt lat="45.06394" lon="5.92888">
        <ele>2013.14</ele>
        <time>2017-07-02T10:32:15Z</time>
      </trkpt>
      <trkpt lat="45.06397" lon="5.92886">
        <ele>2013.62</ele>
        <time>2017-07-02T10:32:30Z</time>
      </trkpt>
      <trkpt lat="45.064" lon="5.92885">
        <ele>2013.62</ele>
        <time>2017-07-02T10:32:35Z</time>
      </trkpt>
      <trkpt lat="45.06405" lon="5.92887">
        <ele>2011.7</ele>
        <time>2017-07-02T10:32:46Z</time>
      </trkpt>
      <trkpt lat="45.06403" lon="5.92893">
        <ele>2010.25</ele>
        <time>2017-07-02T10:32:58Z</time>
      </trkpt>
      <trkpt lat="45.06402" lon="5.92894">
        <ele>2011.22</ele>
        <time>2017-07-02T10:33:11Z</time>
      </trkpt>
      <trkpt lat="45.06412" lon="5.92897">
        <ele>2007.85</ele>
        <time>2017-07-02T10:33:25Z</time>
      </trkpt>
      <trkpt lat="45.06413" lon="5.92899">
        <ele>2007.85</ele>
        <time>2017-07-02T10:33:40Z</time>
      </trkpt>
      <trkpt lat="45.06415" lon="5.92898">
        <ele>2007.37</ele>
        <time>2017-07-02T10:34:10Z</time>
      </trkpt>
      <trkpt lat="45.06413" lon="5.92901">
        <ele>2007.37</ele>
        <time>2017-07-02T10:34:25Z</time>
      </trkpt>
      <trkpt lat="45.0641" lon="5.92896">
        <ele>2009.29</ele>
        <time>2017-07-02T10:34:41Z</time>
      </trkpt>
      <trkpt lat="45.06407" lon="5.92899">
        <ele>2008.81</ele>
        <time>2017-07-02T10:34:53Z</time>
      </trkpt>
      <trkpt lat="45.06406" lon="5.92896">
        <ele>2008.81</ele>
        <time>2017-07-02T10:35:09Z</time>
      </trkpt>
      <trkpt lat="45.06407" lon="5.92896">
        <ele>2009.29</ele>
        <time>2017-07-02T10:35:33Z</time>
      </trkpt>
      <trkpt lat="45.06408" lon="5.92895">
        <ele>2008.81</ele>
        <time>2017-07-02T10:35:57Z</time>
      </trkpt>
      <trkpt lat="45.06411" lon="5.92895">
        <ele>2008.81</ele>
        <time>2017-07-02T10:36:14Z</time>
      </trkpt>
      <trkpt lat="45.06412" lon="5.92896">
        <ele>2007.85</ele>
        <time>2017-07-02T10:36:18Z</time>
      </trkpt>
      <trkpt lat="45.06416" lon="5.92902">
        <ele>2006.41</ele>
        <time>2017-07-02T10:36:30Z</time>
      </trkpt>
      <trkpt lat="45.06423" lon="5.92903">
        <ele>2004.97</ele>
        <time>2017-07-02T10:36:43Z</time>
      </trkpt>
      <trkpt lat="45.06431" lon="5.92903">
        <ele>2003.52</ele>
        <time>2017-07-02T10:36:54Z</time>
      </trkpt>
      <trkpt lat="45.06435" lon="5.92903">
        <ele>2003.04</ele>
        <time>2017-07-02T10:36:59Z</time>
      </trkpt>
      <trkpt lat="45.06438" lon="5.92908">
        <ele>2002.08</ele>
        <time>2017-07-02T10:37:11Z</time>
      </trkpt>
      <trkpt lat="45.06442" lon="5.92906">
        <ele>2000.64</ele>
        <time>2017-07-02T10:37:24Z</time>
      </trkpt>
      <trkpt lat="45.06449" lon="5.92909">
        <ele>1998.72</ele>
        <time>2017-07-02T10:37:38Z</time>
      </trkpt>
      <trkpt lat="45.06453" lon="5.92915">
        <ele>1997.76</ele>
        <time>2017-07-02T10:37:50Z</time>
      </trkpt>
      <trkpt lat="45.06459" lon="5.92918">
        <ele>1995.35</ele>
        <time>2017-07-02T10:38:02Z</time>
      </trkpt>
      <trkpt lat="45.06464" lon="5.92921">
        <ele>1994.39</ele>
        <time>2017-07-02T10:38:15Z</time>
      </trkpt>
      <trkpt lat="45.06467" lon="5.92921">
        <ele>1992.95</ele>
        <time>2017-07-02T10:38:22Z</time>
      </trkpt>
      <trkpt lat="45.06468" lon="5.92921">
        <ele>1991.99</ele>
        <time>2017-07-02T10:38:24Z</time>
      </trkpt>
      <trkpt lat="45.06475" lon="5.9293">
        <ele>1990.07</ele>
        <time>2017-07-02T10:38:36Z</time>
      </trkpt>
      <trkpt lat="45.06483" lon="5.92936">
        <ele>1988.62</ele>
        <time>2017-07-02T10:38:49Z</time>
      </trkpt>
      <trkpt lat="45.06486" lon="5.92941">
        <ele>1986.22</ele>
        <time>2017-07-02T10:38:58Z</time>
      </trkpt>
      <trkpt lat="45.06496" lon="5.92936">
        <ele>1985.26</ele>
        <time>2017-07-02T10:39:11Z</time>
      </trkpt>
      <trkpt lat="45.06508" lon="5.92937">
        <ele>1984.78</ele>
        <time>2017-07-02T10:39:25Z</time>
      </trkpt>
      <trkpt lat="45.06509" lon="5.9294">
        <ele>1984.78</ele>
        <time>2017-07-02T10:39:37Z</time>
      </trkpt>
      <trkpt lat="45.06517" lon="5.92944">
        <ele>1983.34</ele>
        <time>2017-07-02T10:39:49Z</time>
      </trkpt>
      <trkpt lat="45.06524" lon="5.92955">
        <ele>1981.41</ele>
        <time>2017-07-02T10:40:02Z</time>
      </trkpt>
      <trkpt lat="45.0653" lon="5.92962">
        <ele>1979.01</ele>
        <time>2017-07-02T10:40:15Z</time>
      </trkpt>
      <trkpt lat="45.06535" lon="5.92961">
        <ele>1978.53</ele>
        <time>2017-07-02T10:40:28Z</time>
      </trkpt>
      <trkpt lat="45.06538" lon="5.92961">
        <ele>1978.05</ele>
        <time>2017-07-02T10:40:34Z</time>
      </trkpt>
      <trkpt lat="45.0654" lon="5.92964">
        <ele>1977.57</ele>
        <time>2017-07-02T10:40:37Z</time>
      </trkpt>
      <trkpt lat="45.06547" lon="5.92963">
        <ele>1974.69</ele>
        <time>2017-07-02T10:40:50Z</time>
      </trkpt>
      <trkpt lat="45.06554" lon="5.92959">
        <ele>1973.72</ele>
        <time>2017-07-02T10:41:03Z</time>
      </trkpt>
      <trkpt lat="45.06567" lon="5.92967">
        <ele>1972.28</ele>
        <time>2017-07-02T10:41:16Z</time>
      </trkpt>
      <trkpt lat="45.06568" lon="5.92969">
        <ele>1972.28</ele>
        <time>2017-07-02T10:41:18Z</time>
      </trkpt>
      <trkpt lat="45.06573" lon="5.92977">
        <ele>1971.8</ele>
        <time>2017-07-02T10:41:29Z</time>
      </trkpt>
      <trkpt lat="45.06577" lon="5.92981">
        <ele>1971.8</ele>
        <time>2017-07-02T10:41:36Z</time>
      </trkpt>
      <trkpt lat="45.06582" lon="5.92985">
        <ele>1971.32</ele>
        <time>2017-07-02T10:41:42Z</time>
      </trkpt>
      <trkpt lat="45.06588" lon="5.92991">
        <ele>1971.8</ele>
        <time>2017-07-02T10:41:54Z</time>
      </trkpt>
      <trkpt lat="45.06589" lon="5.92997">
        <ele>1971.32</ele>
        <time>2017-07-02T10:42:02Z</time>
      </trkpt>
      <trkpt lat="45.06592" lon="5.93008">
        <ele>1971.32</ele>
        <time>2017-07-02T10:42:15Z</time>
      </trkpt>
      <trkpt lat="45.06594" lon="5.93005">
        <ele>1972.28</ele>
        <time>2017-07-02T10:42:26Z</time>
      </trkpt>
      <trkpt lat="45.06596" lon="5.93">
        <ele>1972.28</ele>
        <time>2017-07-02T10:42:38Z</time>
      </trkpt>
      <trkpt lat="45.06597" lon="5.93004">
        <ele>1971.8</ele>
        <time>2017-07-02T10:42:57Z</time>
      </trkpt>
      <trkpt lat="45.06602" lon="5.92996">
        <ele>1972.76</ele>
        <time>2017-07-02T10:43:03Z</time>
      </trkpt>
      <trkpt lat="45.0661" lon="5.92985">
        <ele>1973.24</ele>
        <time>2017-07-02T10:43:16Z</time>
      </trkpt>
      <trkpt lat="45.0661" lon="5.92988">
        <ele>1972.76</ele>
        <time>2017-07-02T10:43:28Z</time>
      </trkpt>
      <trkpt lat="45.06611" lon="5.9299">
        <ele>1973.24</ele>
        <time>2017-07-02T10:43:43Z</time>
      </trkpt>
      <trkpt lat="45.0661" lon="5.92986">
        <ele>1972.28</ele>
        <time>2017-07-02T10:43:49Z</time>
      </trkpt>
      <trkpt lat="45.06605" lon="5.9299">
        <ele>1972.28</ele>
        <time>2017-07-02T10:44:10Z</time>
      </trkpt>
      <trkpt lat="45.06606" lon="5.9299">
        <ele>1971.8</ele>
        <time>2017-07-02T10:44:30Z</time>
      </trkpt>
      <trkpt lat="45.06604" lon="5.92991">
        <ele>1971.8</ele>
        <time>2017-07-02T10:45:00Z</time>
      </trkpt>
      <trkpt lat="45.06602" lon="5.92992">
        <ele>1972.76</ele>
        <time>2017-07-02T10:45:31Z</time>
      </trkpt>
      <trkpt lat="45.06606" lon="5.92991">
        <ele>1971.8</ele>
        <time>2017-07-02T10:46:06Z</time>
      </trkpt>
      <trkpt lat="45.06604" lon="5.92992">
        <ele>1971.8</ele>
        <time>2017-07-02T10:46:44Z</time>
      </trkpt>
      <trkpt lat="45.06604" lon="5.92991">
        <ele>1971.8</ele>
        <time>2017-07-02T10:47:06Z</time>
      </trkpt>
      <trkpt lat="45.06605" lon="5.92992">
        <ele>1971.8</ele>
        <time>2017-07-02T10:47:43Z</time>
      </trkpt>
      <trkpt lat="45.06604" lon="5.92992">
        <ele>1972.28</ele>
        <time>2017-07-02T10:48:17Z</time>
      </trkpt>
      <trkpt lat="45.06604" lon="5.9299">
        <ele>1972.28</ele>
        <time>2017-07-02T10:48:55Z</time>
      </trkpt>
      <trkpt lat="45.06602" lon="5.9299">
        <ele>1973.24</ele>
        <time>2017-07-02T10:49:30Z</time>
      </trkpt>
      <trkpt lat="45.06603" lon="5.92989">
        <ele>1972.76</ele>
        <time>2017-07-02T10:49:58Z</time>
      </trkpt>
      <trkpt lat="45.06603" lon="5.92992">
        <ele>1973.24</ele>
        <time>2017-07-02T10:50:33Z</time>
      </trkpt>
      <trkpt lat="45.06604" lon="5.9299">
        <ele>1972.76</ele>
        <time>2017-07-02T10:51:01Z</time>
      </trkpt>
      <trkpt lat="45.06605" lon="5.9299">
        <ele>1972.76</ele>
        <time>2017-07-02T10:51:28Z</time>
      </trkpt>
      <trkpt lat="45.06606" lon="5.92989">
        <ele>1973.72</ele>
        <time>2017-07-02T10:52:05Z</time>
      </trkpt>
      <trkpt lat="45.06603" lon="5.92992">
        <ele>1973.72</ele>
        <time>2017-07-02T10:52:39Z</time>
      </trkpt>
      <trkpt lat="45.06603" lon="5.9299">
        <ele>1973.24</ele>
        <time>2017-07-02T10:53:10Z</time>
      </trkpt>
      <trkpt lat="45.06603" lon="5.92987">
        <ele>1973.24</ele>
        <time>2017-07-02T10:53:45Z</time>
      </trkpt>
      <trkpt lat="45.06603" lon="5.92988">
        <ele>1972.76</ele>
        <time>2017-07-02T10:54:18Z</time>
      </trkpt>
      <trkpt lat="45.06601" lon="5.9299">
        <ele>1973.72</ele>
        <time>2017-07-02T10:54:41Z</time>
      </trkpt>
      <trkpt lat="45.06604" lon="5.9299">
        <ele>1972.28</ele>
        <time>2017-07-02T10:55:19Z</time>
      </trkpt>
      <trkpt lat="45.06604" lon="5.92993">
        <ele>1973.72</ele>
        <time>2017-07-02T10:55:50Z</time>
      </trkpt>
      <trkpt lat="45.06605" lon="5.9299">
        <ele>1973.72</ele>
        <time>2017-07-02T10:56:20Z</time>
      </trkpt>
      <trkpt lat="45.06605" lon="5.9299">
        <ele>1972.76</ele>
        <time>2017-07-02T10:56:52Z</time>
      </trkpt>
      <trkpt lat="45.06604" lon="5.92991">
        <ele>1973.72</ele>
        <time>2017-07-02T10:57:23Z</time>
      </trkpt>
      <trkpt lat="45.06604" lon="5.92992">
        <ele>1973.24</ele>
        <time>2017-07-02T10:57:55Z</time>
      </trkpt>
      <trkpt lat="45.06602" lon="5.92989">
        <ele>1973.24</ele>
        <time>2017-07-02T10:58:28Z</time>
      </trkpt>
      <trkpt lat="45.06602" lon="5.92989">
        <ele>1973.24</ele>
        <time>2017-07-02T10:59:03Z</time>
      </trkpt>
      <trkpt lat="45.06599" lon="5.92993">
        <ele>1972.76</ele>
        <time>2017-07-02T10:59:37Z</time>
      </trkpt>
      <trkpt lat="45.066" lon="5.92992">
        <ele>1973.24</ele>
        <time>2017-07-02T11:00:04Z</time>
      </trkpt>
      <trkpt lat="45.06601" lon="5.92991">
        <ele>1972.76</ele>
        <time>2017-07-02T11:00:29Z</time>
      </trkpt>
      <trkpt lat="45.06602" lon="5.92994">
        <ele>1973.24</ele>
        <time>2017-07-02T11:00:54Z</time>
      </trkpt>
      <trkpt lat="45.06603" lon="5.92993">
        <ele>1973.72</ele>
        <time>2017-07-02T11:01:26Z</time>
      </trkpt>
      <trkpt lat="45.06602" lon="5.92993">
        <ele>1974.2</ele>
        <time>2017-07-02T11:02:03Z</time>
      </trkpt>
      <trkpt lat="45.06604" lon="5.92993">
        <ele>1973.72</ele>
        <time>2017-07-02T11:02:33Z</time>
      </trkpt>
      <trkpt lat="45.06605" lon="5.92992">
        <ele>1973.72</ele>
        <time>2017-07-02T11:03:05Z</time>
      </trkpt>
      <trkpt lat="45.06603" lon="5.9299">
        <ele>1972.76</ele>
        <time>2017-07-02T11:03:38Z</time>
      </trkpt>
      <trkpt lat="45.06605" lon="5.92995">
        <ele>1973.72</ele>
        <time>2017-07-02T11:04:03Z</time>
      </trkpt>
      <trkpt lat="45.06603" lon="5.92993">
        <ele>1972.76</ele>
        <time>2017-07-02T11:04:37Z</time>
      </trkpt>
      <trkpt lat="45.06603" lon="5.92991">
        <ele>1973.24</ele>
        <time>2017-07-02T11:05:11Z</time>
      </trkpt>
      <trkpt lat="45.06603" lon="5.92992">
        <ele>1973.24</ele>
        <time>2017-07-02T11:05:39Z</time>
      </trkpt>
      <trkpt lat="45.06602" lon="5.92992">
        <ele>1972.76</ele>
        <time>2017-07-02T11:06:09Z</time>
      </trkpt>
      <trkpt lat="45.06602" lon="5.92991">
        <ele>1972.76</ele>
        <time>2017-07-02T11:06:43Z</time>
      </trkpt>
      <trkpt lat="45.06601" lon="5.92991">
        <ele>1972.76</ele>
        <time>2017-07-02T11:07:13Z</time>
      </trkpt>
      <trkpt lat="45.06603" lon="5.92991">
        <ele>1973.72</ele>
        <time>2017-07-02T11:07:44Z</time>
      </trkpt>
      <trkpt lat="45.06604" lon="5.92992">
        <ele>1973.72</ele>
        <time>2017-07-02T11:08:13Z</time>
      </trkpt>
      <trkpt lat="45.06603" lon="5.9299">
        <ele>1974.2</ele>
        <time>2017-07-02T11:08:48Z</time>
      </trkpt>
      <trkpt lat="45.06603" lon="5.92994">
        <ele>1973.24</ele>
        <time>2017-07-02T11:09:18Z</time>
      </trkpt>
      <trkpt lat="45.06603" lon="5.92992">
        <ele>1973.24</ele>
        <time>2017-07-02T11:09:52Z</time>
      </trkpt>
      <trkpt lat="45.06603" lon="5.92993">
        <ele>1973.24</ele>
        <time>2017-07-02T11:10:22Z</time>
      </trkpt>
      <trkpt lat="45.06601" lon="5.92993">
        <ele>1973.72</ele>
        <time>2017-07-02T11:10:47Z</time>
      </trkpt>
      <trkpt lat="45.06603" lon="5.92991">
        <ele>1973.24</ele>
        <time>2017-07-02T11:11:12Z</time>
      </trkpt>
      <trkpt lat="45.06603" lon="5.92992">
        <ele>1972.76</ele>
        <time>2017-07-02T11:11:49Z</time>
      </trkpt>
      <trkpt lat="45.06603" lon="5.9299">
        <ele>1972.76</ele>
        <time>2017-07-02T11:12:16Z</time>
      </trkpt>
      <trkpt lat="45.06604" lon="5.9299">
        <ele>1972.76</ele>
        <time>2017-07-02T11:12:44Z</time>
      </trkpt>
      <trkpt lat="45.06604" lon="5.92992">
        <ele>1972.76</ele>
        <time>2017-07-02T11:13:13Z</time>
      </trkpt>
      <trkpt lat="45.06602" lon="5.92992">
        <ele>1972.76</ele>
        <time>2017-07-02T11:13:44Z</time>
      </trkpt>
      <trkpt lat="45.06604" lon="5.92993">
        <ele>1972.76</ele>
        <time>2017-07-02T11:14:13Z</time>
      </trkpt>
      <trkpt lat="45.06602" lon="5.92992">
        <ele>1973.24</ele>
        <time>2017-07-02T11:14:46Z</time>
      </trkpt>
      <trkpt lat="45.06602" lon="5.92991">
        <ele>1972.28</ele>
        <time>2017-07-02T11:15:09Z</time>
      </trkpt>
      <trkpt lat="45.06603" lon="5.92995">
        <ele>1972.76</ele>
        <time>2017-07-02T11:15:45Z</time>
      </trkpt>
      <trkpt lat="45.06601" lon="5.92994">
        <ele>1972.28</ele>
        <time>2017-07-02T11:16:16Z</time>
      </trkpt>
      <trkpt lat="45.06603" lon="5.92994">
        <ele>1972.28</ele>
        <time>2017-07-02T11:16:37Z</time>
      </trkpt>
      <trkpt lat="45.06603" lon="5.92993">
        <ele>1972.28</ele>
        <time>2017-07-02T11:17:08Z</time>
      </trkpt>
      <trkpt lat="45.06602" lon="5.92995">
        <ele>1973.24</ele>
        <time>2017-07-02T11:17:38Z</time>
      </trkpt>
      <trkpt lat="45.06601" lon="5.92993">
        <ele>1972.28</ele>
        <time>2017-07-02T11:18:04Z</time>
      </trkpt>
      <trkpt lat="45.06601" lon="5.92991">
        <ele>1971.8</ele>
        <time>2017-07-02T11:18:26Z</time>
      </trkpt>
      <trkpt lat="45.06601" lon="5.92989">
        <ele>1972.76</ele>
        <time>2017-07-02T11:18:56Z</time>
      </trkpt>
      <trkpt lat="45.06602" lon="5.92993">
        <ele>1973.24</ele>
        <time>2017-07-02T11:19:25Z</time>
      </trkpt>
      <trkpt lat="45.06603" lon="5.92994">
        <ele>1972.28</ele>
        <time>2017-07-02T11:19:52Z</time>
      </trkpt>
      <trkpt lat="45.06602" lon="5.92994">
        <ele>1973.24</ele>
        <time>2017-07-02T11:20:32Z</time>
      </trkpt>
      <trkpt lat="45.06602" lon="5.9299">
        <ele>1973.24</ele>
        <time>2017-07-02T11:21:02Z</time>
      </trkpt>
      <trkpt lat="45.06606" lon="5.9299">
        <ele>1973.24</ele>
        <time>2017-07-02T11:21:29Z</time>
      </trkpt>
      <trkpt lat="45.06605" lon="5.92991">
        <ele>1972.76</ele>
        <time>2017-07-02T11:22:12Z</time>
      </trkpt>
      <trkpt lat="45.06603" lon="5.9299">
        <ele>1972.76</ele>
        <time>2017-07-02T11:22:48Z</time>
      </trkpt>
      <trkpt lat="45.06603" lon="5.92989">
        <ele>1972.28</ele>
        <time>2017-07-02T11:23:22Z</time>
      </trkpt>
      <trkpt lat="45.06603" lon="5.92989">
        <ele>1973.24</ele>
        <time>2017-07-02T11:23:37Z</time>
      </trkpt>
      <trkpt lat="45.06603" lon="5.9299">
        <ele>1973.72</ele>
        <time>2017-07-02T11:23:48Z</time>
      </trkpt>
      <trkpt lat="45.06603" lon="5.92996">
        <ele>1973.72</ele>
        <time>2017-07-02T11:24:03Z</time>
      </trkpt>
      <trkpt lat="45.06604" lon="5.92994">
        <ele>1973.24</ele>
        <time>2017-07-02T11:24:20Z</time>
      </trkpt>
      <trkpt lat="45.06603" lon="5.92991">
        <ele>1975.17</ele>
        <time>2017-07-02T11:24:40Z</time>
      </trkpt>
      <trkpt lat="45.06605" lon="5.92994">
        <ele>1974.69</ele>
        <time>2017-07-02T11:24:57Z</time>
      </trkpt>
      <trkpt lat="45.06602" lon="5.92993">
        <ele>1975.17</ele>
        <time>2017-07-02T11:25:11Z</time>
      </trkpt>
      <trkpt lat="45.06601" lon="5.92993">
        <ele>1973.72</ele>
        <time>2017-07-02T11:25:13Z</time>
      </trkpt>
      <trkpt lat="45.06603" lon="5.92995">
        <ele>1974.2</ele>
        <time>2017-07-02T11:25:34Z</time>
      </trkpt>
      <trkpt lat="45.06601" lon="5.9299">
        <ele>1974.69</ele>
        <time>2017-07-02T11:25:46Z</time>
      </trkpt>
      <trkpt lat="45.066" lon="5.92988">
        <ele>1973.72</ele>
        <time>2017-07-02T11:26:05Z</time>
      </trkpt>
      <trkpt lat="45.066" lon="5.9299">
        <ele>1973.72</ele>
        <time>2017-07-02T11:26:28Z</time>
      </trkpt>
      <trkpt lat="45.06603" lon="5.92987">
        <ele>1973.24</ele>
        <time>2017-07-02T11:26:54Z</time>
      </trkpt>
      <trkpt lat="45.066" lon="5.92994">
        <ele>1974.2</ele>
        <time>2017-07-02T11:27:22Z</time>
      </trkpt>
      <trkpt lat="45.06598" lon="5.92994">
        <ele>1974.2</ele>
        <time>2017-07-02T11:27:49Z</time>
      </trkpt>
      <trkpt lat="45.06597" lon="5.9299">
        <ele>1973.72</ele>
        <time>2017-07-02T11:28:05Z</time>
      </trkpt>
      <trkpt lat="45.066" lon="5.92988">
        <ele>1973.72</ele>
        <time>2017-07-02T11:28:18Z</time>
      </trkpt>
      <trkpt lat="45.06602" lon="5.9299">
        <ele>1973.72</ele>
        <time>2017-07-02T11:28:43Z</time>
      </trkpt>
      <trkpt lat="45.06599" lon="5.92988">
        <ele>1973.72</ele>
        <time>2017-07-02T11:29:10Z</time>
      </trkpt>
      <trkpt lat="45.06598" lon="5.92994">
        <ele>1974.69</ele>
        <time>2017-07-02T11:29:35Z</time>
      </trkpt>
      <trkpt lat="45.066" lon="5.92997">
        <ele>1974.2</ele>
        <time>2017-07-02T11:30:02Z</time>
      </trkpt>
      <trkpt lat="45.06606" lon="5.92993">
        <ele>1973.72</ele>
        <time>2017-07-02T11:30:24Z</time>
      </trkpt>
      <trkpt lat="45.06603" lon="5.92989">
        <ele>1974.69</ele>
        <time>2017-07-02T11:30:43Z</time>
      </trkpt>
      <trkpt lat="45.06601" lon="5.92985">
        <ele>1973.72</ele>
        <time>2017-07-02T11:31:11Z</time>
      </trkpt>
      <trkpt lat="45.06605" lon="5.92986">
        <ele>1973.24</ele>
        <time>2017-07-02T11:31:24Z</time>
      </trkpt>
      <trkpt lat="45.06601" lon="5.92989">
        <ele>1973.72</ele>
        <time>2017-07-02T11:31:39Z</time>
      </trkpt>
      <trkpt lat="45.06599" lon="5.92981">
        <ele>1972.76</ele>
        <time>2017-07-02T11:31:59Z</time>
      </trkpt>
      <trkpt lat="45.06602" lon="5.92976">
        <ele>1971.32</ele>
        <time>2017-07-02T11:32:16Z</time>
      </trkpt>
      <trkpt lat="45.06603" lon="5.92974">
        <ele>1971.32</ele>
        <time>2017-07-02T11:32:18Z</time>
      </trkpt>
      <trkpt lat="45.06603" lon="5.92971">
        <ele>1970.84</ele>
        <time>2017-07-02T11:32:30Z</time>
      </trkpt>
      <trkpt lat="45.06599" lon="5.92965">
        <ele>1970.36</ele>
        <time>2017-07-02T11:32:40Z</time>
      </trkpt>
      <trkpt lat="45.06595" lon="5.92958">
        <ele>1968.92</ele>
        <time>2017-07-02T11:32:53Z</time>
      </trkpt>
      <trkpt lat="45.06592" lon="5.92951">
        <ele>1967.48</ele>
        <time>2017-07-02T11:33:04Z</time>
      </trkpt>
      <trkpt lat="45.0659" lon="5.92948">
        <ele>1966.99</ele>
        <time>2017-07-02T11:33:19Z</time>
      </trkpt>
      <trkpt lat="45.06592" lon="5.9294">
        <ele>1965.55</ele>
        <time>2017-07-02T11:33:30Z</time>
      </trkpt>
      <trkpt lat="45.06589" lon="5.9293">
        <ele>1966.51</ele>
        <time>2017-07-02T11:33:42Z</time>
      </trkpt>
      <trkpt lat="45.0659" lon="5.92928">
        <ele>1966.51</ele>
        <time>2017-07-02T11:33:44Z</time>
      </trkpt>
      <trkpt lat="45.06595" lon="5.92913">
        <ele>1965.07</ele>
        <time>2017-07-02T11:33:58Z</time>
      </trkpt>
      <trkpt lat="45.06596" lon="5.929">
        <ele>1964.59</ele>
        <time>2017-07-02T11:34:12Z</time>
      </trkpt>
      <trkpt lat="45.06596" lon="5.92898">
        <ele>1964.11</ele>
        <time>2017-07-02T11:34:17Z</time>
      </trkpt>
      <trkpt lat="45.06594" lon="5.92892">
        <ele>1965.07</ele>
        <time>2017-07-02T11:34:29Z</time>
      </trkpt>
      <trkpt lat="45.06593" lon="5.92893">
        <ele>1964.11</ele>
        <time>2017-07-02T11:34:31Z</time>
      </trkpt>
      <trkpt lat="45.06589" lon="5.92885">
        <ele>1964.11</ele>
        <time>2017-07-02T11:34:44Z</time>
      </trkpt>
      <trkpt lat="45.06588" lon="5.92868">
        <ele>1963.63</ele>
        <time>2017-07-02T11:34:58Z</time>
      </trkpt>
      <trkpt lat="45.06588" lon="5.92861">
        <ele>1964.11</ele>
        <time>2017-07-02T11:35:05Z</time>
      </trkpt>
      <trkpt lat="45.06587" lon="5.92853">
        <ele>1963.15</ele>
        <time>2017-07-02T11:35:15Z</time>
      </trkpt>
      <trkpt lat="45.06586" lon="5.92847">
        <ele>1962.67</ele>
        <time>2017-07-02T11:35:27Z</time>
      </trkpt>
      <trkpt lat="45.06583" lon="5.92837">
        <ele>1961.23</ele>
        <time>2017-07-02T11:35:39Z</time>
      </trkpt>
      <trkpt lat="45.06583" lon="5.92825">
        <ele>1960.27</ele>
        <time>2017-07-02T11:35:49Z</time>
      </trkpt>
      <trkpt lat="45.06588" lon="5.92809">
        <ele>1959.3</ele>
        <time>2017-07-02T11:36:02Z</time>
      </trkpt>
      <trkpt lat="45.06587" lon="5.92799">
        <ele>1959.3</ele>
        <time>2017-07-02T11:36:15Z</time>
      </trkpt>
      <trkpt lat="45.06587" lon="5.92786">
        <ele>1958.82</ele>
        <time>2017-07-02T11:36:29Z</time>
      </trkpt>
      <trkpt lat="45.06583" lon="5.92776">
        <ele>1957.38</ele>
        <time>2017-07-02T11:36:41Z</time>
      </trkpt>
      <trkpt lat="45.06585" lon="5.92765">
        <ele>1956.42</ele>
        <time>2017-07-02T11:36:53Z</time>
      </trkpt>
      <trkpt lat="45.06586" lon="5.92764">
        <ele>1956.42</ele>
        <time>2017-07-02T11:36:55Z</time>
      </trkpt>
      <trkpt lat="45.06588" lon="5.92755">
        <ele>1955.94</ele>
        <time>2017-07-02T11:37:06Z</time>
      </trkpt>
      <trkpt lat="45.06586" lon="5.92749">
        <ele>1954.5</ele>
        <time>2017-07-02T11:37:15Z</time>
      </trkpt>
      <trkpt lat="45.06586" lon="5.92731">
        <ele>1954.98</ele>
        <time>2017-07-02T11:37:29Z</time>
      </trkpt>
      <trkpt lat="45.06585" lon="5.92725">
        <ele>1954.5</ele>
        <time>2017-07-02T11:37:40Z</time>
      </trkpt>
      <trkpt lat="45.06586" lon="5.92715">
        <ele>1954.5</ele>
        <time>2017-07-02T11:37:51Z</time>
      </trkpt>
      <trkpt lat="45.06588" lon="5.92707">
        <ele>1953.06</ele>
        <time>2017-07-02T11:38:05Z</time>
      </trkpt>
      <trkpt lat="45.06585" lon="5.927">
        <ele>1951.61</ele>
        <time>2017-07-02T11:38:18Z</time>
      </trkpt>
      <trkpt lat="45.06586" lon="5.92699">
        <ele>1950.65</ele>
        <time>2017-07-02T11:38:19Z</time>
      </trkpt>
      <trkpt lat="45.06589" lon="5.92691">
        <ele>1950.65</ele>
        <time>2017-07-02T11:38:30Z</time>
      </trkpt>
      <trkpt lat="45.06593" lon="5.92684">
        <ele>1949.21</ele>
        <time>2017-07-02T11:38:43Z</time>
      </trkpt>
      <trkpt lat="45.06595" lon="5.92675">
        <ele>1948.25</ele>
        <time>2017-07-02T11:38:57Z</time>
      </trkpt>
      <trkpt lat="45.06596" lon="5.92669">
        <ele>1947.29</ele>
        <time>2017-07-02T11:39:11Z</time>
      </trkpt>
      <trkpt lat="45.06597" lon="5.92666">
        <ele>1946.81</ele>
        <time>2017-07-02T11:39:18Z</time>
      </trkpt>
      <trkpt lat="45.06604" lon="5.92654">
        <ele>1945.85</ele>
        <time>2017-07-02T11:39:33Z</time>
      </trkpt>
      <trkpt lat="45.06606" lon="5.92651">
        <ele>1945.36</ele>
        <time>2017-07-02T11:39:39Z</time>
      </trkpt>
      <trkpt lat="45.06617" lon="5.92637">
        <ele>1945.36</ele>
        <time>2017-07-02T11:39:54Z</time>
      </trkpt>
      <trkpt lat="45.06621" lon="5.92626">
        <ele>1944.4</ele>
        <time>2017-07-02T11:40:07Z</time>
      </trkpt>
      <trkpt lat="45.06631" lon="5.92617">
        <ele>1943.92</ele>
        <time>2017-07-02T11:40:21Z</time>
      </trkpt>
      <trkpt lat="45.06631" lon="5.92616">
        <ele>1943.92</ele>
        <time>2017-07-02T11:40:22Z</time>
      </trkpt>
      <trkpt lat="45.0664" lon="5.92608">
        <ele>1945.36</ele>
        <time>2017-07-02T11:40:35Z</time>
      </trkpt>
      <trkpt lat="45.06643" lon="5.92604">
        <ele>1945.36</ele>
        <time>2017-07-02T11:40:46Z</time>
      </trkpt>
      <trkpt lat="45.06647" lon="5.92602">
        <ele>1944.88</ele>
        <time>2017-07-02T11:40:50Z</time>
      </trkpt>
      <trkpt lat="45.06657" lon="5.92585">
        <ele>1943.92</ele>
        <time>2017-07-02T11:41:05Z</time>
      </trkpt>
      <trkpt lat="45.06665" lon="5.92575">
        <ele>1944.4</ele>
        <time>2017-07-02T11:41:19Z</time>
      </trkpt>
      <trkpt lat="45.06667" lon="5.92571">
        <ele>1944.88</ele>
        <time>2017-07-02T11:41:23Z</time>
      </trkpt>
      <trkpt lat="45.06671" lon="5.92566">
        <ele>1944.4</ele>
        <time>2017-07-02T11:41:29Z</time>
      </trkpt>
      <trkpt lat="45.06676" lon="5.9256">
        <ele>1943.92</ele>
        <time>2017-07-02T11:41:42Z</time>
      </trkpt>
      <trkpt lat="45.06682" lon="5.92556">
        <ele>1943.92</ele>
        <time>2017-07-02T11:41:54Z</time>
      </trkpt>
      <trkpt lat="45.0669" lon="5.92542">
        <ele>1942.96</ele>
        <time>2017-07-02T11:42:09Z</time>
      </trkpt>
      <trkpt lat="45.06694" lon="5.92531">
        <ele>1942.48</ele>
        <time>2017-07-02T11:42:22Z</time>
      </trkpt>
      <trkpt lat="45.06698" lon="5.9252">
        <ele>1941.52</ele>
        <time>2017-07-02T11:42:35Z</time>
      </trkpt>
      <trkpt lat="45.067" lon="5.92506">
        <ele>1940.56</ele>
        <time>2017-07-02T11:42:50Z</time>
      </trkpt>
      <trkpt lat="45.06704" lon="5.92492">
        <ele>1939.12</ele>
        <time>2017-07-02T11:43:03Z</time>
      </trkpt>
      <trkpt lat="45.06708" lon="5.92481">
        <ele>1939.12</ele>
        <time>2017-07-02T11:43:18Z</time>
      </trkpt>
      <trkpt lat="45.06712" lon="5.92466">
        <ele>1936.23</ele>
        <time>2017-07-02T11:43:31Z</time>
      </trkpt>
      <trkpt lat="45.06716" lon="5.92456">
        <ele>1935.75</ele>
        <time>2017-07-02T11:43:45Z</time>
      </trkpt>
      <trkpt lat="45.06717" lon="5.92443">
        <ele>1933.83</ele>
        <time>2017-07-02T11:43:56Z</time>
      </trkpt>
      <trkpt lat="45.06717" lon="5.92438">
        <ele>1932.87</ele>
        <time>2017-07-02T11:44:04Z</time>
      </trkpt>
      <trkpt lat="45.0672" lon="5.92424">
        <ele>1929.5</ele>
        <time>2017-07-02T11:44:16Z</time>
      </trkpt>
      <trkpt lat="45.06724" lon="5.92412">
        <ele>1929.02</ele>
        <time>2017-07-02T11:44:29Z</time>
      </trkpt>
      <trkpt lat="45.06728" lon="5.92404">
        <ele>1927.1</ele>
        <time>2017-07-02T11:44:44Z</time>
      </trkpt>
      <trkpt lat="45.06728" lon="5.92394">
        <ele>1926.14</ele>
        <time>2017-07-02T11:44:57Z</time>
      </trkpt>
      <trkpt lat="45.06729" lon="5.92386">
        <ele>1925.18</ele>
        <time>2017-07-02T11:45:11Z</time>
      </trkpt>
      <trkpt lat="45.06737" lon="5.92377">
        <ele>1923.25</ele>
        <time>2017-07-02T11:45:26Z</time>
      </trkpt>
      <trkpt lat="45.06738" lon="5.92371">
        <ele>1922.77</ele>
        <time>2017-07-02T11:45:39Z</time>
      </trkpt>
      <trkpt lat="45.06742" lon="5.92362">
        <ele>1921.81</ele>
        <time>2017-07-02T11:45:51Z</time>
      </trkpt>
      <trkpt lat="45.06746" lon="5.92357">
        <ele>1919.89</ele>
        <time>2017-07-02T11:46:04Z</time>
      </trkpt>
      <trkpt lat="45.06749" lon="5.92353">
        <ele>1918.93</ele>
        <time>2017-07-02T11:46:16Z</time>
      </trkpt>
      <trkpt lat="45.06755" lon="5.92354">
        <ele>1918.93</ele>
        <time>2017-07-02T11:46:27Z</time>
      </trkpt>
      <trkpt lat="45.06758" lon="5.92351">
        <ele>1916.53</ele>
        <time>2017-07-02T11:46:38Z</time>
      </trkpt>
      <trkpt lat="45.06765" lon="5.92344">
        <ele>1915.08</ele>
        <time>2017-07-02T11:46:51Z</time>
      </trkpt>
      <trkpt lat="45.06774" lon="5.9233">
        <ele>1913.64</ele>
        <time>2017-07-02T11:47:07Z</time>
      </trkpt>
      <trkpt lat="45.06774" lon="5.92326">
        <ele>1913.64</ele>
        <time>2017-07-02T11:47:17Z</time>
      </trkpt>
      <trkpt lat="45.06774" lon="5.92324">
        <ele>1913.64</ele>
        <time>2017-07-02T11:47:21Z</time>
      </trkpt>
      <trkpt lat="45.06776" lon="5.92308">
        <ele>1913.16</ele>
        <time>2017-07-02T11:47:32Z</time>
      </trkpt>
      <trkpt lat="45.06776" lon="5.92295">
        <ele>1912.68</ele>
        <time>2017-07-02T11:47:47Z</time>
      </trkpt>
      <trkpt lat="45.06776" lon="5.92297">
        <ele>1912.68</ele>
        <time>2017-07-02T11:48:03Z</time>
      </trkpt>
      <trkpt lat="45.06773" lon="5.92299">
        <ele>1912.2</ele>
        <time>2017-07-02T11:48:33Z</time>
      </trkpt>
      <trkpt lat="45.06773" lon="5.92301">
        <ele>1912.68</ele>
        <time>2017-07-02T11:48:52Z</time>
      </trkpt>
      <trkpt lat="45.06776" lon="5.92297">
        <ele>1912.68</ele>
        <time>2017-07-02T11:49:21Z</time>
      </trkpt>
      <trkpt lat="45.06774" lon="5.92301">
        <ele>1912.2</ele>
        <time>2017-07-02T11:49:39Z</time>
      </trkpt>
      <trkpt lat="45.06774" lon="5.92292">
        <ele>1913.16</ele>
        <time>2017-07-02T11:49:54Z</time>
      </trkpt>
      <trkpt lat="45.06775" lon="5.92292">
        <ele>1912.68</ele>
        <time>2017-07-02T11:50:23Z</time>
      </trkpt>
      <trkpt lat="45.06775" lon="5.92299">
        <ele>1913.64</ele>
        <time>2017-07-02T11:50:48Z</time>
      </trkpt>
      <trkpt lat="45.06773" lon="5.92289">
        <ele>1913.64</ele>
        <time>2017-07-02T11:51:16Z</time>
      </trkpt>
      <trkpt lat="45.06778" lon="5.9228">
        <ele>1914.12</ele>
        <time>2017-07-02T11:51:35Z</time>
      </trkpt>
      <trkpt lat="45.06778" lon="5.92263">
        <ele>1913.64</ele>
        <time>2017-07-02T11:51:49Z</time>
      </trkpt>
      <trkpt lat="45.06776" lon="5.92257">
        <ele>1913.64</ele>
        <time>2017-07-02T11:52:12Z</time>
      </trkpt>
      <trkpt lat="45.06775" lon="5.92257">
        <ele>1913.64</ele>
        <time>2017-07-02T11:52:27Z</time>
      </trkpt>
      <trkpt lat="45.06775" lon="5.9226">
        <ele>1913.64</ele>
        <time>2017-07-02T11:52:49Z</time>
      </trkpt>
      <trkpt lat="45.06777" lon="5.92253">
        <ele>1913.16</ele>
        <time>2017-07-02T11:53:02Z</time>
      </trkpt>
      <trkpt lat="45.06774" lon="5.92246">
        <ele>1913.16</ele>
        <time>2017-07-02T11:53:15Z</time>
      </trkpt>
      <trkpt lat="45.06773" lon="5.92246">
        <ele>1913.16</ele>
        <time>2017-07-02T11:53:32Z</time>
      </trkpt>
      <trkpt lat="45.06773" lon="5.92246">
        <ele>1914.12</ele>
        <time>2017-07-02T11:53:46Z</time>
      </trkpt>
      <trkpt lat="45.06771" lon="5.92231">
        <ele>1914.6</ele>
        <time>2017-07-02T11:54:00Z</time>
      </trkpt>
      <trkpt lat="45.06766" lon="5.92223">
        <ele>1914.6</ele>
        <time>2017-07-02T11:54:11Z</time>
      </trkpt>
      <trkpt lat="45.06764" lon="5.92211">
        <ele>1912.68</ele>
        <time>2017-07-02T11:54:25Z</time>
      </trkpt>
      <trkpt lat="45.06763" lon="5.922">
        <ele>1911.24</ele>
        <time>2017-07-02T11:54:37Z</time>
      </trkpt>
      <trkpt lat="45.06758" lon="5.92194">
        <ele>1908.83</ele>
        <time>2017-07-02T11:54:50Z</time>
      </trkpt>
      <trkpt lat="45.06757" lon="5.92181">
        <ele>1907.39</ele>
        <time>2017-07-02T11:55:03Z</time>
      </trkpt>
      <trkpt lat="45.0675" lon="5.92179">
        <ele>1905.95</ele>
        <time>2017-07-02T11:55:14Z</time>
      </trkpt>
      <trkpt lat="45.06749" lon="5.92179">
        <ele>1905.47</ele>
        <time>2017-07-02T11:55:16Z</time>
      </trkpt>
      <trkpt lat="45.06752" lon="5.92164">
        <ele>1902.59</ele>
        <time>2017-07-02T11:55:29Z</time>
      </trkpt>
      <trkpt lat="45.06754" lon="5.92156">
        <ele>1900.66</ele>
        <time>2017-07-02T11:55:43Z</time>
      </trkpt>
      <trkpt lat="45.06752" lon="5.92147">
        <ele>1898.74</ele>
        <time>2017-07-02T11:55:57Z</time>
      </trkpt>
      <trkpt lat="45.06751" lon="5.92145">
        <ele>1897.3</ele>
        <time>2017-07-02T11:56:10Z</time>
      </trkpt>
      <trkpt lat="45.06749" lon="5.92143">
        <ele>1895.38</ele>
        <time>2017-07-02T11:56:21Z</time>
      </trkpt>
      <trkpt lat="45.06741" lon="5.92139">
        <ele>1892.97</ele>
        <time>2017-07-02T11:56:35Z</time>
      </trkpt>
      <trkpt lat="45.06746" lon="5.92128">
        <ele>1891.05</ele>
        <time>2017-07-02T11:56:48Z</time>
      </trkpt>
      <trkpt lat="45.06732" lon="5.92122">
        <ele>1888.65</ele>
        <time>2017-07-02T11:57:02Z</time>
      </trkpt>
      <trkpt lat="45.06729" lon="5.9212">
        <ele>1887.21</ele>
        <time>2017-07-02T11:57:05Z</time>
      </trkpt>
      <trkpt lat="45.06722" lon="5.92115">
        <ele>1885.76</ele>
        <time>2017-07-02T11:57:17Z</time>
      </trkpt>
      <trkpt lat="45.0672" lon="5.92113">
        <ele>1884.32</ele>
        <time>2017-07-02T11:57:20Z</time>
      </trkpt>
      <trkpt lat="45.06712" lon="5.92099">
        <ele>1881.92</ele>
        <time>2017-07-02T11:57:34Z</time>
      </trkpt>
      <trkpt lat="45.0671" lon="5.92098">
        <ele>1881.44</ele>
        <time>2017-07-02T11:57:35Z</time>
      </trkpt>
      <trkpt lat="45.06707" lon="5.92094">
        <ele>1880.96</ele>
        <time>2017-07-02T11:57:45Z</time>
      </trkpt>
      <trkpt lat="45.06708" lon="5.92088">
        <ele>1880.48</ele>
        <time>2017-07-02T11:57:48Z</time>
      </trkpt>
      <trkpt lat="45.06702" lon="5.92074">
        <ele>1878.55</ele>
        <time>2017-07-02T11:58:00Z</time>
      </trkpt>
      <trkpt lat="45.067" lon="5.92074">
        <ele>1877.59</ele>
        <time>2017-07-02T11:58:16Z</time>
      </trkpt>
      <trkpt lat="45.06704" lon="5.9207">
        <ele>1877.59</ele>
        <time>2017-07-02T11:58:26Z</time>
      </trkpt>
      <trkpt lat="45.06705" lon="5.92069">
        <ele>1877.59</ele>
        <time>2017-07-02T11:58:39Z</time>
      </trkpt>
      <trkpt lat="45.0671" lon="5.92068">
        <ele>1877.59</ele>
        <time>2017-07-02T11:59:08Z</time>
      </trkpt>
      <trkpt lat="45.06711" lon="5.92066">
        <ele>1877.59</ele>
        <time>2017-07-02T11:59:23Z</time>
      </trkpt>
      <trkpt lat="45.06708" lon="5.9207">
        <ele>1877.11</ele>
        <time>2017-07-02T11:59:44Z</time>
      </trkpt>
      <trkpt lat="45.06703" lon="5.92072">
        <ele>1877.11</ele>
        <time>2017-07-02T11:59:55Z</time>
      </trkpt>
      <trkpt lat="45.06701" lon="5.92075">
        <ele>1877.59</ele>
        <time>2017-07-02T12:00:08Z</time>
      </trkpt>
      <trkpt lat="45.06697" lon="5.92077">
        <ele>1877.11</ele>
        <time>2017-07-02T12:00:27Z</time>
      </trkpt>
      <trkpt lat="45.06697" lon="5.92071">
        <ele>1875.67</ele>
        <time>2017-07-02T12:00:41Z</time>
      </trkpt>
      <trkpt lat="45.06696" lon="5.92072">
        <ele>1875.19</ele>
        <time>2017-07-02T12:00:54Z</time>
      </trkpt>
      <trkpt lat="45.06695" lon="5.92073">
        <ele>1875.19</ele>
        <time>2017-07-02T12:01:14Z</time>
      </trkpt>
      <trkpt lat="45.06696" lon="5.9207">
        <ele>1875.67</ele>
        <time>2017-07-02T12:01:36Z</time>
      </trkpt>
      <trkpt lat="45.06695" lon="5.92071">
        <ele>1875.67</ele>
        <time>2017-07-02T12:01:54Z</time>
      </trkpt>
      <trkpt lat="45.06695" lon="5.92077">
        <ele>1874.71</ele>
        <time>2017-07-02T12:02:22Z</time>
      </trkpt>
      <trkpt lat="45.06696" lon="5.92077">
        <ele>1875.19</ele>
        <time>2017-07-02T12:02:40Z</time>
      </trkpt>
      <trkpt lat="45.06689" lon="5.92071">
        <ele>1873.27</ele>
        <time>2017-07-02T12:02:56Z</time>
      </trkpt>
      <trkpt lat="45.0668" lon="5.92065">
        <ele>1869.42</ele>
        <time>2017-07-02T12:03:10Z</time>
      </trkpt>
      <trkpt lat="45.06674" lon="5.92065">
        <ele>1869.9</ele>
        <time>2017-07-02T12:03:23Z</time>
      </trkpt>
      <trkpt lat="45.06675" lon="5.92067">
        <ele>1869.9</ele>
        <time>2017-07-02T12:03:39Z</time>
      </trkpt>
      <trkpt lat="45.06678" lon="5.92064">
        <ele>1869.42</ele>
        <time>2017-07-02T12:04:02Z</time>
      </trkpt>
      <trkpt lat="45.06679" lon="5.92067">
        <ele>1869.9</ele>
        <time>2017-07-02T12:04:22Z</time>
      </trkpt>
      <trkpt lat="45.0668" lon="5.92064">
        <ele>1869.9</ele>
        <time>2017-07-02T12:04:44Z</time>
      </trkpt>
      <trkpt lat="45.06678" lon="5.92064">
        <ele>1869.42</ele>
        <time>2017-07-02T12:05:08Z</time>
      </trkpt>
      <trkpt lat="45.06675" lon="5.92062">
        <ele>1870.38</ele>
        <time>2017-07-02T12:05:30Z</time>
      </trkpt>
      <trkpt lat="45.06678" lon="5.9206">
        <ele>1869.9</ele>
        <time>2017-07-02T12:05:50Z</time>
      </trkpt>
      <trkpt lat="45.06676" lon="5.92065">
        <ele>1870.38</ele>
        <time>2017-07-02T12:06:16Z</time>
      </trkpt>
      <trkpt lat="45.06677" lon="5.92062">
        <ele>1869.42</ele>
        <time>2017-07-02T12:06:49Z</time>
      </trkpt>
      <trkpt lat="45.06675" lon="5.92063">
        <ele>1870.38</ele>
        <time>2017-07-02T12:07:11Z</time>
      </trkpt>
      <trkpt lat="45.06675" lon="5.92064">
        <ele>1870.38</ele>
        <time>2017-07-02T12:07:26Z</time>
      </trkpt>
      <trkpt lat="45.0667" lon="5.92066">
        <ele>1871.82</ele>
        <time>2017-07-02T12:07:49Z</time>
      </trkpt>
      <trkpt lat="45.06663" lon="5.9207">
        <ele>1874.23</ele>
        <time>2017-07-02T12:08:03Z</time>
      </trkpt>
      <trkpt lat="45.0666" lon="5.92071">
        <ele>1874.71</ele>
        <time>2017-07-02T12:08:08Z</time>
      </trkpt>
      <trkpt lat="45.06655" lon="5.92074">
        <ele>1875.67</ele>
        <time>2017-07-02T12:08:14Z</time>
      </trkpt>
      <trkpt lat="45.06642" lon="5.92079">
        <ele>1876.63</ele>
        <time>2017-07-02T12:08:30Z</time>
      </trkpt>
      <trkpt lat="45.06636" lon="5.92081">
        <ele>1877.11</ele>
        <time>2017-07-02T12:08:36Z</time>
      </trkpt>
      <trkpt lat="45.06633" lon="5.92081">
        <ele>1876.63</ele>
        <time>2017-07-02T12:08:39Z</time>
      </trkpt>
      <trkpt lat="45.0663" lon="5.92082">
        <ele>1877.59</ele>
        <time>2017-07-02T12:08:44Z</time>
      </trkpt>
      <trkpt lat="45.06618" lon="5.92077">
        <ele>1877.11</ele>
        <time>2017-07-02T12:08:59Z</time>
      </trkpt>
      <trkpt lat="45.06609" lon="5.9208">
        <ele>1877.11</ele>
        <time>2017-07-02T12:09:09Z</time>
      </trkpt>
      <trkpt lat="45.06601" lon="5.92082">
        <ele>1876.63</ele>
        <time>2017-07-02T12:09:16Z</time>
      </trkpt>
      <trkpt lat="45.066" lon="5.92082">
        <ele>1876.63</ele>
        <time>2017-07-02T12:09:17Z</time>
      </trkpt>
      <trkpt lat="45.06591" lon="5.92082">
        <ele>1876.15</ele>
        <time>2017-07-02T12:09:24Z</time>
      </trkpt>
      <trkpt lat="45.06585" lon="5.92083">
        <ele>1875.67</ele>
        <time>2017-07-02T12:09:30Z</time>
      </trkpt>
      <trkpt lat="45.06581" lon="5.92085">
        <ele>1876.15</ele>
        <time>2017-07-02T12:09:35Z</time>
      </trkpt>
      <trkpt lat="45.06573" lon="5.92084">
        <ele>1874.71</ele>
        <time>2017-07-02T12:09:48Z</time>
      </trkpt>
      <trkpt lat="45.06563" lon="5.92071">
        <ele>1873.27</ele>
        <time>2017-07-02T12:10:02Z</time>
      </trkpt>
      <trkpt lat="45.06558" lon="5.9206">
        <ele>1873.27</ele>
        <time>2017-07-02T12:10:13Z</time>
      </trkpt>
      <trkpt lat="45.06553" lon="5.92047">
        <ele>1872.3</ele>
        <time>2017-07-02T12:10:25Z</time>
      </trkpt>
      <trkpt lat="45.06556" lon="5.92048">
        <ele>1872.3</ele>
        <time>2017-07-02T12:10:37Z</time>
      </trkpt>
      <trkpt lat="45.06558" lon="5.92049">
        <ele>1871.82</ele>
        <time>2017-07-02T12:10:40Z</time>
      </trkpt>
      <trkpt lat="45.06558" lon="5.92053">
        <ele>1872.79</ele>
        <time>2017-07-02T12:10:54Z</time>
      </trkpt>
      <trkpt lat="45.06554" lon="5.92042">
        <ele>1871.34</ele>
        <time>2017-07-02T12:11:04Z</time>
      </trkpt>
      <trkpt lat="45.06553" lon="5.9204">
        <ele>1871.82</ele>
        <time>2017-07-02T12:11:05Z</time>
      </trkpt>
      <trkpt lat="45.06552" lon="5.92038">
        <ele>1871.82</ele>
        <time>2017-07-02T12:11:07Z</time>
      </trkpt>
      <trkpt lat="45.06543" lon="5.92035">
        <ele>1871.34</ele>
        <time>2017-07-02T12:11:16Z</time>
      </trkpt>
      <trkpt lat="45.06534" lon="5.92039">
        <ele>1872.79</ele>
        <time>2017-07-02T12:11:25Z</time>
      </trkpt>
      <trkpt lat="45.06527" lon="5.92044">
        <ele>1872.3</ele>
        <time>2017-07-02T12:11:33Z</time>
      </trkpt>
      <trkpt lat="45.06514" lon="5.92036">
        <ele>1872.79</ele>
        <time>2017-07-02T12:11:47Z</time>
      </trkpt>
      <trkpt lat="45.06513" lon="5.92036">
        <ele>1872.3</ele>
        <time>2017-07-02T12:11:48Z</time>
      </trkpt>
      <trkpt lat="45.06499" lon="5.92029">
        <ele>1871.82</ele>
        <time>2017-07-02T12:12:02Z</time>
      </trkpt>
      <trkpt lat="45.0649" lon="5.92013">
        <ele>1872.79</ele>
        <time>2017-07-02T12:12:14Z</time>
      </trkpt>
      <trkpt lat="45.06486" lon="5.92009">
        <ele>1873.27</ele>
        <time>2017-07-02T12:12:20Z</time>
      </trkpt>
      <trkpt lat="45.06476" lon="5.92002">
        <ele>1873.75</ele>
        <time>2017-07-02T12:12:33Z</time>
      </trkpt>
      <trkpt lat="45.06473" lon="5.92002">
        <ele>1874.23</ele>
        <time>2017-07-02T12:12:37Z</time>
      </trkpt>
      <trkpt lat="45.06459" lon="5.91988">
        <ele>1876.15</ele>
        <time>2017-07-02T12:12:53Z</time>
      </trkpt>
      <trkpt lat="45.06449" lon="5.91979">
        <ele>1879.03</ele>
        <time>2017-07-02T12:13:05Z</time>
      </trkpt>
      <trkpt lat="45.06436" lon="5.9197">
        <ele>1880.96</ele>
        <time>2017-07-02T12:13:22Z</time>
      </trkpt>
      <trkpt lat="45.06426" lon="5.91967">
        <ele>1880.96</ele>
        <time>2017-07-02T12:13:34Z</time>
      </trkpt>
      <trkpt lat="45.06416" lon="5.91959">
        <ele>1880.96</ele>
        <time>2017-07-02T12:13:46Z</time>
      </trkpt>
      <trkpt lat="45.06406" lon="5.91952">
        <ele>1880.96</ele>
        <time>2017-07-02T12:13:59Z</time>
      </trkpt>
      <trkpt lat="45.06395" lon="5.9194">
        <ele>1880</ele>
        <time>2017-07-02T12:14:12Z</time>
      </trkpt>
      <trkpt lat="45.06381" lon="5.91924">
        <ele>1878.55</ele>
        <time>2017-07-02T12:14:30Z</time>
      </trkpt>
      <trkpt lat="45.06376" lon="5.91921">
        <ele>1878.55</ele>
        <time>2017-07-02T12:14:36Z</time>
      </trkpt>
      <trkpt lat="45.06369" lon="5.91919">
        <ele>1877.59</ele>
        <time>2017-07-02T12:14:43Z</time>
      </trkpt>
      <trkpt lat="45.06356" lon="5.91912">
        <ele>1875.67</ele>
        <time>2017-07-02T12:14:58Z</time>
      </trkpt>
      <trkpt lat="45.06344" lon="5.91897">
        <ele>1873.75</ele>
        <time>2017-07-02T12:15:14Z</time>
      </trkpt>
      <trkpt lat="45.06337" lon="5.91877">
        <ele>1872.79</ele>
        <time>2017-07-02T12:15:30Z</time>
      </trkpt>
      <trkpt lat="45.06329" lon="5.91865">
        <ele>1871.82</ele>
        <time>2017-07-02T12:15:44Z</time>
      </trkpt>
      <trkpt lat="45.06319" lon="5.91855">
        <ele>1870.38</ele>
        <time>2017-07-02T12:15:56Z</time>
      </trkpt>
      <trkpt lat="45.06316" lon="5.91851">
        <ele>1870.86</ele>
        <time>2017-07-02T12:16:01Z</time>
      </trkpt>
      <trkpt lat="45.06313" lon="5.91849">
        <ele>1869.9</ele>
        <time>2017-07-02T12:16:04Z</time>
      </trkpt>
      <trkpt lat="45.063" lon="5.91833">
        <ele>1869.42</ele>
        <time>2017-07-02T12:16:21Z</time>
      </trkpt>
      <trkpt lat="45.06292" lon="5.91822">
        <ele>1867.98</ele>
        <time>2017-07-02T12:16:35Z</time>
      </trkpt>
      <trkpt lat="45.06289" lon="5.91818">
        <ele>1867.5</ele>
        <time>2017-07-02T12:16:40Z</time>
      </trkpt>
      <trkpt lat="45.06278" lon="5.91805">
        <ele>1866.54</ele>
        <time>2017-07-02T12:16:55Z</time>
      </trkpt>
      <trkpt lat="45.06272" lon="5.91803">
        <ele>1866.06</ele>
        <time>2017-07-02T12:17:02Z</time>
      </trkpt>
      <trkpt lat="45.06267" lon="5.91799">
        <ele>1865.58</ele>
        <time>2017-07-02T12:17:09Z</time>
      </trkpt>
      <trkpt lat="45.0626" lon="5.91787">
        <ele>1864.13</ele>
        <time>2017-07-02T12:17:21Z</time>
      </trkpt>
      <trkpt lat="45.06249" lon="5.91777">
        <ele>1862.21</ele>
        <time>2017-07-02T12:17:36Z</time>
      </trkpt>
      <trkpt lat="45.06236" lon="5.91767">
        <ele>1860.77</ele>
        <time>2017-07-02T12:17:53Z</time>
      </trkpt>
      <trkpt lat="45.0623" lon="5.91753">
        <ele>1859.33</ele>
        <time>2017-07-02T12:18:07Z</time>
      </trkpt>
      <trkpt lat="45.06227" lon="5.91744">
        <ele>1858.37</ele>
        <time>2017-07-02T12:18:19Z</time>
      </trkpt>
      <trkpt lat="45.06222" lon="5.91731">
        <ele>1856.44</ele>
        <time>2017-07-02T12:18:29Z</time>
      </trkpt>
      <trkpt lat="45.06218" lon="5.91717">
        <ele>1855.48</ele>
        <time>2017-07-02T12:18:41Z</time>
      </trkpt>
      <trkpt lat="45.06215" lon="5.91701">
        <ele>1852.6</ele>
        <time>2017-07-02T12:18:55Z</time>
      </trkpt>
      <trkpt lat="45.06214" lon="5.9169">
        <ele>1852.12</ele>
        <time>2017-07-02T12:19:02Z</time>
      </trkpt>
      <trkpt lat="45.06214" lon="5.9167">
        <ele>1850.68</ele>
        <time>2017-07-02T12:19:16Z</time>
      </trkpt>
      <trkpt lat="45.06218" lon="5.91654">
        <ele>1849.23</ele>
        <time>2017-07-02T12:19:28Z</time>
      </trkpt>
      <trkpt lat="45.06217" lon="5.91635">
        <ele>1847.79</ele>
        <time>2017-07-02T12:19:43Z</time>
      </trkpt>
      <trkpt lat="45.06217" lon="5.9162">
        <ele>1846.35</ele>
        <time>2017-07-02T12:19:54Z</time>
      </trkpt>
      <trkpt lat="45.06214" lon="5.91601">
        <ele>1844.91</ele>
        <time>2017-07-02T12:20:08Z</time>
      </trkpt>
      <trkpt lat="45.06216" lon="5.91583">
        <ele>1844.91</ele>
        <time>2017-07-02T12:20:20Z</time>
      </trkpt>
      <trkpt lat="45.06217" lon="5.91562">
        <ele>1842.5</ele>
        <time>2017-07-02T12:20:34Z</time>
      </trkpt>
      <trkpt lat="45.06216" lon="5.91556">
        <ele>1842.5</ele>
        <time>2017-07-02T12:20:39Z</time>
      </trkpt>
      <trkpt lat="45.06213" lon="5.91537">
        <ele>1842.02</ele>
        <time>2017-07-02T12:20:52Z</time>
      </trkpt>
      <trkpt lat="45.06213" lon="5.91524">
        <ele>1841.06</ele>
        <time>2017-07-02T12:21:01Z</time>
      </trkpt>
      <trkpt lat="45.06206" lon="5.9151">
        <ele>1840.58</ele>
        <time>2017-07-02T12:21:13Z</time>
      </trkpt>
      <trkpt lat="45.06208" lon="5.9149">
        <ele>1839.62</ele>
        <time>2017-07-02T12:21:29Z</time>
      </trkpt>
      <trkpt lat="45.06204" lon="5.91467">
        <ele>1838.66</ele>
        <time>2017-07-02T12:21:46Z</time>
      </trkpt>
      <trkpt lat="45.06193" lon="5.91451">
        <ele>1836.26</ele>
        <time>2017-07-02T12:22:00Z</time>
      </trkpt>
      <trkpt lat="45.06184" lon="5.9144">
        <ele>1833.85</ele>
        <time>2017-07-02T12:22:15Z</time>
      </trkpt>
      <trkpt lat="45.06174" lon="5.91437">
        <ele>1831.45</ele>
        <time>2017-07-02T12:22:30Z</time>
      </trkpt>
      <trkpt lat="45.0617" lon="5.91441">
        <ele>1829.53</ele>
        <time>2017-07-02T12:22:43Z</time>
      </trkpt>
      <trkpt lat="45.06168" lon="5.91443">
        <ele>1830.49</ele>
        <time>2017-07-02T12:23:05Z</time>
      </trkpt>
      <trkpt lat="45.06166" lon="5.91443">
        <ele>1830.01</ele>
        <time>2017-07-02T12:23:25Z</time>
      </trkpt>
      <trkpt lat="45.06168" lon="5.91444">
        <ele>1829.05</ele>
        <time>2017-07-02T12:23:50Z</time>
      </trkpt>
      <trkpt lat="45.06169" lon="5.91445">
        <ele>1829.05</ele>
        <time>2017-07-02T12:24:19Z</time>
      </trkpt>
      <trkpt lat="45.06164" lon="5.91443">
        <ele>1829.05</ele>
        <time>2017-07-02T12:24:49Z</time>
      </trkpt>
      <trkpt lat="45.06171" lon="5.91445">
        <ele>1829.05</ele>
        <time>2017-07-02T12:25:21Z</time>
      </trkpt>
      <trkpt lat="45.0617" lon="5.91448">
        <ele>1829.53</ele>
        <time>2017-07-02T12:25:51Z</time>
      </trkpt>
      <trkpt lat="45.06174" lon="5.91438">
        <ele>1829.53</ele>
        <time>2017-07-02T12:26:22Z</time>
      </trkpt>
      <trkpt lat="45.06174" lon="5.9144">
        <ele>1829.53</ele>
        <time>2017-07-02T12:26:52Z</time>
      </trkpt>
      <trkpt lat="45.06173" lon="5.91442">
        <ele>1829.53</ele>
        <time>2017-07-02T12:27:18Z</time>
      </trkpt>
      <trkpt lat="45.06167" lon="5.91465">
        <ele>1828.08</ele>
        <time>2017-07-02T12:27:35Z</time>
      </trkpt>
      <trkpt lat="45.06166" lon="5.91473">
        <ele>1827.6</ele>
        <time>2017-07-02T12:27:41Z</time>
      </trkpt>
      <trkpt lat="45.06164" lon="5.91477">
        <ele>1826.64</ele>
        <time>2017-07-02T12:27:43Z</time>
      </trkpt>
      <trkpt lat="45.06155" lon="5.91501">
        <ele>1827.6</ele>
        <time>2017-07-02T12:27:58Z</time>
      </trkpt>
      <trkpt lat="45.06148" lon="5.91515">
        <ele>1825.2</ele>
        <time>2017-07-02T12:28:13Z</time>
      </trkpt>
      <trkpt lat="45.06138" lon="5.91533">
        <ele>1824.24</ele>
        <time>2017-07-02T12:28:30Z</time>
      </trkpt>
      <trkpt lat="45.06131" lon="5.91555">
        <ele>1822.32</ele>
        <time>2017-07-02T12:28:47Z</time>
      </trkpt>
      <trkpt lat="45.06122" lon="5.91572">
        <ele>1821.35</ele>
        <time>2017-07-02T12:29:02Z</time>
      </trkpt>
      <trkpt lat="45.06121" lon="5.91597">
        <ele>1821.35</ele>
        <time>2017-07-02T12:29:18Z</time>
      </trkpt>
      <trkpt lat="45.06117" lon="5.91614">
        <ele>1822.8</ele>
        <time>2017-07-02T12:29:29Z</time>
      </trkpt>
      <trkpt lat="45.06112" lon="5.91632">
        <ele>1824.24</ele>
        <time>2017-07-02T12:29:44Z</time>
      </trkpt>
      <trkpt lat="45.06111" lon="5.91633">
        <ele>1824.24</ele>
        <time>2017-07-02T12:29:45Z</time>
      </trkpt>
      <trkpt lat="45.06107" lon="5.9166">
        <ele>1824.72</ele>
        <time>2017-07-02T12:30:01Z</time>
      </trkpt>
      <trkpt lat="45.06104" lon="5.91685">
        <ele>1824.72</ele>
        <time>2017-07-02T12:30:17Z</time>
      </trkpt>
      <trkpt lat="45.06101" lon="5.917">
        <ele>1825.2</ele>
        <time>2017-07-02T12:30:29Z</time>
      </trkpt>
      <trkpt lat="45.06099" lon="5.91705">
        <ele>1825.68</ele>
        <time>2017-07-02T12:30:33Z</time>
      </trkpt>
      <trkpt lat="45.06099" lon="5.91712">
        <ele>1825.68</ele>
        <time>2017-07-02T12:30:37Z</time>
      </trkpt>
      <trkpt lat="45.06093" lon="5.91731">
        <ele>1825.2</ele>
        <time>2017-07-02T12:30:49Z</time>
      </trkpt>
      <trkpt lat="45.06096" lon="5.91752">
        <ele>1823.76</ele>
        <time>2017-07-02T12:31:04Z</time>
      </trkpt>
      <trkpt lat="45.06086" lon="5.9176">
        <ele>1824.72</ele>
        <time>2017-07-02T12:31:18Z</time>
      </trkpt>
      <trkpt lat="45.06076" lon="5.91764">
        <ele>1824.24</ele>
        <time>2017-07-02T12:31:30Z</time>
      </trkpt>
      <trkpt lat="45.06067" lon="5.91774">
        <ele>1821.84</ele>
        <time>2017-07-02T12:31:44Z</time>
      </trkpt>
      <trkpt lat="45.0606" lon="5.91781">
        <ele>1819.43</ele>
        <time>2017-07-02T12:31:52Z</time>
      </trkpt>
      <trkpt lat="45.06049" lon="5.918">
        <ele>1817.99</ele>
        <time>2017-07-02T12:32:08Z</time>
      </trkpt>
      <trkpt lat="45.06045" lon="5.91822">
        <ele>1817.51</ele>
        <time>2017-07-02T12:32:23Z</time>
      </trkpt>
      <trkpt lat="45.06043" lon="5.91829">
        <ele>1816.55</ele>
        <time>2017-07-02T12:32:28Z</time>
      </trkpt>
      <trkpt lat="45.06038" lon="5.91847">
        <ele>1815.11</ele>
        <time>2017-07-02T12:32:42Z</time>
      </trkpt>
      <trkpt lat="45.06038" lon="5.9185">
        <ele>1814.63</ele>
        <time>2017-07-02T12:32:44Z</time>
      </trkpt>
      <trkpt lat="45.06036" lon="5.91855">
        <ele>1814.15</ele>
        <time>2017-07-02T12:32:47Z</time>
      </trkpt>
      <trkpt lat="45.06029" lon="5.91871">
        <ele>1813.18</ele>
        <time>2017-07-02T12:32:59Z</time>
      </trkpt>
      <trkpt lat="45.06024" lon="5.9188">
        <ele>1811.74</ele>
        <time>2017-07-02T12:33:08Z</time>
      </trkpt>
      <trkpt lat="45.06019" lon="5.91887">
        <ele>1810.78</ele>
        <time>2017-07-02T12:33:15Z</time>
      </trkpt>
      <trkpt lat="45.06009" lon="5.9189">
        <ele>1808.38</ele>
        <time>2017-07-02T12:33:28Z</time>
      </trkpt>
      <trkpt lat="45.06005" lon="5.91891">
        <ele>1805.97</ele>
        <time>2017-07-02T12:33:31Z</time>
      </trkpt>
      <trkpt lat="45.05993" lon="5.91886">
        <ele>1802.61</ele>
        <time>2017-07-02T12:33:42Z</time>
      </trkpt>
      <trkpt lat="45.05982" lon="5.91874">
        <ele>1801.17</ele>
        <time>2017-07-02T12:33:54Z</time>
      </trkpt>
      <trkpt lat="45.05979" lon="5.91867">
        <ele>1799.73</ele>
        <time>2017-07-02T12:33:59Z</time>
      </trkpt>
      <trkpt lat="45.0598" lon="5.9185">
        <ele>1798.28</ele>
        <time>2017-07-02T12:34:12Z</time>
      </trkpt>
      <trkpt lat="45.05984" lon="5.91839">
        <ele>1795.88</ele>
        <time>2017-07-02T12:34:22Z</time>
      </trkpt>
      <trkpt lat="45.05985" lon="5.91833">
        <ele>1795.4</ele>
        <time>2017-07-02T12:34:25Z</time>
      </trkpt>
      <trkpt lat="45.05984" lon="5.91815">
        <ele>1792.52</ele>
        <time>2017-07-02T12:34:38Z</time>
      </trkpt>
      <trkpt lat="45.05984" lon="5.91807">
        <ele>1791.07</ele>
        <time>2017-07-02T12:34:44Z</time>
      </trkpt>
      <trkpt lat="45.05985" lon="5.9179">
        <ele>1789.15</ele>
        <time>2017-07-02T12:34:58Z</time>
      </trkpt>
      <trkpt lat="45.05984" lon="5.91775">
        <ele>1786.75</ele>
        <time>2017-07-02T12:35:12Z</time>
      </trkpt>
      <trkpt lat="45.0599" lon="5.91763">
        <ele>1784.34</ele>
        <time>2017-07-02T12:35:26Z</time>
      </trkpt>
      <trkpt lat="45.05986" lon="5.91751">
        <ele>1780.98</ele>
        <time>2017-07-02T12:35:37Z</time>
      </trkpt>
      <trkpt lat="45.05984" lon="5.91732">
        <ele>1777.61</ele>
        <time>2017-07-02T12:35:51Z</time>
      </trkpt>
      <trkpt lat="45.05984" lon="5.91717">
        <ele>1775.69</ele>
        <time>2017-07-02T12:36:04Z</time>
      </trkpt>
      <trkpt lat="45.05982" lon="5.91699">
        <ele>1773.29</ele>
        <time>2017-07-02T12:36:17Z</time>
      </trkpt>
      <trkpt lat="45.05981" lon="5.91684">
        <ele>1770.41</ele>
        <time>2017-07-02T12:36:29Z</time>
      </trkpt>
      <trkpt lat="45.05979" lon="5.91666">
        <ele>1767.52</ele>
        <time>2017-07-02T12:36:42Z</time>
      </trkpt>
      <trkpt lat="45.05973" lon="5.91649">
        <ele>1765.12</ele>
        <time>2017-07-02T12:36:55Z</time>
      </trkpt>
      <trkpt lat="45.05974" lon="5.91631">
        <ele>1763.68</ele>
        <time>2017-07-02T12:37:06Z</time>
      </trkpt>
      <trkpt lat="45.05973" lon="5.91622">
        <ele>1763.2</ele>
        <time>2017-07-02T12:37:12Z</time>
      </trkpt>
      <trkpt lat="45.05969" lon="5.91599">
        <ele>1762.23</ele>
        <time>2017-07-02T12:37:26Z</time>
      </trkpt>
      <trkpt lat="45.05967" lon="5.91582">
        <ele>1760.79</ele>
        <time>2017-07-02T12:37:39Z</time>
      </trkpt>
      <trkpt lat="45.05966" lon="5.91567">
        <ele>1759.83</ele>
        <time>2017-07-02T12:37:51Z</time>
      </trkpt>
      <trkpt lat="45.05966" lon="5.9156">
        <ele>1759.83</ele>
        <time>2017-07-02T12:37:54Z</time>
      </trkpt>
      <trkpt lat="45.05965" lon="5.91534">
        <ele>1756.95</ele>
        <time>2017-07-02T12:38:07Z</time>
      </trkpt>
      <trkpt lat="45.05962" lon="5.91513">
        <ele>1755.99</ele>
        <time>2017-07-02T12:38:22Z</time>
      </trkpt>
      <trkpt lat="45.05958" lon="5.91491">
        <ele>1754.06</ele>
        <time>2017-07-02T12:38:39Z</time>
      </trkpt>
      <trkpt lat="45.05957" lon="5.91469">
        <ele>1753.1</ele>
        <time>2017-07-02T12:38:51Z</time>
      </trkpt>
      <trkpt lat="45.05955" lon="5.9144">
        <ele>1753.58</ele>
        <time>2017-07-02T12:39:05Z</time>
      </trkpt>
      <trkpt lat="45.05954" lon="5.91428">
        <ele>1753.1</ele>
        <time>2017-07-02T12:39:14Z</time>
      </trkpt>
      <trkpt lat="45.05954" lon="5.91418">
        <ele>1752.62</ele>
        <time>2017-07-02T12:39:25Z</time>
      </trkpt>
      <trkpt lat="45.05955" lon="5.91415">
        <ele>1752.62</ele>
        <time>2017-07-02T12:39:27Z</time>
      </trkpt>
      <trkpt lat="45.05954" lon="5.91392">
        <ele>1750.7</ele>
        <time>2017-07-02T12:39:41Z</time>
      </trkpt>
      <trkpt lat="45.05951" lon="5.9137">
        <ele>1748.78</ele>
        <time>2017-07-02T12:39:55Z</time>
      </trkpt>
      <trkpt lat="45.05947" lon="5.91355">
        <ele>1747.81</ele>
        <time>2017-07-02T12:40:06Z</time>
      </trkpt>
      <trkpt lat="45.0595" lon="5.91347">
        <ele>1747.33</ele>
        <time>2017-07-02T12:40:10Z</time>
      </trkpt>
      <trkpt lat="45.05953" lon="5.91319">
        <ele>1745.41</ele>
        <time>2017-07-02T12:40:26Z</time>
      </trkpt>
      <trkpt lat="45.05957" lon="5.91304">
        <ele>1744.45</ele>
        <time>2017-07-02T12:40:32Z</time>
      </trkpt>
      <trkpt lat="45.05957" lon="5.91281">
        <ele>1743.01</ele>
        <time>2017-07-02T12:40:48Z</time>
      </trkpt>
      <trkpt lat="45.05957" lon="5.91272">
        <ele>1742.05</ele>
        <time>2017-07-02T12:40:54Z</time>
      </trkpt>
      <trkpt lat="45.05958" lon="5.91265">
        <ele>1741.08</ele>
        <time>2017-07-02T12:40:59Z</time>
      </trkpt>
      <trkpt lat="45.0596" lon="5.91241">
        <ele>1739.64</ele>
        <time>2017-07-02T12:41:12Z</time>
      </trkpt>
      <trkpt lat="45.05957" lon="5.91221">
        <ele>1739.16</ele>
        <time>2017-07-02T12:41:25Z</time>
      </trkpt>
      <trkpt lat="45.05951" lon="5.91202">
        <ele>1738.68</ele>
        <time>2017-07-02T12:41:37Z</time>
      </trkpt>
      <trkpt lat="45.05951" lon="5.91198">
        <ele>1739.16</ele>
        <time>2017-07-02T12:41:39Z</time>
      </trkpt>
      <trkpt lat="45.0595" lon="5.91193">
        <ele>1738.68</ele>
        <time>2017-07-02T12:41:42Z</time>
      </trkpt>
      <trkpt lat="45.05947" lon="5.91191">
        <ele>1738.68</ele>
        <time>2017-07-02T12:41:44Z</time>
      </trkpt>
      <trkpt lat="45.05938" lon="5.91175">
        <ele>1736.76</ele>
        <time>2017-07-02T12:41:58Z</time>
      </trkpt>
      <trkpt lat="45.05932" lon="5.9116">
        <ele>1735.8</ele>
        <time>2017-07-02T12:42:10Z</time>
      </trkpt>
      <trkpt lat="45.05926" lon="5.91153">
        <ele>1735.8</ele>
        <time>2017-07-02T12:42:16Z</time>
      </trkpt>
      <trkpt lat="45.0591" lon="5.9112">
        <ele>1733.39</ele>
        <time>2017-07-02T12:42:34Z</time>
      </trkpt>
      <trkpt lat="45.05907" lon="5.91112">
        <ele>1731.95</ele>
        <time>2017-07-02T12:42:46Z</time>
      </trkpt>
      <trkpt lat="45.0591" lon="5.91116">
        <ele>1732.91</ele>
        <time>2017-07-02T12:43:02Z</time>
      </trkpt>
      <trkpt lat="45.05909" lon="5.91112">
        <ele>1732.91</ele>
        <time>2017-07-02T12:43:22Z</time>
      </trkpt>
      <trkpt lat="45.05906" lon="5.91113">
        <ele>1732.43</ele>
        <time>2017-07-02T12:43:41Z</time>
      </trkpt>
      <trkpt lat="45.05907" lon="5.91111">
        <ele>1732.91</ele>
        <time>2017-07-02T12:44:06Z</time>
      </trkpt>
      <trkpt lat="45.05908" lon="5.91113">
        <ele>1732.91</ele>
        <time>2017-07-02T12:44:33Z</time>
      </trkpt>
      <trkpt lat="45.05909" lon="5.91109">
        <ele>1732.43</ele>
        <time>2017-07-02T12:44:58Z</time>
      </trkpt>
      <trkpt lat="45.05908" lon="5.91107">
        <ele>1733.39</ele>
        <time>2017-07-02T12:45:24Z</time>
      </trkpt>
      <trkpt lat="45.05907" lon="5.91098">
        <ele>1733.39</ele>
        <time>2017-07-02T12:45:48Z</time>
      </trkpt>
      <trkpt lat="45.05908" lon="5.91108">
        <ele>1733.39</ele>
        <time>2017-07-02T12:46:08Z</time>
      </trkpt>
      <trkpt lat="45.05907" lon="5.91107">
        <ele>1732.91</ele>
        <time>2017-07-02T12:46:37Z</time>
      </trkpt>
      <trkpt lat="45.0591" lon="5.91104">
        <ele>1732.91</ele>
        <time>2017-07-02T12:47:00Z</time>
      </trkpt>
      <trkpt lat="45.05908" lon="5.91106">
        <ele>1733.39</ele>
        <time>2017-07-02T12:47:22Z</time>
      </trkpt>
      <trkpt lat="45.0591" lon="5.91106">
        <ele>1733.39</ele>
        <time>2017-07-02T12:47:46Z</time>
      </trkpt>
      <trkpt lat="45.05904" lon="5.91102">
        <ele>1733.39</ele>
        <time>2017-07-02T12:48:06Z</time>
      </trkpt>
      <trkpt lat="45.05905" lon="5.911">
        <ele>1732.91</ele>
        <time>2017-07-02T12:48:33Z</time>
      </trkpt>
      <trkpt lat="45.05906" lon="5.91109">
        <ele>1733.39</ele>
        <time>2017-07-02T12:49:03Z</time>
      </trkpt>
      <trkpt lat="45.05906" lon="5.91106">
        <ele>1733.88</ele>
        <time>2017-07-02T12:49:33Z</time>
      </trkpt>
      <trkpt lat="45.05905" lon="5.91106">
        <ele>1733.88</ele>
        <time>2017-07-02T12:49:59Z</time>
      </trkpt>
      <trkpt lat="45.05907" lon="5.91103">
        <ele>1733.88</ele>
        <time>2017-07-02T12:50:24Z</time>
      </trkpt>
      <trkpt lat="45.05904" lon="5.91099">
        <ele>1734.36</ele>
        <time>2017-07-02T12:50:51Z</time>
      </trkpt>
      <trkpt lat="45.05904" lon="5.91096">
        <ele>1734.36</ele>
        <time>2017-07-02T12:51:15Z</time>
      </trkpt>
      <trkpt lat="45.05906" lon="5.91106">
        <ele>1734.36</ele>
        <time>2017-07-02T12:51:33Z</time>
      </trkpt>
      <trkpt lat="45.0591" lon="5.91111">
        <ele>1733.88</ele>
        <time>2017-07-02T12:52:06Z</time>
      </trkpt>
      <trkpt lat="45.05906" lon="5.91111">
        <ele>1734.36</ele>
        <time>2017-07-02T12:52:30Z</time>
      </trkpt>
      <trkpt lat="45.05909" lon="5.91116">
        <ele>1733.88</ele>
        <time>2017-07-02T12:52:58Z</time>
      </trkpt>
      <trkpt lat="45.05906" lon="5.91118">
        <ele>1734.36</ele>
        <time>2017-07-02T12:53:24Z</time>
      </trkpt>
      <trkpt lat="45.05908" lon="5.91115">
        <ele>1734.36</ele>
        <time>2017-07-02T12:53:45Z</time>
      </trkpt>
      <trkpt lat="45.05912" lon="5.91116">
        <ele>1734.84</ele>
        <time>2017-07-02T12:54:10Z</time>
      </trkpt>
      <trkpt lat="45.05909" lon="5.91113">
        <ele>1734.36</ele>
        <time>2017-07-02T12:54:38Z</time>
      </trkpt>
      <trkpt lat="45.05914" lon="5.91111">
        <ele>1734.84</ele>
        <time>2017-07-02T12:54:56Z</time>
      </trkpt>
      <trkpt lat="45.05913" lon="5.91109">
        <ele>1734.84</ele>
        <time>2017-07-02T12:55:29Z</time>
      </trkpt>
      <trkpt lat="45.05911" lon="5.91108">
        <ele>1734.36</ele>
        <time>2017-07-02T12:55:57Z</time>
      </trkpt>
      <trkpt lat="45.05913" lon="5.91113">
        <ele>1733.88</ele>
        <time>2017-07-02T12:56:23Z</time>
      </trkpt>
      <trkpt lat="45.05913" lon="5.91111">
        <ele>1735.32</ele>
        <time>2017-07-02T12:56:58Z</time>
      </trkpt>
      <trkpt lat="45.05911" lon="5.91105">
        <ele>1734.36</ele>
        <time>2017-07-02T12:57:23Z</time>
      </trkpt>
      <trkpt lat="45.05911" lon="5.91113">
        <ele>1734.36</ele>
        <time>2017-07-02T12:57:45Z</time>
      </trkpt>
      <trkpt lat="45.05905" lon="5.9112">
        <ele>1733.88</ele>
        <time>2017-07-02T12:58:13Z</time>
      </trkpt>
      <trkpt lat="45.05908" lon="5.91114">
        <ele>1733.88</ele>
        <time>2017-07-02T12:58:36Z</time>
      </trkpt>
      <trkpt lat="45.05905" lon="5.91111">
        <ele>1734.84</ele>
        <time>2017-07-02T12:58:57Z</time>
      </trkpt>
      <trkpt lat="45.05894" lon="5.91097">
        <ele>1732.91</ele>
        <time>2017-07-02T12:59:12Z</time>
      </trkpt>
      <trkpt lat="45.05887" lon="5.91089">
        <ele>1731.95</ele>
        <time>2017-07-02T12:59:25Z</time>
      </trkpt>
      <trkpt lat="45.05885" lon="5.91071">
        <ele>1731.47</ele>
        <time>2017-07-02T12:59:38Z</time>
      </trkpt>
      <trkpt lat="45.05887" lon="5.91053">
        <ele>1730.03</ele>
        <time>2017-07-02T12:59:50Z</time>
      </trkpt>
      <trkpt lat="45.05895" lon="5.91031">
        <ele>1728.11</ele>
        <time>2017-07-02T13:00:06Z</time>
      </trkpt>
      <trkpt lat="45.05889" lon="5.90997">
        <ele>1726.18</ele>
        <time>2017-07-02T13:00:22Z</time>
      </trkpt>
      <trkpt lat="45.05887" lon="5.90995">
        <ele>1725.7</ele>
        <time>2017-07-02T13:00:23Z</time>
      </trkpt>
      <trkpt lat="45.05863" lon="5.90989">
        <ele>1724.26</ele>
        <time>2017-07-02T13:00:41Z</time>
      </trkpt>
      <trkpt lat="45.05853" lon="5.90975">
        <ele>1722.82</ele>
        <time>2017-07-02T13:00:54Z</time>
      </trkpt>
      <trkpt lat="45.05843" lon="5.90962">
        <ele>1721.38</ele>
        <time>2017-07-02T13:01:10Z</time>
      </trkpt>
      <trkpt lat="45.05834" lon="5.90944">
        <ele>1720.42</ele>
        <time>2017-07-02T13:01:25Z</time>
      </trkpt>
      <trkpt lat="45.05827" lon="5.90922">
        <ele>1719.46</ele>
        <time>2017-07-02T13:01:40Z</time>
      </trkpt>
      <trkpt lat="45.05814" lon="5.90905">
        <ele>1718.97</ele>
        <time>2017-07-02T13:01:55Z</time>
      </trkpt>
      <trkpt lat="45.05798" lon="5.90886">
        <ele>1718.01</ele>
        <time>2017-07-02T13:02:11Z</time>
      </trkpt>
      <trkpt lat="45.05783" lon="5.9087">
        <ele>1715.61</ele>
        <time>2017-07-02T13:02:25Z</time>
      </trkpt>
      <trkpt lat="45.05771" lon="5.90854">
        <ele>1714.65</ele>
        <time>2017-07-02T13:02:42Z</time>
      </trkpt>
      <trkpt lat="45.05764" lon="5.9084">
        <ele>1713.21</ele>
        <time>2017-07-02T13:02:58Z</time>
      </trkpt>
      <trkpt lat="45.05754" lon="5.90815">
        <ele>1712.73</ele>
        <time>2017-07-02T13:03:13Z</time>
      </trkpt>
      <trkpt lat="45.05747" lon="5.90803">
        <ele>1711.28</ele>
        <time>2017-07-02T13:03:26Z</time>
      </trkpt>
      <trkpt lat="45.05735" lon="5.90788">
        <ele>1709.84</ele>
        <time>2017-07-02T13:03:41Z</time>
      </trkpt>
      <trkpt lat="45.05725" lon="5.90772">
        <ele>1708.4</ele>
        <time>2017-07-02T13:03:59Z</time>
      </trkpt>
      <trkpt lat="45.05721" lon="5.90759">
        <ele>1707.44</ele>
        <time>2017-07-02T13:04:14Z</time>
      </trkpt>
      <trkpt lat="45.05711" lon="5.90739">
        <ele>1707.44</ele>
        <time>2017-07-02T13:04:23Z</time>
      </trkpt>
      <trkpt lat="45.05706" lon="5.90731">
        <ele>1706.96</ele>
        <time>2017-07-02T13:04:26Z</time>
      </trkpt>
      <trkpt lat="45.05686" lon="5.9072">
        <ele>1706.96</ele>
        <time>2017-07-02T13:04:43Z</time>
      </trkpt>
      <trkpt lat="45.05678" lon="5.90716">
        <ele>1706</ele>
        <time>2017-07-02T13:04:49Z</time>
      </trkpt>
      <trkpt lat="45.0567" lon="5.90713">
        <ele>1706</ele>
        <time>2017-07-02T13:04:57Z</time>
      </trkpt>
      <trkpt lat="45.05666" lon="5.90702">
        <ele>1705.52</ele>
        <time>2017-07-02T13:05:06Z</time>
      </trkpt>
      <trkpt lat="45.05662" lon="5.90694">
        <ele>1705.04</ele>
        <time>2017-07-02T13:05:11Z</time>
      </trkpt>
      <trkpt lat="45.0565" lon="5.90695">
        <ele>1702.15</ele>
        <time>2017-07-02T13:05:27Z</time>
      </trkpt>
      <trkpt lat="45.0565" lon="5.90698">
        <ele>1702.15</ele>
        <time>2017-07-02T13:05:33Z</time>
      </trkpt>
      <trkpt lat="45.05646" lon="5.9072">
        <ele>1699.27</ele>
        <time>2017-07-02T13:05:48Z</time>
      </trkpt>
      <trkpt lat="45.05636" lon="5.90739">
        <ele>1697.34</ele>
        <time>2017-07-02T13:06:03Z</time>
      </trkpt>
      <trkpt lat="45.05625" lon="5.90751">
        <ele>1696.38</ele>
        <time>2017-07-02T13:06:15Z</time>
      </trkpt>
      <trkpt lat="45.05615" lon="5.9076">
        <ele>1695.42</ele>
        <time>2017-07-02T13:06:27Z</time>
      </trkpt>
      <trkpt lat="45.05603" lon="5.90784">
        <ele>1694.46</ele>
        <time>2017-07-02T13:06:43Z</time>
      </trkpt>
      <trkpt lat="45.0558" lon="5.90799">
        <ele>1693.02</ele>
        <time>2017-07-02T13:06:57Z</time>
      </trkpt>
      <trkpt lat="45.05565" lon="5.90802">
        <ele>1691.58</ele>
        <time>2017-07-02T13:07:12Z</time>
      </trkpt>
      <trkpt lat="45.05552" lon="5.90804">
        <ele>1690.62</ele>
        <time>2017-07-02T13:07:25Z</time>
      </trkpt>
      <trkpt lat="45.05543" lon="5.90812">
        <ele>1690.14</ele>
        <time>2017-07-02T13:07:39Z</time>
      </trkpt>
      <trkpt lat="45.05531" lon="5.90823">
        <ele>1688.21</ele>
        <time>2017-07-02T13:07:52Z</time>
      </trkpt>
      <trkpt lat="45.05514" lon="5.90825">
        <ele>1686.77</ele>
        <time>2017-07-02T13:08:06Z</time>
      </trkpt>
      <trkpt lat="45.05501" lon="5.90831">
        <ele>1685.81</ele>
        <time>2017-07-02T13:08:18Z</time>
      </trkpt>
      <trkpt lat="45.05488" lon="5.90835">
        <ele>1684.85</ele>
        <time>2017-07-02T13:08:30Z</time>
      </trkpt>
      <trkpt lat="45.05485" lon="5.90833">
        <ele>1684.85</ele>
        <time>2017-07-02T13:08:38Z</time>
      </trkpt>
      <trkpt lat="45.05473" lon="5.90822">
        <ele>1683.41</ele>
        <time>2017-07-02T13:08:54Z</time>
      </trkpt>
      <trkpt lat="45.05466" lon="5.90815">
        <ele>1682.44</ele>
        <time>2017-07-02T13:09:00Z</time>
      </trkpt>
      <trkpt lat="45.05452" lon="5.90802">
        <ele>1680.52</ele>
        <time>2017-07-02T13:09:15Z</time>
      </trkpt>
      <trkpt lat="45.05443" lon="5.9079">
        <ele>1677.64</ele>
        <time>2017-07-02T13:09:28Z</time>
      </trkpt>
      <trkpt lat="45.05433" lon="5.90763">
        <ele>1676.2</ele>
        <time>2017-07-02T13:09:45Z</time>
      </trkpt>
      <trkpt lat="45.05427" lon="5.90742">
        <ele>1674.27</ele>
        <time>2017-07-02T13:09:59Z</time>
      </trkpt>
      <trkpt lat="45.05422" lon="5.90713">
        <ele>1672.83</ele>
        <time>2017-07-02T13:10:15Z</time>
      </trkpt>
      <trkpt lat="45.05415" lon="5.90698">
        <ele>1671.87</ele>
        <time>2017-07-02T13:10:29Z</time>
      </trkpt>
      <trkpt lat="45.05411" lon="5.90683">
        <ele>1671.39</ele>
        <time>2017-07-02T13:10:42Z</time>
      </trkpt>
      <trkpt lat="45.05402" lon="5.90662">
        <ele>1670.43</ele>
        <time>2017-07-02T13:10:56Z</time>
      </trkpt>
      <trkpt lat="45.0539" lon="5.90647">
        <ele>1667.54</ele>
        <time>2017-07-02T13:11:11Z</time>
      </trkpt>
      <trkpt lat="45.05383" lon="5.90621">
        <ele>1667.06</ele>
        <time>2017-07-02T13:11:29Z</time>
      </trkpt>
      <trkpt lat="45.05382" lon="5.90617">
        <ele>1666.58</ele>
        <time>2017-07-02T13:11:31Z</time>
      </trkpt>
      <trkpt lat="45.05379" lon="5.90608">
        <ele>1665.62</ele>
        <time>2017-07-02T13:11:37Z</time>
      </trkpt>
      <trkpt lat="45.0538" lon="5.90588">
        <ele>1664.66</ele>
        <time>2017-07-02T13:11:50Z</time>
      </trkpt>
      <trkpt lat="45.05378" lon="5.90568">
        <ele>1664.18</ele>
        <time>2017-07-02T13:12:06Z</time>
      </trkpt>
      <trkpt lat="45.05374" lon="5.90552">
        <ele>1662.74</ele>
        <time>2017-07-02T13:12:18Z</time>
      </trkpt>
      <trkpt lat="45.05373" lon="5.90531">
        <ele>1659.85</ele>
        <time>2017-07-02T13:12:33Z</time>
      </trkpt>
      <trkpt lat="45.05367" lon="5.90509">
        <ele>1659.85</ele>
        <time>2017-07-02T13:12:48Z</time>
      </trkpt>
      <trkpt lat="45.0536" lon="5.90489">
        <ele>1659.37</ele>
        <time>2017-07-02T13:13:02Z</time>
      </trkpt>
      <trkpt lat="45.05355" lon="5.90467">
        <ele>1658.41</ele>
        <time>2017-07-02T13:13:17Z</time>
      </trkpt>
      <trkpt lat="45.05354" lon="5.90462">
        <ele>1658.41</ele>
        <time>2017-07-02T13:13:20Z</time>
      </trkpt>
      <trkpt lat="45.05349" lon="5.90441">
        <ele>1657.45</ele>
        <time>2017-07-02T13:13:34Z</time>
      </trkpt>
      <trkpt lat="45.05349" lon="5.90424">
        <ele>1655.53</ele>
        <time>2017-07-02T13:13:45Z</time>
      </trkpt>
      <trkpt lat="45.05347" lon="5.90408">
        <ele>1654.09</ele>
        <time>2017-07-02T13:13:57Z</time>
      </trkpt>
      <trkpt lat="45.05342" lon="5.9039">
        <ele>1654.09</ele>
        <time>2017-07-02T13:14:10Z</time>
      </trkpt>
      <trkpt lat="45.05337" lon="5.90369">
        <ele>1652.64</ele>
        <time>2017-07-02T13:14:24Z</time>
      </trkpt>
      <trkpt lat="45.05336" lon="5.90352">
        <ele>1652.64</ele>
        <time>2017-07-02T13:14:34Z</time>
      </trkpt>
      <trkpt lat="45.05327" lon="5.90323">
        <ele>1651.68</ele>
        <time>2017-07-02T13:14:51Z</time>
      </trkpt>
      <trkpt lat="45.05321" lon="5.90301">
        <ele>1651.68</ele>
        <time>2017-07-02T13:15:05Z</time>
      </trkpt>
      <trkpt lat="45.0532" lon="5.90284">
        <ele>1651.2</ele>
        <time>2017-07-02T13:15:16Z</time>
      </trkpt>
      <trkpt lat="45.05321" lon="5.90283">
        <ele>1651.2</ele>
        <time>2017-07-02T13:15:17Z</time>
      </trkpt>
      <trkpt lat="45.05319" lon="5.90278">
        <ele>1651.2</ele>
        <time>2017-07-02T13:15:20Z</time>
      </trkpt>
      <trkpt lat="45.05317" lon="5.90265">
        <ele>1650.72</ele>
        <time>2017-07-02T13:15:27Z</time>
      </trkpt>
      <trkpt lat="45.05315" lon="5.90251">
        <ele>1650.24</ele>
        <time>2017-07-02T13:15:38Z</time>
      </trkpt>
      <trkpt lat="45.05312" lon="5.90243">
        <ele>1649.28</ele>
        <time>2017-07-02T13:15:44Z</time>
      </trkpt>
      <trkpt lat="45.05313" lon="5.90235">
        <ele>1648.8</ele>
        <time>2017-07-02T13:15:48Z</time>
      </trkpt>
      <trkpt lat="45.05311" lon="5.90218">
        <ele>1647.84</ele>
        <time>2017-07-02T13:15:59Z</time>
      </trkpt>
      <trkpt lat="45.05306" lon="5.90197">
        <ele>1646.88</ele>
        <time>2017-07-02T13:16:12Z</time>
      </trkpt>
      <trkpt lat="45.05303" lon="5.9018">
        <ele>1646.4</ele>
        <time>2017-07-02T13:16:23Z</time>
      </trkpt>
      <trkpt lat="45.05308" lon="5.90171">
        <ele>1648.32</ele>
        <time>2017-07-02T13:16:32Z</time>
      </trkpt>
      <trkpt lat="45.0531" lon="5.90146">
        <ele>1648.32</ele>
        <time>2017-07-02T13:16:47Z</time>
      </trkpt>
      <trkpt lat="45.05309" lon="5.9014">
        <ele>1648.32</ele>
        <time>2017-07-02T13:16:51Z</time>
      </trkpt>
      <trkpt lat="45.05311" lon="5.90133">
        <ele>1648.8</ele>
        <time>2017-07-02T13:16:57Z</time>
      </trkpt>
      <trkpt lat="45.05309" lon="5.90122">
        <ele>1648.32</ele>
        <time>2017-07-02T13:17:05Z</time>
      </trkpt>
      <trkpt lat="45.05303" lon="5.90109">
        <ele>1650.24</ele>
        <time>2017-07-02T13:17:15Z</time>
      </trkpt>
      <trkpt lat="45.05302" lon="5.90101">
        <ele>1649.28</ele>
        <time>2017-07-02T13:17:21Z</time>
      </trkpt>
      <trkpt lat="45.05297" lon="5.90081">
        <ele>1650.24</ele>
        <time>2017-07-02T13:17:35Z</time>
      </trkpt>
      <trkpt lat="45.05303" lon="5.90066">
        <ele>1651.2</ele>
        <time>2017-07-02T13:17:47Z</time>
      </trkpt>
      <trkpt lat="45.05308" lon="5.90053">
        <ele>1651.68</ele>
        <time>2017-07-02T13:17:58Z</time>
      </trkpt>
      <trkpt lat="45.05317" lon="5.90038">
        <ele>1654.09</ele>
        <time>2017-07-02T13:18:11Z</time>
      </trkpt>
      <trkpt lat="45.0532" lon="5.90023">
        <ele>1655.53</ele>
        <time>2017-07-02T13:18:23Z</time>
      </trkpt>
      <trkpt lat="45.05321" lon="5.90006">
        <ele>1656.49</ele>
        <time>2017-07-02T13:18:36Z</time>
      </trkpt>
      <trkpt lat="45.05324" lon="5.89999">
        <ele>1657.45</ele>
        <time>2017-07-02T13:18:41Z</time>
      </trkpt>
      <trkpt lat="45.05325" lon="5.89992">
        <ele>1657.45</ele>
        <time>2017-07-02T13:18:47Z</time>
      </trkpt>
      <trkpt lat="45.05321" lon="5.89973">
        <ele>1658.41</ele>
        <time>2017-07-02T13:18:59Z</time>
      </trkpt>
      <trkpt lat="45.05321" lon="5.89972">
        <ele>1658.89</ele>
        <time>2017-07-02T13:19:00Z</time>
      </trkpt>
      <trkpt lat="45.05316" lon="5.89953">
        <ele>1659.37</ele>
        <time>2017-07-02T13:19:14Z</time>
      </trkpt>
      <trkpt lat="45.05315" lon="5.89938">
        <ele>1659.85</ele>
        <time>2017-07-02T13:19:26Z</time>
      </trkpt>
      <trkpt lat="45.05309" lon="5.89921">
        <ele>1660.81</ele>
        <time>2017-07-02T13:19:39Z</time>
      </trkpt>
      <trkpt lat="45.05304" lon="5.89923">
        <ele>1660.33</ele>
        <time>2017-07-02T13:19:51Z</time>
      </trkpt>
      <trkpt lat="45.05308" lon="5.89911">
        <ele>1660.33</ele>
        <time>2017-07-02T13:20:05Z</time>
      </trkpt>
      <trkpt lat="45.05308" lon="5.89904">
        <ele>1660.33</ele>
        <time>2017-07-02T13:20:09Z</time>
      </trkpt>
      <trkpt lat="45.05305" lon="5.89892">
        <ele>1660.81</ele>
        <time>2017-07-02T13:20:19Z</time>
      </trkpt>
      <trkpt lat="45.05305" lon="5.89882">
        <ele>1660.81</ele>
        <time>2017-07-02T13:20:28Z</time>
      </trkpt>
      <trkpt lat="45.05306" lon="5.8987">
        <ele>1660.33</ele>
        <time>2017-07-02T13:20:42Z</time>
      </trkpt>
      <trkpt lat="45.05305" lon="5.89852">
        <ele>1661.3</ele>
        <time>2017-07-02T13:21:01Z</time>
      </trkpt>
      <trkpt lat="45.053" lon="5.89847">
        <ele>1661.78</ele>
        <time>2017-07-02T13:21:09Z</time>
      </trkpt>
      <trkpt lat="45.05298" lon="5.89831">
        <ele>1661.78</ele>
        <time>2017-07-02T13:21:22Z</time>
      </trkpt>
      <trkpt lat="45.05288" lon="5.89826">
        <ele>1661.78</ele>
        <time>2017-07-02T13:21:35Z</time>
      </trkpt>
      <trkpt lat="45.05293" lon="5.89818">
        <ele>1661.78</ele>
        <time>2017-07-02T13:21:50Z</time>
      </trkpt>
      <trkpt lat="45.05295" lon="5.89817">
        <ele>1661.3</ele>
        <time>2017-07-02T13:22:00Z</time>
      </trkpt>
      <trkpt lat="45.05295" lon="5.89818">
        <ele>1661.78</ele>
        <time>2017-07-02T13:22:16Z</time>
      </trkpt>
      <trkpt lat="45.05282" lon="5.89825">
        <ele>1660.81</ele>
        <time>2017-07-02T13:22:39Z</time>
      </trkpt>
      <trkpt lat="45.05278" lon="5.89825">
        <ele>1660.33</ele>
        <time>2017-07-02T13:22:50Z</time>
      </trkpt>
      <trkpt lat="45.05295" lon="5.89818">
        <ele>1663.22</ele>
        <time>2017-07-02T13:29:16Z</time>
      </trkpt>
      <trkpt lat="45.05304" lon="5.89821">
        <ele>1662.26</ele>
        <time>2017-07-02T13:29:17Z</time>
      </trkpt>
      <trkpt lat="45.05292" lon="5.89822">
        <ele>1660.33</ele>
        <time>2017-07-02T13:29:35Z</time>
      </trkpt>
    </trkseg>
  </trk>
</gpx>